<?xml version="1.0" encoding="UTF-8" standalone="no" ?>
<gpx xmlns="http://www.topografix.com/GPX/1/1" xmlns:xsi="http://www.w3.org/2001/XMLSchema-instance" xsi:schemaLocation="http://www.topografix.com/GPX/1/1 http://www.topografix.com/GPX/1/1/gpx.xsd" version="1.1" creator="VisuGPX - https://www.visugpx.com">
  <metadata>
    <name>ahuy parking milles clubs</name>
    <desc><![CDATA[sortie vtt de décembre au départ du parking des milles clubs
Sortie agréable mais exigeante]]></desc>
  </metadata>
  <trk>
    <name><![CDATA[Current Track: 28 DEC 2016 13:22]]></name>
    <trkseg>
      <trkpt lat="47.36905" lon="5.02556">
        <ele>264.5</ele>
        <time>2016-12-28T12:22:30Z</time>
      </trkpt>
      <trkpt lat="47.36907" lon="5.02555">
        <ele>259.21</ele>
        <time>2016-12-28T12:22:52Z</time>
      </trkpt>
      <trkpt lat="47.36906" lon="5.02556">
        <ele>260.17</ele>
        <time>2016-12-28T12:23:20Z</time>
      </trkpt>
      <trkpt lat="47.36906" lon="5.02557">
        <ele>261.62</ele>
        <time>2016-12-28T12:23:47Z</time>
      </trkpt>
      <trkpt lat="47.36905" lon="5.02555">
        <ele>261.62</ele>
        <time>2016-12-28T12:24:16Z</time>
      </trkpt>
      <trkpt lat="47.36905" lon="5.02557">
        <ele>262.1</ele>
        <time>2016-12-28T12:24:54Z</time>
      </trkpt>
      <trkpt lat="47.36904" lon="5.02557">
        <ele>262.1</ele>
        <time>2016-12-28T12:25:41Z</time>
      </trkpt>
      <trkpt lat="47.36905" lon="5.02557">
        <ele>262.58</ele>
        <time>2016-12-28T12:26:23Z</time>
      </trkpt>
      <trkpt lat="47.36905" lon="5.02556">
        <ele>264.02</ele>
        <time>2016-12-28T12:26:58Z</time>
      </trkpt>
      <trkpt lat="47.36905" lon="5.02556">
        <ele>263.54</ele>
        <time>2016-12-28T12:27:17Z</time>
      </trkpt>
      <trkpt lat="47.36906" lon="5.02557">
        <ele>262.1</ele>
        <time>2016-12-28T12:27:45Z</time>
      </trkpt>
      <trkpt lat="47.36906" lon="5.02557">
        <ele>261.62</ele>
        <time>2016-12-28T12:28:31Z</time>
      </trkpt>
      <trkpt lat="47.36906" lon="5.02556">
        <ele>262.58</ele>
        <time>2016-12-28T12:29:24Z</time>
      </trkpt>
      <trkpt lat="47.36907" lon="5.02564">
        <ele>262.58</ele>
        <time>2016-12-28T12:29:41Z</time>
      </trkpt>
      <trkpt lat="47.36906" lon="5.02565">
        <ele>262.1</ele>
        <time>2016-12-28T12:29:57Z</time>
      </trkpt>
      <trkpt lat="47.36907" lon="5.02567">
        <ele>261.62</ele>
        <time>2016-12-28T12:30:07Z</time>
      </trkpt>
      <trkpt lat="47.36911" lon="5.02567">
        <ele>262.58</ele>
        <time>2016-12-28T12:30:14Z</time>
      </trkpt>
      <trkpt lat="47.3691" lon="5.02567">
        <ele>262.1</ele>
        <time>2016-12-28T12:30:30Z</time>
      </trkpt>
      <trkpt lat="47.36911" lon="5.02566">
        <ele>262.58</ele>
        <time>2016-12-28T12:30:57Z</time>
      </trkpt>
      <trkpt lat="47.36911" lon="5.02566">
        <ele>262.1</ele>
        <time>2016-12-28T12:31:21Z</time>
      </trkpt>
      <trkpt lat="47.36911" lon="5.02567">
        <ele>262.58</ele>
        <time>2016-12-28T12:31:37Z</time>
      </trkpt>
      <trkpt lat="47.36912" lon="5.02567">
        <ele>262.1</ele>
        <time>2016-12-28T12:31:59Z</time>
      </trkpt>
      <trkpt lat="47.36911" lon="5.02566">
        <ele>263.54</ele>
        <time>2016-12-28T12:32:21Z</time>
      </trkpt>
      <trkpt lat="47.36911" lon="5.02565">
        <ele>265.46</ele>
        <time>2016-12-28T12:32:48Z</time>
      </trkpt>
      <trkpt lat="47.3691" lon="5.02564">
        <ele>266.9</ele>
        <time>2016-12-28T12:33:12Z</time>
      </trkpt>
      <trkpt lat="47.3691" lon="5.02564">
        <ele>268.83</ele>
        <time>2016-12-28T12:33:44Z</time>
      </trkpt>
      <trkpt lat="47.3691" lon="5.02563">
        <ele>270.75</ele>
        <time>2016-12-28T12:34:08Z</time>
      </trkpt>
      <trkpt lat="47.36909" lon="5.02564">
        <ele>271.23</ele>
        <time>2016-12-28T12:34:11Z</time>
      </trkpt>
      <trkpt lat="47.36905" lon="5.02572">
        <ele>271.71</ele>
        <time>2016-12-28T12:34:16Z</time>
      </trkpt>
      <trkpt lat="47.36915" lon="5.02561">
        <ele>273.63</ele>
        <time>2016-12-28T12:34:28Z</time>
      </trkpt>
      <trkpt lat="47.36916" lon="5.02567">
        <ele>274.59</ele>
        <time>2016-12-28T12:34:35Z</time>
      </trkpt>
      <trkpt lat="47.36916" lon="5.02567">
        <ele>274.59</ele>
        <time>2016-12-28T12:34:59Z</time>
      </trkpt>
      <trkpt lat="47.36916" lon="5.02567">
        <ele>274.11</ele>
        <time>2016-12-28T12:35:01Z</time>
      </trkpt>
      <trkpt lat="47.36911" lon="5.02566">
        <ele>273.63</ele>
        <time>2016-12-28T12:35:13Z</time>
      </trkpt>
      <trkpt lat="47.36911" lon="5.02566">
        <ele>274.11</ele>
        <time>2016-12-28T12:35:37Z</time>
      </trkpt>
      <trkpt lat="47.36914" lon="5.0257">
        <ele>274.11</ele>
        <time>2016-12-28T12:35:42Z</time>
      </trkpt>
      <trkpt lat="47.36923" lon="5.02562">
        <ele>274.11</ele>
        <time>2016-12-28T12:35:47Z</time>
      </trkpt>
      <trkpt lat="47.36927" lon="5.02551">
        <ele>274.59</ele>
        <time>2016-12-28T12:35:51Z</time>
      </trkpt>
      <trkpt lat="47.36959" lon="5.0254">
        <ele>274.59</ele>
        <time>2016-12-28T12:36:04Z</time>
      </trkpt>
      <trkpt lat="47.36998" lon="5.0254">
        <ele>274.11</ele>
        <time>2016-12-28T12:36:15Z</time>
      </trkpt>
      <trkpt lat="47.37035" lon="5.02522">
        <ele>274.59</ele>
        <time>2016-12-28T12:36:25Z</time>
      </trkpt>
      <trkpt lat="47.37065" lon="5.02525">
        <ele>273.63</ele>
        <time>2016-12-28T12:36:32Z</time>
      </trkpt>
      <trkpt lat="47.37137" lon="5.02541">
        <ele>273.63</ele>
        <time>2016-12-28T12:36:49Z</time>
      </trkpt>
      <trkpt lat="47.37222" lon="5.02558">
        <ele>273.63</ele>
        <time>2016-12-28T12:37:10Z</time>
      </trkpt>
      <trkpt lat="47.37233" lon="5.02555">
        <ele>273.63</ele>
        <time>2016-12-28T12:37:13Z</time>
      </trkpt>
      <trkpt lat="47.37292" lon="5.02561">
        <ele>272.19</ele>
        <time>2016-12-28T12:37:28Z</time>
      </trkpt>
      <trkpt lat="47.37306" lon="5.02552">
        <ele>272.67</ele>
        <time>2016-12-28T12:37:32Z</time>
      </trkpt>
      <trkpt lat="47.37345" lon="5.02506">
        <ele>274.11</ele>
        <time>2016-12-28T12:37:47Z</time>
      </trkpt>
      <trkpt lat="47.37383" lon="5.02469">
        <ele>277</ele>
        <time>2016-12-28T12:38:05Z</time>
      </trkpt>
      <trkpt lat="47.37427" lon="5.02442">
        <ele>279.4</ele>
        <time>2016-12-28T12:38:22Z</time>
      </trkpt>
      <trkpt lat="47.37477" lon="5.02414">
        <ele>281.8</ele>
        <time>2016-12-28T12:38:40Z</time>
      </trkpt>
      <trkpt lat="47.37531" lon="5.0239">
        <ele>280.36</ele>
        <time>2016-12-28T12:38:57Z</time>
      </trkpt>
      <trkpt lat="47.37577" lon="5.02369">
        <ele>279.88</ele>
        <time>2016-12-28T12:39:12Z</time>
      </trkpt>
      <trkpt lat="47.37575" lon="5.02357">
        <ele>281.32</ele>
        <time>2016-12-28T12:39:16Z</time>
      </trkpt>
      <trkpt lat="47.37529" lon="5.02329">
        <ele>285.65</ele>
        <time>2016-12-28T12:39:33Z</time>
      </trkpt>
      <trkpt lat="47.37479" lon="5.02311">
        <ele>288.53</ele>
        <time>2016-12-28T12:39:51Z</time>
      </trkpt>
      <trkpt lat="47.37432" lon="5.02285">
        <ele>289.97</ele>
        <time>2016-12-28T12:40:09Z</time>
      </trkpt>
      <trkpt lat="47.37389" lon="5.0225">
        <ele>292.86</ele>
        <time>2016-12-28T12:40:26Z</time>
      </trkpt>
      <trkpt lat="47.3735" lon="5.02223">
        <ele>297.18</ele>
        <time>2016-12-28T12:40:41Z</time>
      </trkpt>
      <trkpt lat="47.37304" lon="5.0217">
        <ele>299.59</ele>
        <time>2016-12-28T12:41:01Z</time>
      </trkpt>
      <trkpt lat="47.37268" lon="5.02108">
        <ele>302.95</ele>
        <time>2016-12-28T12:41:20Z</time>
      </trkpt>
      <trkpt lat="47.37236" lon="5.02063">
        <ele>304.39</ele>
        <time>2016-12-28T12:41:35Z</time>
      </trkpt>
      <trkpt lat="47.37194" lon="5.02005">
        <ele>306.32</ele>
        <time>2016-12-28T12:41:54Z</time>
      </trkpt>
      <trkpt lat="47.37151" lon="5.01978">
        <ele>305.36</ele>
        <time>2016-12-28T12:42:10Z</time>
      </trkpt>
      <trkpt lat="47.37135" lon="5.0197">
        <ele>304.88</ele>
        <time>2016-12-28T12:42:15Z</time>
      </trkpt>
      <trkpt lat="47.37106" lon="5.01969">
        <ele>302.95</ele>
        <time>2016-12-28T12:42:21Z</time>
      </trkpt>
      <trkpt lat="47.37083" lon="5.01967">
        <ele>301.99</ele>
        <time>2016-12-28T12:42:25Z</time>
      </trkpt>
      <trkpt lat="47.3706" lon="5.01961">
        <ele>301.99</ele>
        <time>2016-12-28T12:42:29Z</time>
      </trkpt>
      <trkpt lat="47.37034" lon="5.01958">
        <ele>301.51</ele>
        <time>2016-12-28T12:42:34Z</time>
      </trkpt>
      <trkpt lat="47.3702" lon="5.01938">
        <ele>302.95</ele>
        <time>2016-12-28T12:42:39Z</time>
      </trkpt>
      <trkpt lat="47.37025" lon="5.01916">
        <ele>303.43</ele>
        <time>2016-12-28T12:42:47Z</time>
      </trkpt>
      <trkpt lat="47.37019" lon="5.01904">
        <ele>301.51</ele>
        <time>2016-12-28T12:42:55Z</time>
      </trkpt>
      <trkpt lat="47.37018" lon="5.01896">
        <ele>300.55</ele>
        <time>2016-12-28T12:42:59Z</time>
      </trkpt>
      <trkpt lat="47.37018" lon="5.01882">
        <ele>299.11</ele>
        <time>2016-12-28T12:43:02Z</time>
      </trkpt>
      <trkpt lat="47.37023" lon="5.01849">
        <ele>294.3</ele>
        <time>2016-12-28T12:43:09Z</time>
      </trkpt>
      <trkpt lat="47.37023" lon="5.01834">
        <ele>293.82</ele>
        <time>2016-12-28T12:43:13Z</time>
      </trkpt>
      <trkpt lat="47.37026" lon="5.01815">
        <ele>295.74</ele>
        <time>2016-12-28T12:43:26Z</time>
      </trkpt>
      <trkpt lat="47.37028" lon="5.01806">
        <ele>299.59</ele>
        <time>2016-12-28T12:43:41Z</time>
      </trkpt>
      <trkpt lat="47.37032" lon="5.01796">
        <ele>304.88</ele>
        <time>2016-12-28T12:43:57Z</time>
      </trkpt>
      <trkpt lat="47.37035" lon="5.01778">
        <ele>308.24</ele>
        <time>2016-12-28T12:44:14Z</time>
      </trkpt>
      <trkpt lat="47.3704" lon="5.01768">
        <ele>309.2</ele>
        <time>2016-12-28T12:44:29Z</time>
      </trkpt>
      <trkpt lat="47.37043" lon="5.01757">
        <ele>311.12</ele>
        <time>2016-12-28T12:44:43Z</time>
      </trkpt>
      <trkpt lat="47.37044" lon="5.01749">
        <ele>312.09</ele>
        <time>2016-12-28T12:44:55Z</time>
      </trkpt>
      <trkpt lat="47.37044" lon="5.01747">
        <ele>312.57</ele>
        <time>2016-12-28T12:44:56Z</time>
      </trkpt>
      <trkpt lat="47.3705" lon="5.01727">
        <ele>314.49</ele>
        <time>2016-12-28T12:45:08Z</time>
      </trkpt>
      <trkpt lat="47.37051" lon="5.01713">
        <ele>314.49</ele>
        <time>2016-12-28T12:45:14Z</time>
      </trkpt>
      <trkpt lat="47.37055" lon="5.017">
        <ele>315.45</ele>
        <time>2016-12-28T12:45:20Z</time>
      </trkpt>
      <trkpt lat="47.37053" lon="5.01693">
        <ele>314.01</ele>
        <time>2016-12-28T12:45:33Z</time>
      </trkpt>
      <trkpt lat="47.37053" lon="5.01694">
        <ele>314.01</ele>
        <time>2016-12-28T12:45:51Z</time>
      </trkpt>
      <trkpt lat="47.37053" lon="5.01694">
        <ele>314.01</ele>
        <time>2016-12-28T12:46:14Z</time>
      </trkpt>
      <trkpt lat="47.37053" lon="5.01693">
        <ele>315.93</ele>
        <time>2016-12-28T12:46:47Z</time>
      </trkpt>
      <trkpt lat="47.37053" lon="5.01695">
        <ele>316.41</ele>
        <time>2016-12-28T12:47:07Z</time>
      </trkpt>
      <trkpt lat="47.37054" lon="5.01695">
        <ele>316.89</ele>
        <time>2016-12-28T12:47:35Z</time>
      </trkpt>
      <trkpt lat="47.37054" lon="5.01693">
        <ele>317.37</ele>
        <time>2016-12-28T12:47:56Z</time>
      </trkpt>
      <trkpt lat="47.37053" lon="5.01692">
        <ele>317.37</ele>
        <time>2016-12-28T12:48:19Z</time>
      </trkpt>
      <trkpt lat="47.37054" lon="5.01699">
        <ele>316.41</ele>
        <time>2016-12-28T12:48:23Z</time>
      </trkpt>
      <trkpt lat="47.37082" lon="5.0173">
        <ele>314.97</ele>
        <time>2016-12-28T12:48:39Z</time>
      </trkpt>
      <trkpt lat="47.37105" lon="5.01744">
        <ele>315.45</ele>
        <time>2016-12-28T12:48:49Z</time>
      </trkpt>
      <trkpt lat="47.3711" lon="5.01746">
        <ele>315.93</ele>
        <time>2016-12-28T12:48:52Z</time>
      </trkpt>
      <trkpt lat="47.37116" lon="5.01753">
        <ele>315.93</ele>
        <time>2016-12-28T12:48:55Z</time>
      </trkpt>
      <trkpt lat="47.37132" lon="5.01766">
        <ele>315.93</ele>
        <time>2016-12-28T12:48:59Z</time>
      </trkpt>
      <trkpt lat="47.37151" lon="5.01779">
        <ele>315.45</ele>
        <time>2016-12-28T12:49:04Z</time>
      </trkpt>
      <trkpt lat="47.37156" lon="5.01815">
        <ele>314.01</ele>
        <time>2016-12-28T12:49:10Z</time>
      </trkpt>
      <trkpt lat="47.37161" lon="5.01856">
        <ele>312.09</ele>
        <time>2016-12-28T12:49:17Z</time>
      </trkpt>
      <trkpt lat="47.3717" lon="5.01866">
        <ele>310.64</ele>
        <time>2016-12-28T12:49:22Z</time>
      </trkpt>
      <trkpt lat="47.37203" lon="5.01873">
        <ele>312.09</ele>
        <time>2016-12-28T12:49:33Z</time>
      </trkpt>
      <trkpt lat="47.37235" lon="5.01872">
        <ele>320.74</ele>
        <time>2016-12-28T12:49:47Z</time>
      </trkpt>
      <trkpt lat="47.37264" lon="5.01872">
        <ele>322.66</ele>
        <time>2016-12-28T12:50:01Z</time>
      </trkpt>
      <trkpt lat="47.37282" lon="5.01872">
        <ele>323.14</ele>
        <time>2016-12-28T12:50:11Z</time>
      </trkpt>
      <trkpt lat="47.37291" lon="5.01832">
        <ele>320.26</ele>
        <time>2016-12-28T12:50:23Z</time>
      </trkpt>
      <trkpt lat="47.37299" lon="5.01764">
        <ele>314.97</ele>
        <time>2016-12-28T12:50:39Z</time>
      </trkpt>
      <trkpt lat="47.373" lon="5.01751">
        <ele>314.01</ele>
        <time>2016-12-28T12:50:44Z</time>
      </trkpt>
      <trkpt lat="47.37304" lon="5.0174">
        <ele>314.97</ele>
        <time>2016-12-28T12:50:50Z</time>
      </trkpt>
      <trkpt lat="47.37306" lon="5.01729">
        <ele>317.37</ele>
        <time>2016-12-28T12:51:02Z</time>
      </trkpt>
      <trkpt lat="47.3731" lon="5.01723">
        <ele>318.81</ele>
        <time>2016-12-28T12:51:16Z</time>
      </trkpt>
      <trkpt lat="47.3731" lon="5.01724">
        <ele>319.3</ele>
        <time>2016-12-28T12:51:21Z</time>
      </trkpt>
      <trkpt lat="47.37316" lon="5.01727">
        <ele>321.7</ele>
        <time>2016-12-28T12:51:27Z</time>
      </trkpt>
      <trkpt lat="47.3732" lon="5.01726">
        <ele>323.62</ele>
        <time>2016-12-28T12:51:43Z</time>
      </trkpt>
      <trkpt lat="47.37321" lon="5.01726">
        <ele>326.02</ele>
        <time>2016-12-28T12:52:07Z</time>
      </trkpt>
      <trkpt lat="47.37321" lon="5.01725">
        <ele>326.02</ele>
        <time>2016-12-28T12:52:28Z</time>
      </trkpt>
      <trkpt lat="47.37322" lon="5.01726">
        <ele>326.99</ele>
        <time>2016-12-28T12:53:02Z</time>
      </trkpt>
      <trkpt lat="47.37323" lon="5.01725">
        <ele>327.47</ele>
        <time>2016-12-28T12:53:26Z</time>
      </trkpt>
      <trkpt lat="47.37322" lon="5.01725">
        <ele>326.99</ele>
        <time>2016-12-28T12:53:50Z</time>
      </trkpt>
      <trkpt lat="47.37326" lon="5.0173">
        <ele>327.47</ele>
        <time>2016-12-28T12:54:25Z</time>
      </trkpt>
      <trkpt lat="47.37327" lon="5.01731">
        <ele>327.95</ele>
        <time>2016-12-28T12:54:26Z</time>
      </trkpt>
      <trkpt lat="47.37349" lon="5.01744">
        <ele>329.39</ele>
        <time>2016-12-28T12:54:38Z</time>
      </trkpt>
      <trkpt lat="47.37385" lon="5.01753">
        <ele>331.79</ele>
        <time>2016-12-28T12:54:52Z</time>
      </trkpt>
      <trkpt lat="47.3742" lon="5.01765">
        <ele>332.27</ele>
        <time>2016-12-28T12:55:03Z</time>
      </trkpt>
      <trkpt lat="47.37442" lon="5.01776">
        <ele>333.23</ele>
        <time>2016-12-28T12:55:08Z</time>
      </trkpt>
      <trkpt lat="47.37453" lon="5.0178">
        <ele>333.23</ele>
        <time>2016-12-28T12:55:10Z</time>
      </trkpt>
      <trkpt lat="47.37463" lon="5.01781">
        <ele>332.75</ele>
        <time>2016-12-28T12:55:12Z</time>
      </trkpt>
      <trkpt lat="47.37485" lon="5.01783">
        <ele>332.75</ele>
        <time>2016-12-28T12:55:17Z</time>
      </trkpt>
      <trkpt lat="47.37502" lon="5.0179">
        <ele>332.75</ele>
        <time>2016-12-28T12:55:21Z</time>
      </trkpt>
      <trkpt lat="47.37524" lon="5.0181">
        <ele>331.79</ele>
        <time>2016-12-28T12:55:26Z</time>
      </trkpt>
      <trkpt lat="47.37539" lon="5.0182">
        <ele>331.31</ele>
        <time>2016-12-28T12:55:29Z</time>
      </trkpt>
      <trkpt lat="47.37562" lon="5.01837">
        <ele>329.39</ele>
        <time>2016-12-28T12:55:33Z</time>
      </trkpt>
      <trkpt lat="47.37585" lon="5.0185">
        <ele>327.47</ele>
        <time>2016-12-28T12:55:37Z</time>
      </trkpt>
      <trkpt lat="47.37598" lon="5.01871">
        <ele>322.18</ele>
        <time>2016-12-28T12:55:44Z</time>
      </trkpt>
      <trkpt lat="47.37607" lon="5.0188">
        <ele>319.78</ele>
        <time>2016-12-28T12:55:48Z</time>
      </trkpt>
      <trkpt lat="47.37624" lon="5.01888">
        <ele>318.81</ele>
        <time>2016-12-28T12:55:52Z</time>
      </trkpt>
      <trkpt lat="47.37669" lon="5.01899">
        <ele>316.41</ele>
        <time>2016-12-28T12:56:01Z</time>
      </trkpt>
      <trkpt lat="47.3769" lon="5.01906">
        <ele>314.49</ele>
        <time>2016-12-28T12:56:06Z</time>
      </trkpt>
      <trkpt lat="47.37718" lon="5.01895">
        <ele>314.97</ele>
        <time>2016-12-28T12:56:13Z</time>
      </trkpt>
      <trkpt lat="47.3774" lon="5.01893">
        <ele>315.45</ele>
        <time>2016-12-28T12:56:18Z</time>
      </trkpt>
      <trkpt lat="47.37761" lon="5.01894">
        <ele>315.93</ele>
        <time>2016-12-28T12:56:23Z</time>
      </trkpt>
      <trkpt lat="47.37803" lon="5.01906">
        <ele>314.01</ele>
        <time>2016-12-28T12:56:35Z</time>
      </trkpt>
      <trkpt lat="47.37827" lon="5.01906">
        <ele>314.01</ele>
        <time>2016-12-28T12:56:45Z</time>
      </trkpt>
      <trkpt lat="47.37835" lon="5.01908">
        <ele>314.01</ele>
        <time>2016-12-28T12:56:47Z</time>
      </trkpt>
      <trkpt lat="47.37852" lon="5.01907">
        <ele>314.49</ele>
        <time>2016-12-28T12:56:51Z</time>
      </trkpt>
      <trkpt lat="47.37932" lon="5.01904">
        <ele>313.05</ele>
        <time>2016-12-28T12:57:09Z</time>
      </trkpt>
      <trkpt lat="47.37971" lon="5.01903">
        <ele>312.57</ele>
        <time>2016-12-28T12:57:19Z</time>
      </trkpt>
      <trkpt lat="47.37979" lon="5.01901">
        <ele>312.09</ele>
        <time>2016-12-28T12:57:21Z</time>
      </trkpt>
      <trkpt lat="47.38003" lon="5.01899">
        <ele>310.64</ele>
        <time>2016-12-28T12:57:27Z</time>
      </trkpt>
      <trkpt lat="47.38007" lon="5.01885">
        <ele>310.16</ele>
        <time>2016-12-28T12:57:31Z</time>
      </trkpt>
      <trkpt lat="47.38005" lon="5.0182">
        <ele>310.16</ele>
        <time>2016-12-28T12:57:45Z</time>
      </trkpt>
      <trkpt lat="47.37998" lon="5.01751">
        <ele>312.57</ele>
        <time>2016-12-28T12:58:01Z</time>
      </trkpt>
      <trkpt lat="47.37987" lon="5.01694">
        <ele>315.45</ele>
        <time>2016-12-28T12:58:15Z</time>
      </trkpt>
      <trkpt lat="47.37983" lon="5.01674">
        <ele>315.93</ele>
        <time>2016-12-28T12:58:20Z</time>
      </trkpt>
      <trkpt lat="47.37984" lon="5.01669">
        <ele>315.93</ele>
        <time>2016-12-28T12:58:23Z</time>
      </trkpt>
      <trkpt lat="47.38001" lon="5.01659">
        <ele>318.81</ele>
        <time>2016-12-28T12:58:32Z</time>
      </trkpt>
      <trkpt lat="47.38016" lon="5.01682">
        <ele>319.78</ele>
        <time>2016-12-28T12:58:41Z</time>
      </trkpt>
      <trkpt lat="47.38028" lon="5.01689">
        <ele>319.78</ele>
        <time>2016-12-28T12:58:49Z</time>
      </trkpt>
      <trkpt lat="47.38042" lon="5.01694">
        <ele>318.81</ele>
        <time>2016-12-28T12:58:54Z</time>
      </trkpt>
      <trkpt lat="47.38047" lon="5.017">
        <ele>317.85</ele>
        <time>2016-12-28T12:58:56Z</time>
      </trkpt>
      <trkpt lat="47.38056" lon="5.01712">
        <ele>314.97</ele>
        <time>2016-12-28T12:59:03Z</time>
      </trkpt>
      <trkpt lat="47.3808" lon="5.01725">
        <ele>316.41</ele>
        <time>2016-12-28T12:59:12Z</time>
      </trkpt>
      <trkpt lat="47.38082" lon="5.01726">
        <ele>316.41</ele>
        <time>2016-12-28T12:59:13Z</time>
      </trkpt>
      <trkpt lat="47.38094" lon="5.01742">
        <ele>315.93</ele>
        <time>2016-12-28T12:59:19Z</time>
      </trkpt>
      <trkpt lat="47.38097" lon="5.01783">
        <ele>317.85</ele>
        <time>2016-12-28T12:59:29Z</time>
      </trkpt>
      <trkpt lat="47.38099" lon="5.01788">
        <ele>317.85</ele>
        <time>2016-12-28T12:59:30Z</time>
      </trkpt>
      <trkpt lat="47.38114" lon="5.01817">
        <ele>320.74</ele>
        <time>2016-12-28T12:59:39Z</time>
      </trkpt>
      <trkpt lat="47.38123" lon="5.0182">
        <ele>321.7</ele>
        <time>2016-12-28T12:59:43Z</time>
      </trkpt>
      <trkpt lat="47.3813" lon="5.01806">
        <ele>322.18</ele>
        <time>2016-12-28T12:59:48Z</time>
      </trkpt>
      <trkpt lat="47.38162" lon="5.01797">
        <ele>325.54</ele>
        <time>2016-12-28T12:59:59Z</time>
      </trkpt>
      <trkpt lat="47.38165" lon="5.01795">
        <ele>326.02</ele>
        <time>2016-12-28T13:00:00Z</time>
      </trkpt>
      <trkpt lat="47.3817" lon="5.01767">
        <ele>316.89</ele>
        <time>2016-12-28T13:00:08Z</time>
      </trkpt>
      <trkpt lat="47.38164" lon="5.01749">
        <ele>315.45</ele>
        <time>2016-12-28T13:00:12Z</time>
      </trkpt>
      <trkpt lat="47.38161" lon="5.01739">
        <ele>314.97</ele>
        <time>2016-12-28T13:00:14Z</time>
      </trkpt>
      <trkpt lat="47.38148" lon="5.01716">
        <ele>313.53</ele>
        <time>2016-12-28T13:00:19Z</time>
      </trkpt>
      <trkpt lat="47.38129" lon="5.0171">
        <ele>310.64</ele>
        <time>2016-12-28T13:00:24Z</time>
      </trkpt>
      <trkpt lat="47.38108" lon="5.01695">
        <ele>308.24</ele>
        <time>2016-12-28T13:00:31Z</time>
      </trkpt>
      <trkpt lat="47.38099" lon="5.01673">
        <ele>304.88</ele>
        <time>2016-12-28T13:00:37Z</time>
      </trkpt>
      <trkpt lat="47.38097" lon="5.01646">
        <ele>304.39</ele>
        <time>2016-12-28T13:00:44Z</time>
      </trkpt>
      <trkpt lat="47.38099" lon="5.01631">
        <ele>306.32</ele>
        <time>2016-12-28T13:00:48Z</time>
      </trkpt>
      <trkpt lat="47.38112" lon="5.01614">
        <ele>309.68</ele>
        <time>2016-12-28T13:00:55Z</time>
      </trkpt>
      <trkpt lat="47.38118" lon="5.01606">
        <ele>307.28</ele>
        <time>2016-12-28T13:01:09Z</time>
      </trkpt>
      <trkpt lat="47.38118" lon="5.01604">
        <ele>309.68</ele>
        <time>2016-12-28T13:01:49Z</time>
      </trkpt>
      <trkpt lat="47.38119" lon="5.01603">
        <ele>310.64</ele>
        <time>2016-12-28T13:02:18Z</time>
      </trkpt>
      <trkpt lat="47.38119" lon="5.01607">
        <ele>309.68</ele>
        <time>2016-12-28T13:02:51Z</time>
      </trkpt>
      <trkpt lat="47.38119" lon="5.01607">
        <ele>308.24</ele>
        <time>2016-12-28T13:03:25Z</time>
      </trkpt>
      <trkpt lat="47.38119" lon="5.01607">
        <ele>307.28</ele>
        <time>2016-12-28T13:03:55Z</time>
      </trkpt>
      <trkpt lat="47.38119" lon="5.01607">
        <ele>306.32</ele>
        <time>2016-12-28T13:04:29Z</time>
      </trkpt>
      <trkpt lat="47.3813" lon="5.01556">
        <ele>303.43</ele>
        <time>2016-12-28T13:04:42Z</time>
      </trkpt>
      <trkpt lat="47.38141" lon="5.0152">
        <ele>298.63</ele>
        <time>2016-12-28T13:04:51Z</time>
      </trkpt>
      <trkpt lat="47.38142" lon="5.01515">
        <ele>298.15</ele>
        <time>2016-12-28T13:04:52Z</time>
      </trkpt>
      <trkpt lat="47.38133" lon="5.01481">
        <ele>294.78</ele>
        <time>2016-12-28T13:05:00Z</time>
      </trkpt>
      <trkpt lat="47.38129" lon="5.01473">
        <ele>294.3</ele>
        <time>2016-12-28T13:05:02Z</time>
      </trkpt>
      <trkpt lat="47.38116" lon="5.01452">
        <ele>291.42</ele>
        <time>2016-12-28T13:05:10Z</time>
      </trkpt>
      <trkpt lat="47.38114" lon="5.01443">
        <ele>290.46</ele>
        <time>2016-12-28T13:05:12Z</time>
      </trkpt>
      <trkpt lat="47.38104" lon="5.01419">
        <ele>290.94</ele>
        <time>2016-12-28T13:05:19Z</time>
      </trkpt>
      <trkpt lat="47.38106" lon="5.014">
        <ele>293.82</ele>
        <time>2016-12-28T13:05:23Z</time>
      </trkpt>
      <trkpt lat="47.38113" lon="5.01388">
        <ele>294.78</ele>
        <time>2016-12-28T13:05:28Z</time>
      </trkpt>
      <trkpt lat="47.38114" lon="5.01361">
        <ele>296.22</ele>
        <time>2016-12-28T13:05:38Z</time>
      </trkpt>
      <trkpt lat="47.38116" lon="5.01347">
        <ele>298.63</ele>
        <time>2016-12-28T13:05:42Z</time>
      </trkpt>
      <trkpt lat="47.38118" lon="5.01341">
        <ele>300.55</ele>
        <time>2016-12-28T13:05:44Z</time>
      </trkpt>
      <trkpt lat="47.38124" lon="5.01313">
        <ele>305.84</ele>
        <time>2016-12-28T13:05:58Z</time>
      </trkpt>
      <trkpt lat="47.38125" lon="5.01307">
        <ele>305.84</ele>
        <time>2016-12-28T13:06:01Z</time>
      </trkpt>
      <trkpt lat="47.3813" lon="5.01262">
        <ele>310.16</ele>
        <time>2016-12-28T13:06:15Z</time>
      </trkpt>
      <trkpt lat="47.3813" lon="5.01257">
        <ele>310.64</ele>
        <time>2016-12-28T13:06:17Z</time>
      </trkpt>
      <trkpt lat="47.38136" lon="5.01243">
        <ele>311.12</ele>
        <time>2016-12-28T13:06:25Z</time>
      </trkpt>
      <trkpt lat="47.38154" lon="5.01239">
        <ele>312.57</ele>
        <time>2016-12-28T13:06:35Z</time>
      </trkpt>
      <trkpt lat="47.38162" lon="5.01223">
        <ele>313.53</ele>
        <time>2016-12-28T13:06:42Z</time>
      </trkpt>
      <trkpt lat="47.38161" lon="5.01192">
        <ele>309.2</ele>
        <time>2016-12-28T13:06:55Z</time>
      </trkpt>
      <trkpt lat="47.38166" lon="5.01157">
        <ele>306.32</ele>
        <time>2016-12-28T13:07:05Z</time>
      </trkpt>
      <trkpt lat="47.38164" lon="5.01134">
        <ele>307.28</ele>
        <time>2016-12-28T13:07:14Z</time>
      </trkpt>
      <trkpt lat="47.38162" lon="5.01125">
        <ele>307.76</ele>
        <time>2016-12-28T13:07:17Z</time>
      </trkpt>
      <trkpt lat="47.38155" lon="5.01096">
        <ele>307.28</ele>
        <time>2016-12-28T13:07:30Z</time>
      </trkpt>
      <trkpt lat="47.38154" lon="5.0109">
        <ele>307.76</ele>
        <time>2016-12-28T13:07:33Z</time>
      </trkpt>
      <trkpt lat="47.3815" lon="5.01074">
        <ele>307.28</ele>
        <time>2016-12-28T13:07:40Z</time>
      </trkpt>
      <trkpt lat="47.38152" lon="5.01033">
        <ele>309.68</ele>
        <time>2016-12-28T13:07:53Z</time>
      </trkpt>
      <trkpt lat="47.38153" lon="5.01028">
        <ele>309.68</ele>
        <time>2016-12-28T13:07:55Z</time>
      </trkpt>
      <trkpt lat="47.38161" lon="5.01">
        <ele>312.57</ele>
        <time>2016-12-28T13:08:07Z</time>
      </trkpt>
      <trkpt lat="47.38181" lon="5.00959">
        <ele>317.85</ele>
        <time>2016-12-28T13:08:22Z</time>
      </trkpt>
      <trkpt lat="47.38185" lon="5.00943">
        <ele>318.81</ele>
        <time>2016-12-28T13:08:28Z</time>
      </trkpt>
      <trkpt lat="47.38188" lon="5.00904">
        <ele>323.14</ele>
        <time>2016-12-28T13:08:41Z</time>
      </trkpt>
      <trkpt lat="47.38189" lon="5.00886">
        <ele>325.06</ele>
        <time>2016-12-28T13:08:49Z</time>
      </trkpt>
      <trkpt lat="47.38188" lon="5.00881">
        <ele>326.5</ele>
        <time>2016-12-28T13:08:52Z</time>
      </trkpt>
      <trkpt lat="47.38186" lon="5.00863">
        <ele>326.5</ele>
        <time>2016-12-28T13:09:00Z</time>
      </trkpt>
      <trkpt lat="47.38179" lon="5.0083">
        <ele>327.47</ele>
        <time>2016-12-28T13:09:15Z</time>
      </trkpt>
      <trkpt lat="47.38179" lon="5.00802">
        <ele>327.47</ele>
        <time>2016-12-28T13:09:26Z</time>
      </trkpt>
      <trkpt lat="47.38179" lon="5.00796">
        <ele>327.95</ele>
        <time>2016-12-28T13:09:28Z</time>
      </trkpt>
      <trkpt lat="47.38185" lon="5.0077">
        <ele>330.35</ele>
        <time>2016-12-28T13:09:38Z</time>
      </trkpt>
      <trkpt lat="47.38185" lon="5.00765">
        <ele>330.83</ele>
        <time>2016-12-28T13:09:40Z</time>
      </trkpt>
      <trkpt lat="47.38188" lon="5.00734">
        <ele>335.64</ele>
        <time>2016-12-28T13:09:53Z</time>
      </trkpt>
      <trkpt lat="47.38192" lon="5.00702">
        <ele>346.21</ele>
        <time>2016-12-28T13:10:06Z</time>
      </trkpt>
      <trkpt lat="47.38196" lon="5.00685">
        <ele>350.06</ele>
        <time>2016-12-28T13:10:17Z</time>
      </trkpt>
      <trkpt lat="47.38207" lon="5.00659">
        <ele>353.42</ele>
        <time>2016-12-28T13:10:32Z</time>
      </trkpt>
      <trkpt lat="47.38211" lon="5.00643">
        <ele>352.46</ele>
        <time>2016-12-28T13:10:41Z</time>
      </trkpt>
      <trkpt lat="47.38211" lon="5.00637">
        <ele>351.98</ele>
        <time>2016-12-28T13:10:44Z</time>
      </trkpt>
      <trkpt lat="47.38208" lon="5.00632">
        <ele>351.98</ele>
        <time>2016-12-28T13:10:47Z</time>
      </trkpt>
      <trkpt lat="47.38196" lon="5.00608">
        <ele>354.38</ele>
        <time>2016-12-28T13:11:00Z</time>
      </trkpt>
      <trkpt lat="47.38191" lon="5.00602">
        <ele>353.9</ele>
        <time>2016-12-28T13:11:04Z</time>
      </trkpt>
      <trkpt lat="47.38188" lon="5.00599">
        <ele>353.42</ele>
        <time>2016-12-28T13:11:06Z</time>
      </trkpt>
      <trkpt lat="47.38168" lon="5.00581">
        <ele>352.94</ele>
        <time>2016-12-28T13:11:20Z</time>
      </trkpt>
      <trkpt lat="47.38151" lon="5.00564">
        <ele>352.94</ele>
        <time>2016-12-28T13:11:32Z</time>
      </trkpt>
      <trkpt lat="47.38149" lon="5.00559">
        <ele>353.9</ele>
        <time>2016-12-28T13:11:34Z</time>
      </trkpt>
      <trkpt lat="47.38146" lon="5.00551">
        <ele>356.79</ele>
        <time>2016-12-28T13:11:37Z</time>
      </trkpt>
      <trkpt lat="47.38139" lon="5.00521">
        <ele>364.48</ele>
        <time>2016-12-28T13:11:48Z</time>
      </trkpt>
      <trkpt lat="47.38134" lon="5.00497">
        <ele>368.32</ele>
        <time>2016-12-28T13:11:57Z</time>
      </trkpt>
      <trkpt lat="47.38129" lon="5.00474">
        <ele>365.44</ele>
        <time>2016-12-28T13:12:09Z</time>
      </trkpt>
      <trkpt lat="47.38129" lon="5.00464">
        <ele>365.92</ele>
        <time>2016-12-28T13:12:12Z</time>
      </trkpt>
      <trkpt lat="47.38128" lon="5.00444">
        <ele>367.36</ele>
        <time>2016-12-28T13:12:20Z</time>
      </trkpt>
      <trkpt lat="47.38132" lon="5.00412">
        <ele>371.21</ele>
        <time>2016-12-28T13:12:32Z</time>
      </trkpt>
      <trkpt lat="47.38131" lon="5.00396">
        <ele>371.21</ele>
        <time>2016-12-28T13:12:38Z</time>
      </trkpt>
      <trkpt lat="47.38131" lon="5.00392">
        <ele>371.69</ele>
        <time>2016-12-28T13:12:40Z</time>
      </trkpt>
      <trkpt lat="47.38133" lon="5.00367">
        <ele>373.13</ele>
        <time>2016-12-28T13:12:49Z</time>
      </trkpt>
      <trkpt lat="47.38136" lon="5.00345">
        <ele>375.05</ele>
        <time>2016-12-28T13:12:57Z</time>
      </trkpt>
      <trkpt lat="47.3814" lon="5.00333">
        <ele>376.49</ele>
        <time>2016-12-28T13:13:02Z</time>
      </trkpt>
      <trkpt lat="47.38141" lon="5.00318">
        <ele>377.94</ele>
        <time>2016-12-28T13:13:07Z</time>
      </trkpt>
      <trkpt lat="47.38143" lon="5.00307">
        <ele>378.42</ele>
        <time>2016-12-28T13:13:12Z</time>
      </trkpt>
      <trkpt lat="47.38146" lon="5.00296">
        <ele>378.9</ele>
        <time>2016-12-28T13:13:16Z</time>
      </trkpt>
      <trkpt lat="47.38153" lon="5.0028">
        <ele>379.38</ele>
        <time>2016-12-28T13:13:22Z</time>
      </trkpt>
      <trkpt lat="47.38153" lon="5.00265">
        <ele>378.42</ele>
        <time>2016-12-28T13:13:27Z</time>
      </trkpt>
      <trkpt lat="47.38154" lon="5.00245">
        <ele>377.94</ele>
        <time>2016-12-28T13:13:35Z</time>
      </trkpt>
      <trkpt lat="47.38149" lon="5.00224">
        <ele>378.42</ele>
        <time>2016-12-28T13:13:45Z</time>
      </trkpt>
      <trkpt lat="47.38149" lon="5.00207">
        <ele>378.42</ele>
        <time>2016-12-28T13:13:52Z</time>
      </trkpt>
      <trkpt lat="47.38149" lon="5.00203">
        <ele>378.42</ele>
        <time>2016-12-28T13:13:54Z</time>
      </trkpt>
      <trkpt lat="47.38146" lon="5.00196">
        <ele>378.42</ele>
        <time>2016-12-28T13:13:58Z</time>
      </trkpt>
      <trkpt lat="47.38151" lon="5.0018">
        <ele>378.9</ele>
        <time>2016-12-28T13:14:05Z</time>
      </trkpt>
      <trkpt lat="47.38152" lon="5.00159">
        <ele>378.42</ele>
        <time>2016-12-28T13:14:12Z</time>
      </trkpt>
      <trkpt lat="47.38152" lon="5.0015">
        <ele>377.94</ele>
        <time>2016-12-28T13:14:15Z</time>
      </trkpt>
      <trkpt lat="47.38141" lon="5.0012">
        <ele>384.18</ele>
        <time>2016-12-28T13:14:25Z</time>
      </trkpt>
      <trkpt lat="47.38143" lon="5.00096">
        <ele>385.63</ele>
        <time>2016-12-28T13:14:34Z</time>
      </trkpt>
      <trkpt lat="47.38144" lon="5.0009">
        <ele>385.63</ele>
        <time>2016-12-28T13:14:37Z</time>
      </trkpt>
      <trkpt lat="47.38145" lon="5.00083">
        <ele>386.11</ele>
        <time>2016-12-28T13:14:40Z</time>
      </trkpt>
      <trkpt lat="47.3815" lon="5.00076">
        <ele>387.07</ele>
        <time>2016-12-28T13:14:44Z</time>
      </trkpt>
      <trkpt lat="47.38156" lon="5.00064">
        <ele>388.51</ele>
        <time>2016-12-28T13:14:49Z</time>
      </trkpt>
      <trkpt lat="47.38162" lon="5.00056">
        <ele>389.47</ele>
        <time>2016-12-28T13:14:52Z</time>
      </trkpt>
      <trkpt lat="47.38187" lon="5.00044">
        <ele>389.95</ele>
        <time>2016-12-28T13:15:04Z</time>
      </trkpt>
      <trkpt lat="47.38218" lon="5.00024">
        <ele>394.76</ele>
        <time>2016-12-28T13:15:16Z</time>
      </trkpt>
      <trkpt lat="47.3822" lon="5.00023">
        <ele>395.72</ele>
        <time>2016-12-28T13:15:17Z</time>
      </trkpt>
      <trkpt lat="47.38226" lon="5.00017">
        <ele>397.64</ele>
        <time>2016-12-28T13:15:32Z</time>
      </trkpt>
      <trkpt lat="47.38226" lon="5.00015">
        <ele>397.64</ele>
        <time>2016-12-28T13:15:57Z</time>
      </trkpt>
      <trkpt lat="47.38226" lon="5.00014">
        <ele>397.64</ele>
        <time>2016-12-28T13:16:13Z</time>
      </trkpt>
      <trkpt lat="47.38226" lon="5.00006">
        <ele>395.72</ele>
        <time>2016-12-28T13:16:18Z</time>
      </trkpt>
      <trkpt lat="47.38213" lon="4.9998">
        <ele>394.76</ele>
        <time>2016-12-28T13:16:32Z</time>
      </trkpt>
      <trkpt lat="47.38198" lon="4.99953">
        <ele>399.57</ele>
        <time>2016-12-28T13:16:42Z</time>
      </trkpt>
      <trkpt lat="47.38193" lon="4.99944">
        <ele>400.53</ele>
        <time>2016-12-28T13:16:46Z</time>
      </trkpt>
      <trkpt lat="47.38175" lon="4.99914">
        <ele>398.6</ele>
        <time>2016-12-28T13:16:58Z</time>
      </trkpt>
      <trkpt lat="47.38171" lon="4.99909">
        <ele>398.6</ele>
        <time>2016-12-28T13:17:00Z</time>
      </trkpt>
      <trkpt lat="47.38166" lon="4.999">
        <ele>398.6</ele>
        <time>2016-12-28T13:17:04Z</time>
      </trkpt>
      <trkpt lat="47.38153" lon="4.99878">
        <ele>399.08</ele>
        <time>2016-12-28T13:17:12Z</time>
      </trkpt>
      <trkpt lat="47.38135" lon="4.9985">
        <ele>398.6</ele>
        <time>2016-12-28T13:17:24Z</time>
      </trkpt>
      <trkpt lat="47.38135" lon="4.99841">
        <ele>397.64</ele>
        <time>2016-12-28T13:17:29Z</time>
      </trkpt>
      <trkpt lat="47.38135" lon="4.99838">
        <ele>397.64</ele>
        <time>2016-12-28T13:17:31Z</time>
      </trkpt>
      <trkpt lat="47.38135" lon="4.9983">
        <ele>395.72</ele>
        <time>2016-12-28T13:17:36Z</time>
      </trkpt>
      <trkpt lat="47.38138" lon="4.99813">
        <ele>393.32</ele>
        <time>2016-12-28T13:17:52Z</time>
      </trkpt>
      <trkpt lat="47.38145" lon="4.99798">
        <ele>392.84</ele>
        <time>2016-12-28T13:17:59Z</time>
      </trkpt>
      <trkpt lat="47.38166" lon="4.99754">
        <ele>392.36</ele>
        <time>2016-12-28T13:18:13Z</time>
      </trkpt>
      <trkpt lat="47.38188" lon="4.99708">
        <ele>388.99</ele>
        <time>2016-12-28T13:18:27Z</time>
      </trkpt>
      <trkpt lat="47.38213" lon="4.99661">
        <ele>384.66</ele>
        <time>2016-12-28T13:18:41Z</time>
      </trkpt>
      <trkpt lat="47.38243" lon="4.99618">
        <ele>386.11</ele>
        <time>2016-12-28T13:18:54Z</time>
      </trkpt>
      <trkpt lat="47.3827" lon="4.9958">
        <ele>391.39</ele>
        <time>2016-12-28T13:19:05Z</time>
      </trkpt>
      <trkpt lat="47.38297" lon="4.99539">
        <ele>396.68</ele>
        <time>2016-12-28T13:19:18Z</time>
      </trkpt>
      <trkpt lat="47.38324" lon="4.99478">
        <ele>395.24</ele>
        <time>2016-12-28T13:19:32Z</time>
      </trkpt>
      <trkpt lat="47.38312" lon="4.99446">
        <ele>391.87</ele>
        <time>2016-12-28T13:19:41Z</time>
      </trkpt>
      <trkpt lat="47.38287" lon="4.99422">
        <ele>388.99</ele>
        <time>2016-12-28T13:19:52Z</time>
      </trkpt>
      <trkpt lat="47.38284" lon="4.99419">
        <ele>388.03</ele>
        <time>2016-12-28T13:20:00Z</time>
      </trkpt>
      <trkpt lat="47.38277" lon="4.99415">
        <ele>388.03</ele>
        <time>2016-12-28T13:20:06Z</time>
      </trkpt>
      <trkpt lat="47.38246" lon="4.99405">
        <ele>388.51</ele>
        <time>2016-12-28T13:20:18Z</time>
      </trkpt>
      <trkpt lat="47.38245" lon="4.99402">
        <ele>388.99</ele>
        <time>2016-12-28T13:20:19Z</time>
      </trkpt>
      <trkpt lat="47.38261" lon="4.99351">
        <ele>386.59</ele>
        <time>2016-12-28T13:20:32Z</time>
      </trkpt>
      <trkpt lat="47.38267" lon="4.99309">
        <ele>386.59</ele>
        <time>2016-12-28T13:20:43Z</time>
      </trkpt>
      <trkpt lat="47.38259" lon="4.99301">
        <ele>386.11</ele>
        <time>2016-12-28T13:20:47Z</time>
      </trkpt>
      <trkpt lat="47.38235" lon="4.9928">
        <ele>387.07</ele>
        <time>2016-12-28T13:20:56Z</time>
      </trkpt>
      <trkpt lat="47.38226" lon="4.99264">
        <ele>386.11</ele>
        <time>2016-12-28T13:21:01Z</time>
      </trkpt>
      <trkpt lat="47.3819" lon="4.99198">
        <ele>381.78</ele>
        <time>2016-12-28T13:21:16Z</time>
      </trkpt>
      <trkpt lat="47.38156" lon="4.99133">
        <ele>376.49</ele>
        <time>2016-12-28T13:21:31Z</time>
      </trkpt>
      <trkpt lat="47.38126" lon="4.99099">
        <ele>370.24</ele>
        <time>2016-12-28T13:21:41Z</time>
      </trkpt>
      <trkpt lat="47.38093" lon="4.99072">
        <ele>363.52</ele>
        <time>2016-12-28T13:21:52Z</time>
      </trkpt>
      <trkpt lat="47.38053" lon="4.99039">
        <ele>359.19</ele>
        <time>2016-12-28T13:22:05Z</time>
      </trkpt>
      <trkpt lat="47.38012" lon="4.99006">
        <ele>358.71</ele>
        <time>2016-12-28T13:22:19Z</time>
      </trkpt>
      <trkpt lat="47.37982" lon="4.98979">
        <ele>358.71</ele>
        <time>2016-12-28T13:22:31Z</time>
      </trkpt>
      <trkpt lat="47.3798" lon="4.98977">
        <ele>358.71</ele>
        <time>2016-12-28T13:22:32Z</time>
      </trkpt>
      <trkpt lat="47.37992" lon="4.98946">
        <ele>362.07</ele>
        <time>2016-12-28T13:22:39Z</time>
      </trkpt>
      <trkpt lat="47.38008" lon="4.98918">
        <ele>363.04</ele>
        <time>2016-12-28T13:22:47Z</time>
      </trkpt>
      <trkpt lat="47.38029" lon="4.9888">
        <ele>362.07</ele>
        <time>2016-12-28T13:22:56Z</time>
      </trkpt>
      <trkpt lat="47.38031" lon="4.98874">
        <ele>366.88</ele>
        <time>2016-12-28T13:23:07Z</time>
      </trkpt>
      <trkpt lat="47.38033" lon="4.98868">
        <ele>376.97</ele>
        <time>2016-12-28T13:23:28Z</time>
      </trkpt>
      <trkpt lat="47.38037" lon="4.98861">
        <ele>376.97</ele>
        <time>2016-12-28T13:23:32Z</time>
      </trkpt>
      <trkpt lat="47.38053" lon="4.98833">
        <ele>376.01</ele>
        <time>2016-12-28T13:23:38Z</time>
      </trkpt>
      <trkpt lat="47.38075" lon="4.98796">
        <ele>373.61</ele>
        <time>2016-12-28T13:23:48Z</time>
      </trkpt>
      <trkpt lat="47.38097" lon="4.9876">
        <ele>367.84</ele>
        <time>2016-12-28T13:24:00Z</time>
      </trkpt>
      <trkpt lat="47.38114" lon="4.98733">
        <ele>363.04</ele>
        <time>2016-12-28T13:24:09Z</time>
      </trkpt>
      <trkpt lat="47.38121" lon="4.98727">
        <ele>359.67</ele>
        <time>2016-12-28T13:24:15Z</time>
      </trkpt>
      <trkpt lat="47.38143" lon="4.98745">
        <ele>357.27</ele>
        <time>2016-12-28T13:24:26Z</time>
      </trkpt>
      <trkpt lat="47.38148" lon="4.98746">
        <ele>356.31</ele>
        <time>2016-12-28T13:24:42Z</time>
      </trkpt>
      <trkpt lat="47.38153" lon="4.98747">
        <ele>356.79</ele>
        <time>2016-12-28T13:25:06Z</time>
      </trkpt>
      <trkpt lat="47.38177" lon="4.98774">
        <ele>351.98</ele>
        <time>2016-12-28T13:25:17Z</time>
      </trkpt>
      <trkpt lat="47.38194" lon="4.98789">
        <ele>348.62</ele>
        <time>2016-12-28T13:25:23Z</time>
      </trkpt>
      <trkpt lat="47.38216" lon="4.98806">
        <ele>346.69</ele>
        <time>2016-12-28T13:25:28Z</time>
      </trkpt>
      <trkpt lat="47.38232" lon="4.9882">
        <ele>344.77</ele>
        <time>2016-12-28T13:25:32Z</time>
      </trkpt>
      <trkpt lat="47.38274" lon="4.98846">
        <ele>343.33</ele>
        <time>2016-12-28T13:25:44Z</time>
      </trkpt>
      <trkpt lat="47.38311" lon="4.98881">
        <ele>342.85</ele>
        <time>2016-12-28T13:25:56Z</time>
      </trkpt>
      <trkpt lat="47.38344" lon="4.98922">
        <ele>338.52</ele>
        <time>2016-12-28T13:26:09Z</time>
      </trkpt>
      <trkpt lat="47.3835" lon="4.98928">
        <ele>337.56</ele>
        <time>2016-12-28T13:26:11Z</time>
      </trkpt>
      <trkpt lat="47.38386" lon="4.98953">
        <ele>331.79</ele>
        <time>2016-12-28T13:26:20Z</time>
      </trkpt>
      <trkpt lat="47.38423" lon="4.98986">
        <ele>325.06</ele>
        <time>2016-12-28T13:26:31Z</time>
      </trkpt>
      <trkpt lat="47.38437" lon="4.98987">
        <ele>325.06</ele>
        <time>2016-12-28T13:26:34Z</time>
      </trkpt>
      <trkpt lat="47.38458" lon="4.9899">
        <ele>326.02</ele>
        <time>2016-12-28T13:26:38Z</time>
      </trkpt>
      <trkpt lat="47.38481" lon="4.98985">
        <ele>327.47</ele>
        <time>2016-12-28T13:26:42Z</time>
      </trkpt>
      <trkpt lat="47.38506" lon="4.9895">
        <ele>329.87</ele>
        <time>2016-12-28T13:26:51Z</time>
      </trkpt>
      <trkpt lat="47.38523" lon="4.98922">
        <ele>332.27</ele>
        <time>2016-12-28T13:27:02Z</time>
      </trkpt>
      <trkpt lat="47.38538" lon="4.98911">
        <ele>335.64</ele>
        <time>2016-12-28T13:27:14Z</time>
      </trkpt>
      <trkpt lat="47.38552" lon="4.98902">
        <ele>337.56</ele>
        <time>2016-12-28T13:27:26Z</time>
      </trkpt>
      <trkpt lat="47.38562" lon="4.98897">
        <ele>338.52</ele>
        <time>2016-12-28T13:27:35Z</time>
      </trkpt>
      <trkpt lat="47.38573" lon="4.98898">
        <ele>338.04</ele>
        <time>2016-12-28T13:27:43Z</time>
      </trkpt>
      <trkpt lat="47.38595" lon="4.9891">
        <ele>343.33</ele>
        <time>2016-12-28T13:27:58Z</time>
      </trkpt>
      <trkpt lat="47.38624" lon="4.9894">
        <ele>346.21</ele>
        <time>2016-12-28T13:28:16Z</time>
      </trkpt>
      <trkpt lat="47.38644" lon="4.98972">
        <ele>346.21</ele>
        <time>2016-12-28T13:28:28Z</time>
      </trkpt>
      <trkpt lat="47.38645" lon="4.98982">
        <ele>346.21</ele>
        <time>2016-12-28T13:28:30Z</time>
      </trkpt>
      <trkpt lat="47.38651" lon="4.99015">
        <ele>345.25</ele>
        <time>2016-12-28T13:28:35Z</time>
      </trkpt>
      <trkpt lat="47.38686" lon="4.99065">
        <ele>344.77</ele>
        <time>2016-12-28T13:28:47Z</time>
      </trkpt>
      <trkpt lat="47.38725" lon="4.99094">
        <ele>344.77</ele>
        <time>2016-12-28T13:29:04Z</time>
      </trkpt>
      <trkpt lat="47.38728" lon="4.99102">
        <ele>345.73</ele>
        <time>2016-12-28T13:29:14Z</time>
      </trkpt>
      <trkpt lat="47.38736" lon="4.99112">
        <ele>345.25</ele>
        <time>2016-12-28T13:29:25Z</time>
      </trkpt>
      <trkpt lat="47.38743" lon="4.99113">
        <ele>345.25</ele>
        <time>2016-12-28T13:29:30Z</time>
      </trkpt>
      <trkpt lat="47.38752" lon="4.99117">
        <ele>343.33</ele>
        <time>2016-12-28T13:29:36Z</time>
      </trkpt>
      <trkpt lat="47.38757" lon="4.99114">
        <ele>342.37</ele>
        <time>2016-12-28T13:29:48Z</time>
      </trkpt>
      <trkpt lat="47.38765" lon="4.99107">
        <ele>342.85</ele>
        <time>2016-12-28T13:29:55Z</time>
      </trkpt>
      <trkpt lat="47.38783" lon="4.99088">
        <ele>348.13</ele>
        <time>2016-12-28T13:30:08Z</time>
      </trkpt>
      <trkpt lat="47.38791" lon="4.99076">
        <ele>351.98</ele>
        <time>2016-12-28T13:30:21Z</time>
      </trkpt>
      <trkpt lat="47.38793" lon="4.99075">
        <ele>352.46</ele>
        <time>2016-12-28T13:30:33Z</time>
      </trkpt>
      <trkpt lat="47.38807" lon="4.99084">
        <ele>353.9</ele>
        <time>2016-12-28T13:30:45Z</time>
      </trkpt>
      <trkpt lat="47.38816" lon="4.99088">
        <ele>353.42</ele>
        <time>2016-12-28T13:30:51Z</time>
      </trkpt>
      <trkpt lat="47.38831" lon="4.99107">
        <ele>353.9</ele>
        <time>2016-12-28T13:31:00Z</time>
      </trkpt>
      <trkpt lat="47.38843" lon="4.99109">
        <ele>355.34</ele>
        <time>2016-12-28T13:31:06Z</time>
      </trkpt>
      <trkpt lat="47.38868" lon="4.99138">
        <ele>353.9</ele>
        <time>2016-12-28T13:31:22Z</time>
      </trkpt>
      <trkpt lat="47.38902" lon="4.99192">
        <ele>350.54</ele>
        <time>2016-12-28T13:31:38Z</time>
      </trkpt>
      <trkpt lat="47.38944" lon="4.99227">
        <ele>351.5</ele>
        <time>2016-12-28T13:31:52Z</time>
      </trkpt>
      <trkpt lat="47.38993" lon="4.99261">
        <ele>350.54</ele>
        <time>2016-12-28T13:32:07Z</time>
      </trkpt>
      <trkpt lat="47.39039" lon="4.99322">
        <ele>348.13</ele>
        <time>2016-12-28T13:32:22Z</time>
      </trkpt>
      <trkpt lat="47.39078" lon="4.99363">
        <ele>348.62</ele>
        <time>2016-12-28T13:32:35Z</time>
      </trkpt>
      <trkpt lat="47.39114" lon="4.99406">
        <ele>349.1</ele>
        <time>2016-12-28T13:32:51Z</time>
      </trkpt>
      <trkpt lat="47.39155" lon="4.99434">
        <ele>349.1</ele>
        <time>2016-12-28T13:33:08Z</time>
      </trkpt>
      <trkpt lat="47.39167" lon="4.99428">
        <ele>351.02</ele>
        <time>2016-12-28T13:33:15Z</time>
      </trkpt>
      <trkpt lat="47.39179" lon="4.99447">
        <ele>350.06</ele>
        <time>2016-12-28T13:33:26Z</time>
      </trkpt>
      <trkpt lat="47.39189" lon="4.99459">
        <ele>348.13</ele>
        <time>2016-12-28T13:33:31Z</time>
      </trkpt>
      <trkpt lat="47.39216" lon="4.99481">
        <ele>343.33</ele>
        <time>2016-12-28T13:33:43Z</time>
      </trkpt>
      <trkpt lat="47.39244" lon="4.99467">
        <ele>345.73</ele>
        <time>2016-12-28T13:33:58Z</time>
      </trkpt>
      <trkpt lat="47.39272" lon="4.99454">
        <ele>349.58</ele>
        <time>2016-12-28T13:34:11Z</time>
      </trkpt>
      <trkpt lat="47.39298" lon="4.9945">
        <ele>353.9</ele>
        <time>2016-12-28T13:34:24Z</time>
      </trkpt>
      <trkpt lat="47.39334" lon="4.99463">
        <ele>358.23</ele>
        <time>2016-12-28T13:34:39Z</time>
      </trkpt>
      <trkpt lat="47.39344" lon="4.99482">
        <ele>358.23</ele>
        <time>2016-12-28T13:34:50Z</time>
      </trkpt>
      <trkpt lat="47.39344" lon="4.99482">
        <ele>358.23</ele>
        <time>2016-12-28T13:35:25Z</time>
      </trkpt>
      <trkpt lat="47.39344" lon="4.99482">
        <ele>358.23</ele>
        <time>2016-12-28T13:35:58Z</time>
      </trkpt>
      <trkpt lat="47.39344" lon="4.99481">
        <ele>358.71</ele>
        <time>2016-12-28T13:36:46Z</time>
      </trkpt>
      <trkpt lat="47.39344" lon="4.99481">
        <ele>359.19</ele>
        <time>2016-12-28T13:37:05Z</time>
      </trkpt>
      <trkpt lat="47.39344" lon="4.99482">
        <ele>359.19</ele>
        <time>2016-12-28T13:37:10Z</time>
      </trkpt>
      <trkpt lat="47.39344" lon="4.99496">
        <ele>358.71</ele>
        <time>2016-12-28T13:37:15Z</time>
      </trkpt>
      <trkpt lat="47.39358" lon="4.99598">
        <ele>353.9</ele>
        <time>2016-12-28T13:37:32Z</time>
      </trkpt>
      <trkpt lat="47.39392" lon="4.99698">
        <ele>350.54</ele>
        <time>2016-12-28T13:37:47Z</time>
      </trkpt>
      <trkpt lat="47.39402" lon="4.99714">
        <ele>350.06</ele>
        <time>2016-12-28T13:37:50Z</time>
      </trkpt>
      <trkpt lat="47.39446" lon="4.99787">
        <ele>347.65</ele>
        <time>2016-12-28T13:38:05Z</time>
      </trkpt>
      <trkpt lat="47.39457" lon="4.99806">
        <ele>346.69</ele>
        <time>2016-12-28T13:38:09Z</time>
      </trkpt>
      <trkpt lat="47.39469" lon="4.9983">
        <ele>346.21</ele>
        <time>2016-12-28T13:38:14Z</time>
      </trkpt>
      <trkpt lat="47.39528" lon="4.99961">
        <ele>341.89</ele>
        <time>2016-12-28T13:38:36Z</time>
      </trkpt>
      <trkpt lat="47.39567" lon="5.00037">
        <ele>337.56</ele>
        <time>2016-12-28T13:38:47Z</time>
      </trkpt>
      <trkpt lat="47.39619" lon="5.00125">
        <ele>333.71</ele>
        <time>2016-12-28T13:39:00Z</time>
      </trkpt>
      <trkpt lat="47.39632" lon="5.00153">
        <ele>332.27</ele>
        <time>2016-12-28T13:39:04Z</time>
      </trkpt>
      <trkpt lat="47.3968" lon="5.002">
        <ele>330.35</ele>
        <time>2016-12-28T13:39:13Z</time>
      </trkpt>
      <trkpt lat="47.39697" lon="5.00227">
        <ele>330.35</ele>
        <time>2016-12-28T13:39:17Z</time>
      </trkpt>
      <trkpt lat="47.39753" lon="5.00351">
        <ele>328.91</ele>
        <time>2016-12-28T13:39:36Z</time>
      </trkpt>
      <trkpt lat="47.39774" lon="5.00403">
        <ele>326.99</ele>
        <time>2016-12-28T13:39:44Z</time>
      </trkpt>
      <trkpt lat="47.39804" lon="5.00551">
        <ele>319.3</ele>
        <time>2016-12-28T13:40:00Z</time>
      </trkpt>
      <trkpt lat="47.39828" lon="5.00673">
        <ele>314.49</ele>
        <time>2016-12-28T13:40:12Z</time>
      </trkpt>
      <trkpt lat="47.3984" lon="5.00705">
        <ele>314.01</ele>
        <time>2016-12-28T13:40:16Z</time>
      </trkpt>
      <trkpt lat="47.39897" lon="5.00797">
        <ele>312.57</ele>
        <time>2016-12-28T13:40:30Z</time>
      </trkpt>
      <trkpt lat="47.3992" lon="5.00859">
        <ele>309.68</ele>
        <time>2016-12-28T13:40:37Z</time>
      </trkpt>
      <trkpt lat="47.3996" lon="5.00972">
        <ele>306.8</ele>
        <time>2016-12-28T13:40:52Z</time>
      </trkpt>
      <trkpt lat="47.40005" lon="5.01099">
        <ele>303.43</ele>
        <time>2016-12-28T13:41:09Z</time>
      </trkpt>
      <trkpt lat="47.40027" lon="5.01165">
        <ele>303.43</ele>
        <time>2016-12-28T13:41:19Z</time>
      </trkpt>
      <trkpt lat="47.40066" lon="5.01252">
        <ele>302.95</ele>
        <time>2016-12-28T13:41:36Z</time>
      </trkpt>
      <trkpt lat="47.4007" lon="5.01254">
        <ele>303.91</ele>
        <time>2016-12-28T13:41:43Z</time>
      </trkpt>
      <trkpt lat="47.40091" lon="5.01294">
        <ele>303.43</ele>
        <time>2016-12-28T13:41:54Z</time>
      </trkpt>
      <trkpt lat="47.40124" lon="5.01344">
        <ele>302.47</ele>
        <time>2016-12-28T13:42:06Z</time>
      </trkpt>
      <trkpt lat="47.40138" lon="5.01339">
        <ele>302.95</ele>
        <time>2016-12-28T13:42:12Z</time>
      </trkpt>
      <trkpt lat="47.40162" lon="5.01255">
        <ele>307.76</ele>
        <time>2016-12-28T13:42:31Z</time>
      </trkpt>
      <trkpt lat="47.4017" lon="5.01194">
        <ele>310.16</ele>
        <time>2016-12-28T13:42:46Z</time>
      </trkpt>
      <trkpt lat="47.40178" lon="5.01126">
        <ele>313.53</ele>
        <time>2016-12-28T13:43:02Z</time>
      </trkpt>
      <trkpt lat="47.40195" lon="5.01077">
        <ele>315.45</ele>
        <time>2016-12-28T13:43:16Z</time>
      </trkpt>
      <trkpt lat="47.40206" lon="5.01031">
        <ele>316.89</ele>
        <time>2016-12-28T13:43:29Z</time>
      </trkpt>
      <trkpt lat="47.40237" lon="5.00975">
        <ele>319.3</ele>
        <time>2016-12-28T13:43:46Z</time>
      </trkpt>
      <trkpt lat="47.40261" lon="5.00915">
        <ele>323.14</ele>
        <time>2016-12-28T13:44:03Z</time>
      </trkpt>
      <trkpt lat="47.40286" lon="5.00863">
        <ele>325.54</ele>
        <time>2016-12-28T13:44:20Z</time>
      </trkpt>
      <trkpt lat="47.40312" lon="5.00829">
        <ele>328.43</ele>
        <time>2016-12-28T13:44:36Z</time>
      </trkpt>
      <trkpt lat="47.40339" lon="5.00793">
        <ele>330.83</ele>
        <time>2016-12-28T13:44:52Z</time>
      </trkpt>
      <trkpt lat="47.40343" lon="5.00788">
        <ele>330.83</ele>
        <time>2016-12-28T13:44:54Z</time>
      </trkpt>
      <trkpt lat="47.40344" lon="5.00782">
        <ele>331.31</ele>
        <time>2016-12-28T13:44:57Z</time>
      </trkpt>
      <trkpt lat="47.40356" lon="5.008">
        <ele>329.87</ele>
        <time>2016-12-28T13:45:06Z</time>
      </trkpt>
      <trkpt lat="47.40368" lon="5.00816">
        <ele>328.43</ele>
        <time>2016-12-28T13:45:12Z</time>
      </trkpt>
      <trkpt lat="47.40373" lon="5.00819">
        <ele>327.95</ele>
        <time>2016-12-28T13:45:14Z</time>
      </trkpt>
      <trkpt lat="47.40393" lon="5.00848">
        <ele>322.66</ele>
        <time>2016-12-28T13:45:22Z</time>
      </trkpt>
      <trkpt lat="47.40395" lon="5.00854">
        <ele>322.18</ele>
        <time>2016-12-28T13:45:23Z</time>
      </trkpt>
      <trkpt lat="47.40417" lon="5.00879">
        <ele>320.26</ele>
        <time>2016-12-28T13:45:32Z</time>
      </trkpt>
      <trkpt lat="47.40419" lon="5.0088">
        <ele>320.26</ele>
        <time>2016-12-28T13:45:34Z</time>
      </trkpt>
      <trkpt lat="47.40404" lon="5.00911">
        <ele>321.22</ele>
        <time>2016-12-28T13:45:44Z</time>
      </trkpt>
      <trkpt lat="47.40406" lon="5.00924">
        <ele>320.74</ele>
        <time>2016-12-28T13:45:48Z</time>
      </trkpt>
      <trkpt lat="47.40409" lon="5.0094">
        <ele>319.3</ele>
        <time>2016-12-28T13:45:52Z</time>
      </trkpt>
      <trkpt lat="47.40422" lon="5.00955">
        <ele>317.85</ele>
        <time>2016-12-28T13:46:00Z</time>
      </trkpt>
      <trkpt lat="47.40427" lon="5.00977">
        <ele>315.93</ele>
        <time>2016-12-28T13:46:07Z</time>
      </trkpt>
      <trkpt lat="47.40441" lon="5.00982">
        <ele>313.53</ele>
        <time>2016-12-28T13:46:13Z</time>
      </trkpt>
      <trkpt lat="47.40454" lon="5.00989">
        <ele>310.64</ele>
        <time>2016-12-28T13:46:20Z</time>
      </trkpt>
      <trkpt lat="47.40449" lon="5.0103">
        <ele>310.64</ele>
        <time>2016-12-28T13:46:28Z</time>
      </trkpt>
      <trkpt lat="47.40451" lon="5.01057">
        <ele>309.2</ele>
        <time>2016-12-28T13:46:34Z</time>
      </trkpt>
      <trkpt lat="47.40457" lon="5.01062">
        <ele>305.36</ele>
        <time>2016-12-28T13:46:41Z</time>
      </trkpt>
      <trkpt lat="47.40457" lon="5.01065">
        <ele>302.47</ele>
        <time>2016-12-28T13:46:59Z</time>
      </trkpt>
      <trkpt lat="47.40458" lon="5.01064">
        <ele>299.11</ele>
        <time>2016-12-28T13:47:30Z</time>
      </trkpt>
      <trkpt lat="47.40458" lon="5.01064">
        <ele>298.63</ele>
        <time>2016-12-28T13:47:35Z</time>
      </trkpt>
      <trkpt lat="47.40469" lon="5.01023">
        <ele>298.63</ele>
        <time>2016-12-28T13:47:47Z</time>
      </trkpt>
      <trkpt lat="47.40494" lon="5.00955">
        <ele>298.15</ele>
        <time>2016-12-28T13:48:03Z</time>
      </trkpt>
      <trkpt lat="47.40518" lon="5.00876">
        <ele>297.67</ele>
        <time>2016-12-28T13:48:19Z</time>
      </trkpt>
      <trkpt lat="47.40542" lon="5.00781">
        <ele>298.15</ele>
        <time>2016-12-28T13:48:36Z</time>
      </trkpt>
      <trkpt lat="47.40564" lon="5.00703">
        <ele>298.63</ele>
        <time>2016-12-28T13:48:51Z</time>
      </trkpt>
      <trkpt lat="47.40599" lon="5.00625">
        <ele>298.15</ele>
        <time>2016-12-28T13:49:08Z</time>
      </trkpt>
      <trkpt lat="47.4063" lon="5.00566">
        <ele>297.18</ele>
        <time>2016-12-28T13:49:22Z</time>
      </trkpt>
      <trkpt lat="47.40659" lon="5.0048">
        <ele>299.11</ele>
        <time>2016-12-28T13:49:39Z</time>
      </trkpt>
      <trkpt lat="47.40676" lon="5.00387">
        <ele>300.07</ele>
        <time>2016-12-28T13:49:55Z</time>
      </trkpt>
      <trkpt lat="47.40678" lon="5.00354">
        <ele>299.59</ele>
        <time>2016-12-28T13:50:00Z</time>
      </trkpt>
      <trkpt lat="47.40683" lon="5.00324">
        <ele>300.07</ele>
        <time>2016-12-28T13:50:05Z</time>
      </trkpt>
      <trkpt lat="47.40696" lon="5.00278">
        <ele>300.07</ele>
        <time>2016-12-28T13:50:13Z</time>
      </trkpt>
      <trkpt lat="47.40703" lon="5.00261">
        <ele>300.07</ele>
        <time>2016-12-28T13:50:16Z</time>
      </trkpt>
      <trkpt lat="47.40709" lon="5.00236">
        <ele>300.07</ele>
        <time>2016-12-28T13:50:20Z</time>
      </trkpt>
      <trkpt lat="47.40723" lon="5.00149">
        <ele>301.51</ele>
        <time>2016-12-28T13:50:33Z</time>
      </trkpt>
      <trkpt lat="47.40723" lon="5.001">
        <ele>301.51</ele>
        <time>2016-12-28T13:50:40Z</time>
      </trkpt>
      <trkpt lat="47.40705" lon="4.99982">
        <ele>301.51</ele>
        <time>2016-12-28T13:50:58Z</time>
      </trkpt>
      <trkpt lat="47.40683" lon="4.99855">
        <ele>300.55</ele>
        <time>2016-12-28T13:51:18Z</time>
      </trkpt>
      <trkpt lat="47.4068" lon="4.99827">
        <ele>299.59</ele>
        <time>2016-12-28T13:51:22Z</time>
      </trkpt>
      <trkpt lat="47.40672" lon="4.99693">
        <ele>301.51</ele>
        <time>2016-12-28T13:51:43Z</time>
      </trkpt>
      <trkpt lat="47.40669" lon="4.99652">
        <ele>301.51</ele>
        <time>2016-12-28T13:51:50Z</time>
      </trkpt>
      <trkpt lat="47.40675" lon="4.99583">
        <ele>303.91</ele>
        <time>2016-12-28T13:52:04Z</time>
      </trkpt>
      <trkpt lat="47.40684" lon="4.9953">
        <ele>304.88</ele>
        <time>2016-12-28T13:52:20Z</time>
      </trkpt>
      <trkpt lat="47.40685" lon="4.99481">
        <ele>311.6</ele>
        <time>2016-12-28T13:52:36Z</time>
      </trkpt>
      <trkpt lat="47.40682" lon="4.99456">
        <ele>314.49</ele>
        <time>2016-12-28T13:52:44Z</time>
      </trkpt>
      <trkpt lat="47.40679" lon="4.99443">
        <ele>315.45</ele>
        <time>2016-12-28T13:52:49Z</time>
      </trkpt>
      <trkpt lat="47.40671" lon="4.99402">
        <ele>317.85</ele>
        <time>2016-12-28T13:53:05Z</time>
      </trkpt>
      <trkpt lat="47.4067" lon="4.99372">
        <ele>319.78</ele>
        <time>2016-12-28T13:53:19Z</time>
      </trkpt>
      <trkpt lat="47.40671" lon="4.9937">
        <ele>320.26</ele>
        <time>2016-12-28T13:53:20Z</time>
      </trkpt>
      <trkpt lat="47.4067" lon="4.99336">
        <ele>324.58</ele>
        <time>2016-12-28T13:53:36Z</time>
      </trkpt>
      <trkpt lat="47.40665" lon="4.99307">
        <ele>326.02</ele>
        <time>2016-12-28T13:53:51Z</time>
      </trkpt>
      <trkpt lat="47.40664" lon="4.99305">
        <ele>326.02</ele>
        <time>2016-12-28T13:53:52Z</time>
      </trkpt>
      <trkpt lat="47.40662" lon="4.99281">
        <ele>325.06</ele>
        <time>2016-12-28T13:54:04Z</time>
      </trkpt>
      <trkpt lat="47.4066" lon="4.99267">
        <ele>327.95</ele>
        <time>2016-12-28T13:54:11Z</time>
      </trkpt>
      <trkpt lat="47.40666" lon="4.99235">
        <ele>329.39</ele>
        <time>2016-12-28T13:54:28Z</time>
      </trkpt>
      <trkpt lat="47.40666" lon="4.99229">
        <ele>328.43</ele>
        <time>2016-12-28T13:54:32Z</time>
      </trkpt>
      <trkpt lat="47.40665" lon="4.99205">
        <ele>324.1</ele>
        <time>2016-12-28T13:54:46Z</time>
      </trkpt>
      <trkpt lat="47.40665" lon="4.99182">
        <ele>317.85</ele>
        <time>2016-12-28T13:55:01Z</time>
      </trkpt>
      <trkpt lat="47.40666" lon="4.9917">
        <ele>315.93</ele>
        <time>2016-12-28T13:55:07Z</time>
      </trkpt>
      <trkpt lat="47.40658" lon="4.99164">
        <ele>315.93</ele>
        <time>2016-12-28T13:55:14Z</time>
      </trkpt>
      <trkpt lat="47.40642" lon="4.9916">
        <ele>322.18</ele>
        <time>2016-12-28T13:55:29Z</time>
      </trkpt>
      <trkpt lat="47.40629" lon="4.99162">
        <ele>328.43</ele>
        <time>2016-12-28T13:55:42Z</time>
      </trkpt>
      <trkpt lat="47.40608" lon="4.99166">
        <ele>336.6</ele>
        <time>2016-12-28T13:55:59Z</time>
      </trkpt>
      <trkpt lat="47.40599" lon="4.99164">
        <ele>340.92</ele>
        <time>2016-12-28T13:56:10Z</time>
      </trkpt>
      <trkpt lat="47.40592" lon="4.99164">
        <ele>348.62</ele>
        <time>2016-12-28T13:56:22Z</time>
      </trkpt>
      <trkpt lat="47.40586" lon="4.99163">
        <ele>354.38</ele>
        <time>2016-12-28T13:56:36Z</time>
      </trkpt>
      <trkpt lat="47.4058" lon="4.99164">
        <ele>358.23</ele>
        <time>2016-12-28T13:56:51Z</time>
      </trkpt>
      <trkpt lat="47.40573" lon="4.99165">
        <ele>363.52</ele>
        <time>2016-12-28T13:57:06Z</time>
      </trkpt>
      <trkpt lat="47.40566" lon="4.99167">
        <ele>366.88</ele>
        <time>2016-12-28T13:57:18Z</time>
      </trkpt>
      <trkpt lat="47.40563" lon="4.99169">
        <ele>367.36</ele>
        <time>2016-12-28T13:57:31Z</time>
      </trkpt>
      <trkpt lat="47.40547" lon="4.99173">
        <ele>370.73</ele>
        <time>2016-12-28T13:57:44Z</time>
      </trkpt>
      <trkpt lat="47.40528" lon="4.99174">
        <ele>372.17</ele>
        <time>2016-12-28T13:57:59Z</time>
      </trkpt>
      <trkpt lat="47.40512" lon="4.99159">
        <ele>372.65</ele>
        <time>2016-12-28T13:58:13Z</time>
      </trkpt>
      <trkpt lat="47.40506" lon="4.99152">
        <ele>372.17</ele>
        <time>2016-12-28T13:58:20Z</time>
      </trkpt>
      <trkpt lat="47.40505" lon="4.99148">
        <ele>371.69</ele>
        <time>2016-12-28T13:58:22Z</time>
      </trkpt>
      <trkpt lat="47.40501" lon="4.99139">
        <ele>370.73</ele>
        <time>2016-12-28T13:58:29Z</time>
      </trkpt>
      <trkpt lat="47.40499" lon="4.99127">
        <ele>371.69</ele>
        <time>2016-12-28T13:58:38Z</time>
      </trkpt>
      <trkpt lat="47.40501" lon="4.99119">
        <ele>372.65</ele>
        <time>2016-12-28T13:58:50Z</time>
      </trkpt>
      <trkpt lat="47.40504" lon="4.99109">
        <ele>375.05</ele>
        <time>2016-12-28T13:59:03Z</time>
      </trkpt>
      <trkpt lat="47.40505" lon="4.99106">
        <ele>376.01</ele>
        <time>2016-12-28T13:59:14Z</time>
      </trkpt>
      <trkpt lat="47.40508" lon="4.99095">
        <ele>380.34</ele>
        <time>2016-12-28T13:59:29Z</time>
      </trkpt>
      <trkpt lat="47.40509" lon="4.99082">
        <ele>382.74</ele>
        <time>2016-12-28T13:59:42Z</time>
      </trkpt>
      <trkpt lat="47.40507" lon="4.99076">
        <ele>382.74</ele>
        <time>2016-12-28T13:59:46Z</time>
      </trkpt>
      <trkpt lat="47.40502" lon="4.99052">
        <ele>385.15</ele>
        <time>2016-12-28T14:00:00Z</time>
      </trkpt>
      <trkpt lat="47.40498" lon="4.99027">
        <ele>388.99</ele>
        <time>2016-12-28T14:00:15Z</time>
      </trkpt>
      <trkpt lat="47.40492" lon="4.99011">
        <ele>389.95</ele>
        <time>2016-12-28T14:00:25Z</time>
      </trkpt>
      <trkpt lat="47.40489" lon="4.99002">
        <ele>390.91</ele>
        <time>2016-12-28T14:00:31Z</time>
      </trkpt>
      <trkpt lat="47.40487" lon="4.98986">
        <ele>394.28</ele>
        <time>2016-12-28T14:00:44Z</time>
      </trkpt>
      <trkpt lat="47.40487" lon="4.98972">
        <ele>397.16</ele>
        <time>2016-12-28T14:01:03Z</time>
      </trkpt>
      <trkpt lat="47.40488" lon="4.98958">
        <ele>398.12</ele>
        <time>2016-12-28T14:01:15Z</time>
      </trkpt>
      <trkpt lat="47.40489" lon="4.98949">
        <ele>398.6</ele>
        <time>2016-12-28T14:01:30Z</time>
      </trkpt>
      <trkpt lat="47.40489" lon="4.98937">
        <ele>399.08</ele>
        <time>2016-12-28T14:01:46Z</time>
      </trkpt>
      <trkpt lat="47.40488" lon="4.98921">
        <ele>401.49</ele>
        <time>2016-12-28T14:01:59Z</time>
      </trkpt>
      <trkpt lat="47.4049" lon="4.98912">
        <ele>404.37</ele>
        <time>2016-12-28T14:02:11Z</time>
      </trkpt>
      <trkpt lat="47.40492" lon="4.98905">
        <ele>407.74</ele>
        <time>2016-12-28T14:02:21Z</time>
      </trkpt>
      <trkpt lat="47.40495" lon="4.98891">
        <ele>411.1</ele>
        <time>2016-12-28T14:02:35Z</time>
      </trkpt>
      <trkpt lat="47.40499" lon="4.98882">
        <ele>412.54</ele>
        <time>2016-12-28T14:02:42Z</time>
      </trkpt>
      <trkpt lat="47.40504" lon="4.98871">
        <ele>413.98</ele>
        <time>2016-12-28T14:02:56Z</time>
      </trkpt>
      <trkpt lat="47.40511" lon="4.9886">
        <ele>416.39</ele>
        <time>2016-12-28T14:03:11Z</time>
      </trkpt>
      <trkpt lat="47.40516" lon="4.98856">
        <ele>417.35</ele>
        <time>2016-12-28T14:03:27Z</time>
      </trkpt>
      <trkpt lat="47.40523" lon="4.98849">
        <ele>420.23</ele>
        <time>2016-12-28T14:03:41Z</time>
      </trkpt>
      <trkpt lat="47.4053" lon="4.98843">
        <ele>419.75</ele>
        <time>2016-12-28T14:03:54Z</time>
      </trkpt>
      <trkpt lat="47.40538" lon="4.98838">
        <ele>419.75</ele>
        <time>2016-12-28T14:04:09Z</time>
      </trkpt>
      <trkpt lat="47.40547" lon="4.98832">
        <ele>421.68</ele>
        <time>2016-12-28T14:04:22Z</time>
      </trkpt>
      <trkpt lat="47.4056" lon="4.98823">
        <ele>425.04</ele>
        <time>2016-12-28T14:04:37Z</time>
      </trkpt>
      <trkpt lat="47.40566" lon="4.98816">
        <ele>426.48</ele>
        <time>2016-12-28T14:04:50Z</time>
      </trkpt>
      <trkpt lat="47.40569" lon="4.98808">
        <ele>427.92</ele>
        <time>2016-12-28T14:05:04Z</time>
      </trkpt>
      <trkpt lat="47.40573" lon="4.98791">
        <ele>431.29</ele>
        <time>2016-12-28T14:05:17Z</time>
      </trkpt>
      <trkpt lat="47.40576" lon="4.98778">
        <ele>430.81</ele>
        <time>2016-12-28T14:05:33Z</time>
      </trkpt>
      <trkpt lat="47.40576" lon="4.98764">
        <ele>429.85</ele>
        <time>2016-12-28T14:05:43Z</time>
      </trkpt>
      <trkpt lat="47.40575" lon="4.98751">
        <ele>429.37</ele>
        <time>2016-12-28T14:05:56Z</time>
      </trkpt>
      <trkpt lat="47.40572" lon="4.98735">
        <ele>432.25</ele>
        <time>2016-12-28T14:06:09Z</time>
      </trkpt>
      <trkpt lat="47.40573" lon="4.98723">
        <ele>434.65</ele>
        <time>2016-12-28T14:06:24Z</time>
      </trkpt>
      <trkpt lat="47.40572" lon="4.98718">
        <ele>434.17</ele>
        <time>2016-12-28T14:06:34Z</time>
      </trkpt>
      <trkpt lat="47.40569" lon="4.9871">
        <ele>434.65</ele>
        <time>2016-12-28T14:06:38Z</time>
      </trkpt>
      <trkpt lat="47.40565" lon="4.98693">
        <ele>435.61</ele>
        <time>2016-12-28T14:06:46Z</time>
      </trkpt>
      <trkpt lat="47.40564" lon="4.98687">
        <ele>436.1</ele>
        <time>2016-12-28T14:06:49Z</time>
      </trkpt>
      <trkpt lat="47.40561" lon="4.98658">
        <ele>436.58</ele>
        <time>2016-12-28T14:07:02Z</time>
      </trkpt>
      <trkpt lat="47.4056" lon="4.98641">
        <ele>438.02</ele>
        <time>2016-12-28T14:07:10Z</time>
      </trkpt>
      <trkpt lat="47.4056" lon="4.98635">
        <ele>438.98</ele>
        <time>2016-12-28T14:07:13Z</time>
      </trkpt>
      <trkpt lat="47.40559" lon="4.98616">
        <ele>439.46</ele>
        <time>2016-12-28T14:07:23Z</time>
      </trkpt>
      <trkpt lat="47.40558" lon="4.98606">
        <ele>439.46</ele>
        <time>2016-12-28T14:07:28Z</time>
      </trkpt>
      <trkpt lat="47.40559" lon="4.98596">
        <ele>440.42</ele>
        <time>2016-12-28T14:07:33Z</time>
      </trkpt>
      <trkpt lat="47.40558" lon="4.98589">
        <ele>441.38</ele>
        <time>2016-12-28T14:07:37Z</time>
      </trkpt>
      <trkpt lat="47.40558" lon="4.98565">
        <ele>445.23</ele>
        <time>2016-12-28T14:07:52Z</time>
      </trkpt>
      <trkpt lat="47.40561" lon="4.98545">
        <ele>446.19</ele>
        <time>2016-12-28T14:08:04Z</time>
      </trkpt>
      <trkpt lat="47.40562" lon="4.98537">
        <ele>448.11</ele>
        <time>2016-12-28T14:08:09Z</time>
      </trkpt>
      <trkpt lat="47.40567" lon="4.98517">
        <ele>449.55</ele>
        <time>2016-12-28T14:08:22Z</time>
      </trkpt>
      <trkpt lat="47.40567" lon="4.98503">
        <ele>451</ele>
        <time>2016-12-28T14:08:36Z</time>
      </trkpt>
      <trkpt lat="47.40565" lon="4.98494">
        <ele>451.48</ele>
        <time>2016-12-28T14:08:51Z</time>
      </trkpt>
      <trkpt lat="47.40563" lon="4.98479">
        <ele>458.69</ele>
        <time>2016-12-28T14:09:02Z</time>
      </trkpt>
      <trkpt lat="47.4056" lon="4.98461">
        <ele>456.76</ele>
        <time>2016-12-28T14:09:15Z</time>
      </trkpt>
      <trkpt lat="47.40558" lon="4.98449">
        <ele>457.72</ele>
        <time>2016-12-28T14:09:28Z</time>
      </trkpt>
      <trkpt lat="47.40557" lon="4.98443">
        <ele>457.24</ele>
        <time>2016-12-28T14:09:46Z</time>
      </trkpt>
      <trkpt lat="47.40556" lon="4.98443">
        <ele>457.24</ele>
        <time>2016-12-28T14:10:02Z</time>
      </trkpt>
      <trkpt lat="47.40557" lon="4.98442">
        <ele>457.24</ele>
        <time>2016-12-28T14:10:24Z</time>
      </trkpt>
      <trkpt lat="47.40558" lon="4.98441">
        <ele>456.28</ele>
        <time>2016-12-28T14:10:55Z</time>
      </trkpt>
      <trkpt lat="47.40558" lon="4.98442">
        <ele>456.76</ele>
        <time>2016-12-28T14:11:29Z</time>
      </trkpt>
      <trkpt lat="47.40557" lon="4.98442">
        <ele>456.28</ele>
        <time>2016-12-28T14:11:54Z</time>
      </trkpt>
      <trkpt lat="47.40558" lon="4.98443">
        <ele>455.8</ele>
        <time>2016-12-28T14:12:25Z</time>
      </trkpt>
      <trkpt lat="47.40557" lon="4.98443">
        <ele>456.76</ele>
        <time>2016-12-28T14:12:41Z</time>
      </trkpt>
      <trkpt lat="47.40557" lon="4.98441">
        <ele>456.28</ele>
        <time>2016-12-28T14:12:45Z</time>
      </trkpt>
      <trkpt lat="47.40538" lon="4.98414">
        <ele>456.76</ele>
        <time>2016-12-28T14:12:59Z</time>
      </trkpt>
      <trkpt lat="47.40515" lon="4.98387">
        <ele>457.24</ele>
        <time>2016-12-28T14:13:13Z</time>
      </trkpt>
      <trkpt lat="47.40483" lon="4.98354">
        <ele>459.17</ele>
        <time>2016-12-28T14:13:28Z</time>
      </trkpt>
      <trkpt lat="47.40448" lon="4.98305">
        <ele>458.69</ele>
        <time>2016-12-28T14:13:44Z</time>
      </trkpt>
      <trkpt lat="47.40425" lon="4.9826">
        <ele>458.21</ele>
        <time>2016-12-28T14:13:57Z</time>
      </trkpt>
      <trkpt lat="47.404" lon="4.98208">
        <ele>458.69</ele>
        <time>2016-12-28T14:14:12Z</time>
      </trkpt>
      <trkpt lat="47.40382" lon="4.98171">
        <ele>457.72</ele>
        <time>2016-12-28T14:14:23Z</time>
      </trkpt>
      <trkpt lat="47.40382" lon="4.98153">
        <ele>457.24</ele>
        <time>2016-12-28T14:14:28Z</time>
      </trkpt>
      <trkpt lat="47.40396" lon="4.98098">
        <ele>452.92</ele>
        <time>2016-12-28T14:14:41Z</time>
      </trkpt>
      <trkpt lat="47.40414" lon="4.98063">
        <ele>449.55</ele>
        <time>2016-12-28T14:14:48Z</time>
      </trkpt>
      <trkpt lat="47.40429" lon="4.98042">
        <ele>447.63</ele>
        <time>2016-12-28T14:14:52Z</time>
      </trkpt>
      <trkpt lat="47.40453" lon="4.98018">
        <ele>445.23</ele>
        <time>2016-12-28T14:14:57Z</time>
      </trkpt>
      <trkpt lat="47.40473" lon="4.97999">
        <ele>441.86</ele>
        <time>2016-12-28T14:15:06Z</time>
      </trkpt>
      <trkpt lat="47.40482" lon="4.97991">
        <ele>441.38</ele>
        <time>2016-12-28T14:15:11Z</time>
      </trkpt>
      <trkpt lat="47.40489" lon="4.97988">
        <ele>442.82</ele>
        <time>2016-12-28T14:15:23Z</time>
      </trkpt>
      <trkpt lat="47.40487" lon="4.97988">
        <ele>443.31</ele>
        <time>2016-12-28T14:15:26Z</time>
      </trkpt>
      <trkpt lat="47.40479" lon="4.9799">
        <ele>445.71</ele>
        <time>2016-12-28T14:15:30Z</time>
      </trkpt>
      <trkpt lat="47.40469" lon="4.97992">
        <ele>446.67</ele>
        <time>2016-12-28T14:15:33Z</time>
      </trkpt>
      <trkpt lat="47.40463" lon="4.97996">
        <ele>448.59</ele>
        <time>2016-12-28T14:15:40Z</time>
      </trkpt>
      <trkpt lat="47.40461" lon="4.97994">
        <ele>449.55</ele>
        <time>2016-12-28T14:15:43Z</time>
      </trkpt>
      <trkpt lat="47.40459" lon="4.9798">
        <ele>447.15</ele>
        <time>2016-12-28T14:15:49Z</time>
      </trkpt>
      <trkpt lat="47.40454" lon="4.97976">
        <ele>444.75</ele>
        <time>2016-12-28T14:15:56Z</time>
      </trkpt>
      <trkpt lat="47.40447" lon="4.97979">
        <ele>444.75</ele>
        <time>2016-12-28T14:16:01Z</time>
      </trkpt>
      <trkpt lat="47.4044" lon="4.97977">
        <ele>445.71</ele>
        <time>2016-12-28T14:16:05Z</time>
      </trkpt>
      <trkpt lat="47.40432" lon="4.97977">
        <ele>446.19</ele>
        <time>2016-12-28T14:16:07Z</time>
      </trkpt>
      <trkpt lat="47.40414" lon="4.97979">
        <ele>446.19</ele>
        <time>2016-12-28T14:16:11Z</time>
      </trkpt>
      <trkpt lat="47.40396" lon="4.97979">
        <ele>445.23</ele>
        <time>2016-12-28T14:16:14Z</time>
      </trkpt>
      <trkpt lat="47.40335" lon="4.97992">
        <ele>441.86</ele>
        <time>2016-12-28T14:16:24Z</time>
      </trkpt>
      <trkpt lat="47.40263" lon="4.98016">
        <ele>436.58</ele>
        <time>2016-12-28T14:16:35Z</time>
      </trkpt>
      <trkpt lat="47.40205" lon="4.98027">
        <ele>432.25</ele>
        <time>2016-12-28T14:16:44Z</time>
      </trkpt>
      <trkpt lat="47.40147" lon="4.98022">
        <ele>424.56</ele>
        <time>2016-12-28T14:16:54Z</time>
      </trkpt>
      <trkpt lat="47.40099" lon="4.98021">
        <ele>416.39</ele>
        <time>2016-12-28T14:17:04Z</time>
      </trkpt>
      <trkpt lat="47.40065" lon="4.98028">
        <ele>406.29</ele>
        <time>2016-12-28T14:17:14Z</time>
      </trkpt>
      <trkpt lat="47.40053" lon="4.98032">
        <ele>403.41</ele>
        <time>2016-12-28T14:17:17Z</time>
      </trkpt>
      <trkpt lat="47.40022" lon="4.98037">
        <ele>397.64</ele>
        <time>2016-12-28T14:17:23Z</time>
      </trkpt>
      <trkpt lat="47.39981" lon="4.98041">
        <ele>393.32</ele>
        <time>2016-12-28T14:17:29Z</time>
      </trkpt>
      <trkpt lat="47.39951" lon="4.98053">
        <ele>388.03</ele>
        <time>2016-12-28T14:17:34Z</time>
      </trkpt>
      <trkpt lat="47.39929" lon="4.98065">
        <ele>384.66</ele>
        <time>2016-12-28T14:17:41Z</time>
      </trkpt>
      <trkpt lat="47.39927" lon="4.98069">
        <ele>384.18</ele>
        <time>2016-12-28T14:17:42Z</time>
      </trkpt>
      <trkpt lat="47.39876" lon="4.9811">
        <ele>381.3</ele>
        <time>2016-12-28T14:17:52Z</time>
      </trkpt>
      <trkpt lat="47.39863" lon="4.9812">
        <ele>380.82</ele>
        <time>2016-12-28T14:17:54Z</time>
      </trkpt>
      <trkpt lat="47.39822" lon="4.98141">
        <ele>374.57</ele>
        <time>2016-12-28T14:18:02Z</time>
      </trkpt>
      <trkpt lat="47.39804" lon="4.98155">
        <ele>364.48</ele>
        <time>2016-12-28T14:18:12Z</time>
      </trkpt>
      <trkpt lat="47.39794" lon="4.98161">
        <ele>346.69</ele>
        <time>2016-12-28T14:18:35Z</time>
      </trkpt>
      <trkpt lat="47.39791" lon="4.98158">
        <ele>340.44</ele>
        <time>2016-12-28T14:19:05Z</time>
      </trkpt>
      <trkpt lat="47.39793" lon="4.98157">
        <ele>339.96</ele>
        <time>2016-12-28T14:19:26Z</time>
      </trkpt>
      <trkpt lat="47.39793" lon="4.98157">
        <ele>336.12</ele>
        <time>2016-12-28T14:19:51Z</time>
      </trkpt>
      <trkpt lat="47.39787" lon="4.98138">
        <ele>336.12</ele>
        <time>2016-12-28T14:20:00Z</time>
      </trkpt>
      <trkpt lat="47.39783" lon="4.98087">
        <ele>339</ele>
        <time>2016-12-28T14:20:11Z</time>
      </trkpt>
      <trkpt lat="47.3978" lon="4.98042">
        <ele>341.41</ele>
        <time>2016-12-28T14:20:22Z</time>
      </trkpt>
      <trkpt lat="47.39779" lon="4.98036">
        <ele>342.37</ele>
        <time>2016-12-28T14:20:24Z</time>
      </trkpt>
      <trkpt lat="47.3978" lon="4.98019">
        <ele>343.33</ele>
        <time>2016-12-28T14:20:29Z</time>
      </trkpt>
      <trkpt lat="47.39779" lon="4.97965">
        <ele>342.85</ele>
        <time>2016-12-28T14:20:41Z</time>
      </trkpt>
      <trkpt lat="47.39779" lon="4.97913">
        <ele>338.52</ele>
        <time>2016-12-28T14:20:53Z</time>
      </trkpt>
      <trkpt lat="47.39761" lon="4.97863">
        <ele>334.2</ele>
        <time>2016-12-28T14:21:06Z</time>
      </trkpt>
      <trkpt lat="47.39721" lon="4.97815">
        <ele>336.12</ele>
        <time>2016-12-28T14:21:21Z</time>
      </trkpt>
      <trkpt lat="47.39683" lon="4.97782">
        <ele>344.29</ele>
        <time>2016-12-28T14:21:34Z</time>
      </trkpt>
      <trkpt lat="47.39648" lon="4.97759">
        <ele>351.02</ele>
        <time>2016-12-28T14:21:46Z</time>
      </trkpt>
      <trkpt lat="47.39643" lon="4.97756">
        <ele>350.54</ele>
        <time>2016-12-28T14:21:57Z</time>
      </trkpt>
      <trkpt lat="47.39642" lon="4.97751">
        <ele>346.21</ele>
        <time>2016-12-28T14:22:19Z</time>
      </trkpt>
      <trkpt lat="47.39629" lon="4.97742">
        <ele>348.13</ele>
        <time>2016-12-28T14:22:35Z</time>
      </trkpt>
      <trkpt lat="47.39627" lon="4.97741">
        <ele>348.62</ele>
        <time>2016-12-28T14:22:37Z</time>
      </trkpt>
      <trkpt lat="47.39595" lon="4.97712">
        <ele>350.06</ele>
        <time>2016-12-28T14:22:50Z</time>
      </trkpt>
      <trkpt lat="47.39563" lon="4.9768">
        <ele>351.5</ele>
        <time>2016-12-28T14:23:04Z</time>
      </trkpt>
      <trkpt lat="47.39525" lon="4.97636">
        <ele>351.5</ele>
        <time>2016-12-28T14:23:20Z</time>
      </trkpt>
      <trkpt lat="47.39489" lon="4.97581">
        <ele>347.17</ele>
        <time>2016-12-28T14:23:35Z</time>
      </trkpt>
      <trkpt lat="47.39467" lon="4.97533">
        <ele>346.21</ele>
        <time>2016-12-28T14:23:47Z</time>
      </trkpt>
      <trkpt lat="47.39443" lon="4.97489">
        <ele>351.02</ele>
        <time>2016-12-28T14:24:00Z</time>
      </trkpt>
      <trkpt lat="47.39417" lon="4.97448">
        <ele>355.34</ele>
        <time>2016-12-28T14:24:13Z</time>
      </trkpt>
      <trkpt lat="47.39402" lon="4.97423">
        <ele>354.86</ele>
        <time>2016-12-28T14:24:21Z</time>
      </trkpt>
      <trkpt lat="47.39383" lon="4.97391">
        <ele>354.38</ele>
        <time>2016-12-28T14:24:31Z</time>
      </trkpt>
      <trkpt lat="47.39372" lon="4.97378">
        <ele>351.02</ele>
        <time>2016-12-28T14:24:43Z</time>
      </trkpt>
      <trkpt lat="47.39369" lon="4.97378">
        <ele>351.5</ele>
        <time>2016-12-28T14:25:08Z</time>
      </trkpt>
      <trkpt lat="47.3937" lon="4.97378">
        <ele>351.98</ele>
        <time>2016-12-28T14:25:37Z</time>
      </trkpt>
      <trkpt lat="47.39371" lon="4.97377">
        <ele>351.02</ele>
        <time>2016-12-28T14:26:06Z</time>
      </trkpt>
      <trkpt lat="47.39369" lon="4.97375">
        <ele>351.5</ele>
        <time>2016-12-28T14:26:28Z</time>
      </trkpt>
      <trkpt lat="47.39369" lon="4.97375">
        <ele>351.5</ele>
        <time>2016-12-28T14:26:31Z</time>
      </trkpt>
      <trkpt lat="47.39363" lon="4.9735">
        <ele>353.42</ele>
        <time>2016-12-28T14:26:40Z</time>
      </trkpt>
      <trkpt lat="47.39348" lon="4.97326">
        <ele>359.19</ele>
        <time>2016-12-28T14:26:50Z</time>
      </trkpt>
      <trkpt lat="47.39337" lon="4.9732">
        <ele>363.04</ele>
        <time>2016-12-28T14:26:57Z</time>
      </trkpt>
      <trkpt lat="47.39316" lon="4.97309">
        <ele>363.52</ele>
        <time>2016-12-28T14:27:08Z</time>
      </trkpt>
      <trkpt lat="47.39297" lon="4.97305">
        <ele>365.44</ele>
        <time>2016-12-28T14:27:20Z</time>
      </trkpt>
      <trkpt lat="47.39295" lon="4.97304">
        <ele>364.96</ele>
        <time>2016-12-28T14:27:30Z</time>
      </trkpt>
      <trkpt lat="47.39283" lon="4.97298">
        <ele>364.48</ele>
        <time>2016-12-28T14:27:43Z</time>
      </trkpt>
      <trkpt lat="47.39259" lon="4.97289">
        <ele>368.32</ele>
        <time>2016-12-28T14:27:56Z</time>
      </trkpt>
      <trkpt lat="47.39237" lon="4.97279">
        <ele>370.73</ele>
        <time>2016-12-28T14:28:10Z</time>
      </trkpt>
      <trkpt lat="47.39225" lon="4.97269">
        <ele>372.17</ele>
        <time>2016-12-28T14:28:21Z</time>
      </trkpt>
      <trkpt lat="47.39232" lon="4.97254">
        <ele>370.24</ele>
        <time>2016-12-28T14:28:35Z</time>
      </trkpt>
      <trkpt lat="47.39235" lon="4.97251">
        <ele>369.28</ele>
        <time>2016-12-28T14:28:39Z</time>
      </trkpt>
      <trkpt lat="47.3924" lon="4.97247">
        <ele>368.8</ele>
        <time>2016-12-28T14:28:44Z</time>
      </trkpt>
      <trkpt lat="47.39244" lon="4.9724">
        <ele>367.36</ele>
        <time>2016-12-28T14:28:49Z</time>
      </trkpt>
      <trkpt lat="47.39254" lon="4.97228">
        <ele>367.36</ele>
        <time>2016-12-28T14:29:02Z</time>
      </trkpt>
      <trkpt lat="47.39258" lon="4.97224">
        <ele>367.36</ele>
        <time>2016-12-28T14:29:06Z</time>
      </trkpt>
      <trkpt lat="47.39265" lon="4.97217">
        <ele>368.32</ele>
        <time>2016-12-28T14:29:13Z</time>
      </trkpt>
      <trkpt lat="47.3928" lon="4.97206">
        <ele>369.76</ele>
        <time>2016-12-28T14:29:28Z</time>
      </trkpt>
      <trkpt lat="47.39289" lon="4.97196">
        <ele>370.73</ele>
        <time>2016-12-28T14:29:39Z</time>
      </trkpt>
      <trkpt lat="47.39293" lon="4.97176">
        <ele>371.21</ele>
        <time>2016-12-28T14:29:53Z</time>
      </trkpt>
      <trkpt lat="47.39292" lon="4.97156">
        <ele>374.57</ele>
        <time>2016-12-28T14:30:06Z</time>
      </trkpt>
      <trkpt lat="47.39291" lon="4.97145">
        <ele>376.97</ele>
        <time>2016-12-28T14:30:19Z</time>
      </trkpt>
      <trkpt lat="47.39288" lon="4.97138">
        <ele>377.45</ele>
        <time>2016-12-28T14:30:31Z</time>
      </trkpt>
      <trkpt lat="47.39285" lon="4.97124">
        <ele>379.86</ele>
        <time>2016-12-28T14:30:42Z</time>
      </trkpt>
      <trkpt lat="47.39278" lon="4.97102">
        <ele>383.22</ele>
        <time>2016-12-28T14:30:56Z</time>
      </trkpt>
      <trkpt lat="47.39268" lon="4.97082">
        <ele>387.55</ele>
        <time>2016-12-28T14:31:10Z</time>
      </trkpt>
      <trkpt lat="47.39257" lon="4.97063">
        <ele>389.95</ele>
        <time>2016-12-28T14:31:24Z</time>
      </trkpt>
      <trkpt lat="47.39248" lon="4.97045">
        <ele>391.87</ele>
        <time>2016-12-28T14:31:35Z</time>
      </trkpt>
      <trkpt lat="47.39245" lon="4.97019">
        <ele>393.32</ele>
        <time>2016-12-28T14:31:48Z</time>
      </trkpt>
      <trkpt lat="47.39246" lon="4.96999">
        <ele>392.84</ele>
        <time>2016-12-28T14:31:57Z</time>
      </trkpt>
      <trkpt lat="47.39253" lon="4.96967">
        <ele>393.32</ele>
        <time>2016-12-28T14:32:12Z</time>
      </trkpt>
      <trkpt lat="47.39253" lon="4.96966">
        <ele>393.32</ele>
        <time>2016-12-28T14:32:13Z</time>
      </trkpt>
      <trkpt lat="47.39254" lon="4.96952">
        <ele>394.28</ele>
        <time>2016-12-28T14:32:20Z</time>
      </trkpt>
      <trkpt lat="47.39255" lon="4.96937">
        <ele>394.76</ele>
        <time>2016-12-28T14:32:27Z</time>
      </trkpt>
      <trkpt lat="47.39256" lon="4.96911">
        <ele>396.2</ele>
        <time>2016-12-28T14:32:39Z</time>
      </trkpt>
      <trkpt lat="47.39252" lon="4.96899">
        <ele>397.16</ele>
        <time>2016-12-28T14:32:44Z</time>
      </trkpt>
      <trkpt lat="47.39251" lon="4.96892">
        <ele>398.12</ele>
        <time>2016-12-28T14:32:47Z</time>
      </trkpt>
      <trkpt lat="47.39251" lon="4.96882">
        <ele>399.57</ele>
        <time>2016-12-28T14:32:52Z</time>
      </trkpt>
      <trkpt lat="47.39251" lon="4.96868">
        <ele>401.97</ele>
        <time>2016-12-28T14:32:59Z</time>
      </trkpt>
      <trkpt lat="47.39248" lon="4.96851">
        <ele>403.41</ele>
        <time>2016-12-28T14:33:07Z</time>
      </trkpt>
      <trkpt lat="47.39245" lon="4.96837">
        <ele>404.37</ele>
        <time>2016-12-28T14:33:14Z</time>
      </trkpt>
      <trkpt lat="47.39243" lon="4.96827">
        <ele>404.85</ele>
        <time>2016-12-28T14:33:19Z</time>
      </trkpt>
      <trkpt lat="47.39241" lon="4.96817">
        <ele>405.33</ele>
        <time>2016-12-28T14:33:24Z</time>
      </trkpt>
      <trkpt lat="47.39237" lon="4.96798">
        <ele>407.74</ele>
        <time>2016-12-28T14:33:34Z</time>
      </trkpt>
      <trkpt lat="47.39236" lon="4.96791">
        <ele>407.74</ele>
        <time>2016-12-28T14:33:38Z</time>
      </trkpt>
      <trkpt lat="47.39226" lon="4.96761">
        <ele>408.7</ele>
        <time>2016-12-28T14:33:51Z</time>
      </trkpt>
      <trkpt lat="47.39208" lon="4.96725">
        <ele>411.58</ele>
        <time>2016-12-28T14:34:06Z</time>
      </trkpt>
      <trkpt lat="47.39205" lon="4.96717">
        <ele>412.06</ele>
        <time>2016-12-28T14:34:10Z</time>
      </trkpt>
      <trkpt lat="47.3919" lon="4.96677">
        <ele>413.5</ele>
        <time>2016-12-28T14:34:25Z</time>
      </trkpt>
      <trkpt lat="47.39179" lon="4.96647">
        <ele>416.39</ele>
        <time>2016-12-28T14:34:37Z</time>
      </trkpt>
      <trkpt lat="47.3916" lon="4.9662">
        <ele>419.27</ele>
        <time>2016-12-28T14:34:50Z</time>
      </trkpt>
      <trkpt lat="47.39136" lon="4.96585">
        <ele>420.23</ele>
        <time>2016-12-28T14:35:05Z</time>
      </trkpt>
      <trkpt lat="47.39117" lon="4.96557">
        <ele>422.16</ele>
        <time>2016-12-28T14:35:17Z</time>
      </trkpt>
      <trkpt lat="47.39105" lon="4.96518">
        <ele>422.16</ele>
        <time>2016-12-28T14:35:30Z</time>
      </trkpt>
      <trkpt lat="47.39091" lon="4.96476">
        <ele>422.64</ele>
        <time>2016-12-28T14:35:43Z</time>
      </trkpt>
      <trkpt lat="47.39091" lon="4.96428">
        <ele>421.68</ele>
        <time>2016-12-28T14:35:57Z</time>
      </trkpt>
      <trkpt lat="47.39092" lon="4.96419">
        <ele>421.19</ele>
        <time>2016-12-28T14:36:00Z</time>
      </trkpt>
      <trkpt lat="47.39093" lon="4.96402">
        <ele>421.19</ele>
        <time>2016-12-28T14:36:06Z</time>
      </trkpt>
      <trkpt lat="47.39094" lon="4.96391">
        <ele>421.68</ele>
        <time>2016-12-28T14:36:11Z</time>
      </trkpt>
      <trkpt lat="47.39096" lon="4.96372">
        <ele>425.04</ele>
        <time>2016-12-28T14:36:19Z</time>
      </trkpt>
      <trkpt lat="47.39093" lon="4.96352">
        <ele>425.52</ele>
        <time>2016-12-28T14:36:26Z</time>
      </trkpt>
      <trkpt lat="47.39093" lon="4.96314">
        <ele>428.89</ele>
        <time>2016-12-28T14:36:41Z</time>
      </trkpt>
      <trkpt lat="47.39093" lon="4.96311">
        <ele>428.89</ele>
        <time>2016-12-28T14:36:42Z</time>
      </trkpt>
      <trkpt lat="47.39092" lon="4.96284">
        <ele>428.4</ele>
        <time>2016-12-28T14:36:54Z</time>
      </trkpt>
      <trkpt lat="47.3909" lon="4.96271">
        <ele>428.4</ele>
        <time>2016-12-28T14:36:58Z</time>
      </trkpt>
      <trkpt lat="47.39087" lon="4.96252">
        <ele>427.92</ele>
        <time>2016-12-28T14:37:05Z</time>
      </trkpt>
      <trkpt lat="47.3909" lon="4.96235">
        <ele>427.44</ele>
        <time>2016-12-28T14:37:12Z</time>
      </trkpt>
      <trkpt lat="47.3909" lon="4.96227">
        <ele>426.96</ele>
        <time>2016-12-28T14:37:15Z</time>
      </trkpt>
      <trkpt lat="47.39089" lon="4.96213">
        <ele>426.48</ele>
        <time>2016-12-28T14:37:20Z</time>
      </trkpt>
      <trkpt lat="47.39088" lon="4.96209">
        <ele>426.48</ele>
        <time>2016-12-28T14:37:22Z</time>
      </trkpt>
      <trkpt lat="47.39082" lon="4.96173">
        <ele>426</ele>
        <time>2016-12-28T14:37:34Z</time>
      </trkpt>
      <trkpt lat="47.39073" lon="4.96128">
        <ele>426.48</ele>
        <time>2016-12-28T14:37:47Z</time>
      </trkpt>
      <trkpt lat="47.39067" lon="4.96074">
        <ele>425.52</ele>
        <time>2016-12-28T14:38:01Z</time>
      </trkpt>
      <trkpt lat="47.39047" lon="4.96023">
        <ele>427.92</ele>
        <time>2016-12-28T14:38:15Z</time>
      </trkpt>
      <trkpt lat="47.39044" lon="4.95979">
        <ele>428.89</ele>
        <time>2016-12-28T14:38:25Z</time>
      </trkpt>
      <trkpt lat="47.39037" lon="4.95934">
        <ele>432.73</ele>
        <time>2016-12-28T14:38:35Z</time>
      </trkpt>
      <trkpt lat="47.39038" lon="4.95884">
        <ele>438.98</ele>
        <time>2016-12-28T14:38:50Z</time>
      </trkpt>
      <trkpt lat="47.39037" lon="4.95844">
        <ele>440.42</ele>
        <time>2016-12-28T14:39:02Z</time>
      </trkpt>
      <trkpt lat="47.39039" lon="4.95812">
        <ele>439.94</ele>
        <time>2016-12-28T14:39:12Z</time>
      </trkpt>
      <trkpt lat="47.39025" lon="4.95758">
        <ele>439.94</ele>
        <time>2016-12-28T14:39:28Z</time>
      </trkpt>
      <trkpt lat="47.39015" lon="4.95709">
        <ele>440.42</ele>
        <time>2016-12-28T14:39:41Z</time>
      </trkpt>
      <trkpt lat="47.38998" lon="4.95662">
        <ele>445.71</ele>
        <time>2016-12-28T14:39:53Z</time>
      </trkpt>
      <trkpt lat="47.3899" lon="4.95633">
        <ele>450.03</ele>
        <time>2016-12-28T14:40:04Z</time>
      </trkpt>
      <trkpt lat="47.38989" lon="4.95631">
        <ele>451</ele>
        <time>2016-12-28T14:40:28Z</time>
      </trkpt>
      <trkpt lat="47.38988" lon="4.95629">
        <ele>451</ele>
        <time>2016-12-28T14:40:58Z</time>
      </trkpt>
      <trkpt lat="47.38986" lon="4.95629">
        <ele>451.48</ele>
        <time>2016-12-28T14:41:31Z</time>
      </trkpt>
      <trkpt lat="47.38985" lon="4.95622">
        <ele>452.44</ele>
        <time>2016-12-28T14:41:55Z</time>
      </trkpt>
      <trkpt lat="47.38984" lon="4.95607">
        <ele>454.36</ele>
        <time>2016-12-28T14:42:02Z</time>
      </trkpt>
      <trkpt lat="47.38982" lon="4.95578">
        <ele>455.32</ele>
        <time>2016-12-28T14:42:13Z</time>
      </trkpt>
      <trkpt lat="47.38984" lon="4.95555">
        <ele>453.4</ele>
        <time>2016-12-28T14:42:21Z</time>
      </trkpt>
      <trkpt lat="47.38983" lon="4.95523">
        <ele>451</ele>
        <time>2016-12-28T14:42:31Z</time>
      </trkpt>
      <trkpt lat="47.38986" lon="4.95488">
        <ele>449.55</ele>
        <time>2016-12-28T14:42:44Z</time>
      </trkpt>
      <trkpt lat="47.38987" lon="4.95465">
        <ele>447.63</ele>
        <time>2016-12-28T14:42:52Z</time>
      </trkpt>
      <trkpt lat="47.38988" lon="4.95423">
        <ele>449.07</ele>
        <time>2016-12-28T14:43:04Z</time>
      </trkpt>
      <trkpt lat="47.38994" lon="4.95385">
        <ele>454.36</ele>
        <time>2016-12-28T14:43:16Z</time>
      </trkpt>
      <trkpt lat="47.39011" lon="4.95344">
        <ele>457.24</ele>
        <time>2016-12-28T14:43:32Z</time>
      </trkpt>
      <trkpt lat="47.39023" lon="4.95306">
        <ele>459.17</ele>
        <time>2016-12-28T14:43:48Z</time>
      </trkpt>
      <trkpt lat="47.39027" lon="4.95261">
        <ele>460.61</ele>
        <time>2016-12-28T14:44:03Z</time>
      </trkpt>
      <trkpt lat="47.39028" lon="4.95214">
        <ele>463.01</ele>
        <time>2016-12-28T14:44:19Z</time>
      </trkpt>
      <trkpt lat="47.39028" lon="4.95168">
        <ele>463.97</ele>
        <time>2016-12-28T14:44:35Z</time>
      </trkpt>
      <trkpt lat="47.39025" lon="4.95151">
        <ele>466.38</ele>
        <time>2016-12-28T14:44:50Z</time>
      </trkpt>
      <trkpt lat="47.39026" lon="4.95151">
        <ele>466.38</ele>
        <time>2016-12-28T14:45:04Z</time>
      </trkpt>
      <trkpt lat="47.39025" lon="4.95111">
        <ele>467.34</ele>
        <time>2016-12-28T14:45:17Z</time>
      </trkpt>
      <trkpt lat="47.39021" lon="4.95058">
        <ele>469.26</ele>
        <time>2016-12-28T14:45:31Z</time>
      </trkpt>
      <trkpt lat="47.39018" lon="4.95025">
        <ele>471.18</ele>
        <time>2016-12-28T14:45:44Z</time>
      </trkpt>
      <trkpt lat="47.39018" lon="4.95024">
        <ele>471.18</ele>
        <time>2016-12-28T14:45:47Z</time>
      </trkpt>
      <trkpt lat="47.3902" lon="4.94974">
        <ele>474.07</ele>
        <time>2016-12-28T14:46:01Z</time>
      </trkpt>
      <trkpt lat="47.39035" lon="4.94917">
        <ele>475.03</ele>
        <time>2016-12-28T14:46:18Z</time>
      </trkpt>
      <trkpt lat="47.39055" lon="4.94873">
        <ele>475.51</ele>
        <time>2016-12-28T14:46:32Z</time>
      </trkpt>
      <trkpt lat="47.39069" lon="4.94833">
        <ele>481.28</ele>
        <time>2016-12-28T14:46:44Z</time>
      </trkpt>
      <trkpt lat="47.39079" lon="4.94789">
        <ele>483.68</ele>
        <time>2016-12-28T14:46:59Z</time>
      </trkpt>
      <trkpt lat="47.39083" lon="4.94749">
        <ele>482.72</ele>
        <time>2016-12-28T14:47:12Z</time>
      </trkpt>
      <trkpt lat="47.39087" lon="4.9471">
        <ele>481.76</ele>
        <time>2016-12-28T14:47:24Z</time>
      </trkpt>
      <trkpt lat="47.39091" lon="4.94665">
        <ele>483.2</ele>
        <time>2016-12-28T14:47:37Z</time>
      </trkpt>
      <trkpt lat="47.39095" lon="4.9461">
        <ele>486.08</ele>
        <time>2016-12-28T14:47:53Z</time>
      </trkpt>
      <trkpt lat="47.391" lon="4.9456">
        <ele>487.05</ele>
        <time>2016-12-28T14:48:06Z</time>
      </trkpt>
      <trkpt lat="47.39103" lon="4.94499">
        <ele>487.05</ele>
        <time>2016-12-28T14:48:22Z</time>
      </trkpt>
      <trkpt lat="47.39106" lon="4.94455">
        <ele>488.97</ele>
        <time>2016-12-28T14:48:35Z</time>
      </trkpt>
      <trkpt lat="47.39114" lon="4.944">
        <ele>490.89</ele>
        <time>2016-12-28T14:48:50Z</time>
      </trkpt>
      <trkpt lat="47.39132" lon="4.94337">
        <ele>494.74</ele>
        <time>2016-12-28T14:49:09Z</time>
      </trkpt>
      <trkpt lat="47.39135" lon="4.94331">
        <ele>495.22</ele>
        <time>2016-12-28T14:49:13Z</time>
      </trkpt>
      <trkpt lat="47.39136" lon="4.94322">
        <ele>496.18</ele>
        <time>2016-12-28T14:49:28Z</time>
      </trkpt>
      <trkpt lat="47.39137" lon="4.94323">
        <ele>495.7</ele>
        <time>2016-12-28T14:49:54Z</time>
      </trkpt>
      <trkpt lat="47.39138" lon="4.94323">
        <ele>496.66</ele>
        <time>2016-12-28T14:50:17Z</time>
      </trkpt>
      <trkpt lat="47.39138" lon="4.94322">
        <ele>497.62</ele>
        <time>2016-12-28T14:50:53Z</time>
      </trkpt>
      <trkpt lat="47.39138" lon="4.94322">
        <ele>497.62</ele>
        <time>2016-12-28T14:50:56Z</time>
      </trkpt>
      <trkpt lat="47.3914" lon="4.94321">
        <ele>497.62</ele>
        <time>2016-12-28T14:50:59Z</time>
      </trkpt>
      <trkpt lat="47.3915" lon="4.94329">
        <ele>498.1</ele>
        <time>2016-12-28T14:51:07Z</time>
      </trkpt>
      <trkpt lat="47.39191" lon="4.94354">
        <ele>500.5</ele>
        <time>2016-12-28T14:51:24Z</time>
      </trkpt>
      <trkpt lat="47.39214" lon="4.94381">
        <ele>500.98</ele>
        <time>2016-12-28T14:51:36Z</time>
      </trkpt>
      <trkpt lat="47.39237" lon="4.94426">
        <ele>504.35</ele>
        <time>2016-12-28T14:51:50Z</time>
      </trkpt>
      <trkpt lat="47.39268" lon="4.94472">
        <ele>501.95</ele>
        <time>2016-12-28T14:52:05Z</time>
      </trkpt>
      <trkpt lat="47.39299" lon="4.94482">
        <ele>501.95</ele>
        <time>2016-12-28T14:52:19Z</time>
      </trkpt>
      <trkpt lat="47.39337" lon="4.94496">
        <ele>502.91</ele>
        <time>2016-12-28T14:52:36Z</time>
      </trkpt>
      <trkpt lat="47.39363" lon="4.94483">
        <ele>502.91</ele>
        <time>2016-12-28T14:52:48Z</time>
      </trkpt>
      <trkpt lat="47.39403" lon="4.94482">
        <ele>504.35</ele>
        <time>2016-12-28T14:53:03Z</time>
      </trkpt>
      <trkpt lat="47.39445" lon="4.94471">
        <ele>503.39</ele>
        <time>2016-12-28T14:53:16Z</time>
      </trkpt>
      <trkpt lat="47.39466" lon="4.94466">
        <ele>500.5</ele>
        <time>2016-12-28T14:53:21Z</time>
      </trkpt>
      <trkpt lat="47.39492" lon="4.94494">
        <ele>495.7</ele>
        <time>2016-12-28T14:53:30Z</time>
      </trkpt>
      <trkpt lat="47.39492" lon="4.94501">
        <ele>495.22</ele>
        <time>2016-12-28T14:53:32Z</time>
      </trkpt>
      <trkpt lat="47.39493" lon="4.94508">
        <ele>494.26</ele>
        <time>2016-12-28T14:53:34Z</time>
      </trkpt>
      <trkpt lat="47.39517" lon="4.94564">
        <ele>494.26</ele>
        <time>2016-12-28T14:53:46Z</time>
      </trkpt>
      <trkpt lat="47.39536" lon="4.9462">
        <ele>497.14</ele>
        <time>2016-12-28T14:53:58Z</time>
      </trkpt>
      <trkpt lat="47.39546" lon="4.94656">
        <ele>500.02</ele>
        <time>2016-12-28T14:54:09Z</time>
      </trkpt>
      <trkpt lat="47.39564" lon="4.94684">
        <ele>502.43</ele>
        <time>2016-12-28T14:54:19Z</time>
      </trkpt>
      <trkpt lat="47.3959" lon="4.94709">
        <ele>505.31</ele>
        <time>2016-12-28T14:54:30Z</time>
      </trkpt>
      <trkpt lat="47.39616" lon="4.9473">
        <ele>507.71</ele>
        <time>2016-12-28T14:54:42Z</time>
      </trkpt>
      <trkpt lat="47.39647" lon="4.9476">
        <ele>509.16</ele>
        <time>2016-12-28T14:54:55Z</time>
      </trkpt>
      <trkpt lat="47.39671" lon="4.94779">
        <ele>511.56</ele>
        <time>2016-12-28T14:55:06Z</time>
      </trkpt>
      <trkpt lat="47.39679" lon="4.94775">
        <ele>511.56</ele>
        <time>2016-12-28T14:55:10Z</time>
      </trkpt>
      <trkpt lat="47.39682" lon="4.94771">
        <ele>511.56</ele>
        <time>2016-12-28T14:55:12Z</time>
      </trkpt>
      <trkpt lat="47.3971" lon="4.94791">
        <ele>513.48</ele>
        <time>2016-12-28T14:55:23Z</time>
      </trkpt>
      <trkpt lat="47.39736" lon="4.94812">
        <ele>513.96</ele>
        <time>2016-12-28T14:55:35Z</time>
      </trkpt>
      <trkpt lat="47.39762" lon="4.94831">
        <ele>515.4</ele>
        <time>2016-12-28T14:55:47Z</time>
      </trkpt>
      <trkpt lat="47.39791" lon="4.9485">
        <ele>515.88</ele>
        <time>2016-12-28T14:55:59Z</time>
      </trkpt>
      <trkpt lat="47.39825" lon="4.94873">
        <ele>515.88</ele>
        <time>2016-12-28T14:56:11Z</time>
      </trkpt>
      <trkpt lat="47.39846" lon="4.94881">
        <ele>514.44</ele>
        <time>2016-12-28T14:56:17Z</time>
      </trkpt>
      <trkpt lat="47.39881" lon="4.94896">
        <ele>512.04</ele>
        <time>2016-12-28T14:56:28Z</time>
      </trkpt>
      <trkpt lat="47.3991" lon="4.94915">
        <ele>511.56</ele>
        <time>2016-12-28T14:56:39Z</time>
      </trkpt>
      <trkpt lat="47.39948" lon="4.94952">
        <ele>512.52</ele>
        <time>2016-12-28T14:56:52Z</time>
      </trkpt>
      <trkpt lat="47.39981" lon="4.95004">
        <ele>512.52</ele>
        <time>2016-12-28T14:57:05Z</time>
      </trkpt>
      <trkpt lat="47.39996" lon="4.95062">
        <ele>512.52</ele>
        <time>2016-12-28T14:57:17Z</time>
      </trkpt>
      <trkpt lat="47.40013" lon="4.95121">
        <ele>514.44</ele>
        <time>2016-12-28T14:57:29Z</time>
      </trkpt>
      <trkpt lat="47.40024" lon="4.95165">
        <ele>519.25</ele>
        <time>2016-12-28T14:57:42Z</time>
      </trkpt>
      <trkpt lat="47.40026" lon="4.95181">
        <ele>519.73</ele>
        <time>2016-12-28T14:57:54Z</time>
      </trkpt>
      <trkpt lat="47.40023" lon="4.95182">
        <ele>519.25</ele>
        <time>2016-12-28T14:58:23Z</time>
      </trkpt>
      <trkpt lat="47.40022" lon="4.95183">
        <ele>517.81</ele>
        <time>2016-12-28T14:58:43Z</time>
      </trkpt>
      <trkpt lat="47.40021" lon="4.95183">
        <ele>517.81</ele>
        <time>2016-12-28T14:59:09Z</time>
      </trkpt>
      <trkpt lat="47.4002" lon="4.95185">
        <ele>517.81</ele>
        <time>2016-12-28T14:59:11Z</time>
      </trkpt>
      <trkpt lat="47.40015" lon="4.95191">
        <ele>517.33</ele>
        <time>2016-12-28T14:59:16Z</time>
      </trkpt>
      <trkpt lat="47.40014" lon="4.95207">
        <ele>518.29</ele>
        <time>2016-12-28T14:59:21Z</time>
      </trkpt>
      <trkpt lat="47.40005" lon="4.95254">
        <ele>518.29</ele>
        <time>2016-12-28T14:59:34Z</time>
      </trkpt>
      <trkpt lat="47.39994" lon="4.95291">
        <ele>517.33</ele>
        <time>2016-12-28T14:59:42Z</time>
      </trkpt>
      <trkpt lat="47.39994" lon="4.9531">
        <ele>516.85</ele>
        <time>2016-12-28T14:59:46Z</time>
      </trkpt>
      <trkpt lat="47.39992" lon="4.95337">
        <ele>515.4</ele>
        <time>2016-12-28T14:59:52Z</time>
      </trkpt>
      <trkpt lat="47.39981" lon="4.95396">
        <ele>513.96</ele>
        <time>2016-12-28T15:00:04Z</time>
      </trkpt>
      <trkpt lat="47.39976" lon="4.95448">
        <ele>512.04</ele>
        <time>2016-12-28T15:00:14Z</time>
      </trkpt>
      <trkpt lat="47.39965" lon="4.95504">
        <ele>509.16</ele>
        <time>2016-12-28T15:00:24Z</time>
      </trkpt>
      <trkpt lat="47.3996" lon="4.95541">
        <ele>504.83</ele>
        <time>2016-12-28T15:00:31Z</time>
      </trkpt>
      <trkpt lat="47.39952" lon="4.95567">
        <ele>504.35</ele>
        <time>2016-12-28T15:00:36Z</time>
      </trkpt>
      <trkpt lat="47.39927" lon="4.95626">
        <ele>502.91</ele>
        <time>2016-12-28T15:00:47Z</time>
      </trkpt>
      <trkpt lat="47.39915" lon="4.95657">
        <ele>500.98</ele>
        <time>2016-12-28T15:00:52Z</time>
      </trkpt>
      <trkpt lat="47.39899" lon="4.95734">
        <ele>494.74</ele>
        <time>2016-12-28T15:01:04Z</time>
      </trkpt>
      <trkpt lat="47.39897" lon="4.95737">
        <ele>494.26</ele>
        <time>2016-12-28T15:01:06Z</time>
      </trkpt>
      <trkpt lat="47.39863" lon="4.9571">
        <ele>492.33</ele>
        <time>2016-12-28T15:01:17Z</time>
      </trkpt>
      <trkpt lat="47.39851" lon="4.95701">
        <ele>491.85</ele>
        <time>2016-12-28T15:01:20Z</time>
      </trkpt>
      <trkpt lat="47.39807" lon="4.95663">
        <ele>489.93</ele>
        <time>2016-12-28T15:01:31Z</time>
      </trkpt>
      <trkpt lat="47.39789" lon="4.95647">
        <ele>489.93</ele>
        <time>2016-12-28T15:01:35Z</time>
      </trkpt>
      <trkpt lat="47.39747" lon="4.95611">
        <ele>487.05</ele>
        <time>2016-12-28T15:01:46Z</time>
      </trkpt>
      <trkpt lat="47.39731" lon="4.95598">
        <ele>484.64</ele>
        <time>2016-12-28T15:01:51Z</time>
      </trkpt>
      <trkpt lat="47.39708" lon="4.95619">
        <ele>479.84</ele>
        <time>2016-12-28T15:01:59Z</time>
      </trkpt>
      <trkpt lat="47.39707" lon="4.95624">
        <ele>478.87</ele>
        <time>2016-12-28T15:02:00Z</time>
      </trkpt>
      <trkpt lat="47.39708" lon="4.95655">
        <ele>474.55</ele>
        <time>2016-12-28T15:02:05Z</time>
      </trkpt>
      <trkpt lat="47.39709" lon="4.95698">
        <ele>468.78</ele>
        <time>2016-12-28T15:02:14Z</time>
      </trkpt>
      <trkpt lat="47.39717" lon="4.95718">
        <ele>465.9</ele>
        <time>2016-12-28T15:02:20Z</time>
      </trkpt>
      <trkpt lat="47.39707" lon="4.95743">
        <ele>462.05</ele>
        <time>2016-12-28T15:02:27Z</time>
      </trkpt>
      <trkpt lat="47.39696" lon="4.95746">
        <ele>461.09</ele>
        <time>2016-12-28T15:02:29Z</time>
      </trkpt>
      <trkpt lat="47.39656" lon="4.95742">
        <ele>458.21</ele>
        <time>2016-12-28T15:02:38Z</time>
      </trkpt>
      <trkpt lat="47.39644" lon="4.95738">
        <ele>457.72</ele>
        <time>2016-12-28T15:02:41Z</time>
      </trkpt>
      <trkpt lat="47.39625" lon="4.95741">
        <ele>457.24</ele>
        <time>2016-12-28T15:02:45Z</time>
      </trkpt>
      <trkpt lat="47.39605" lon="4.95757">
        <ele>455.8</ele>
        <time>2016-12-28T15:02:50Z</time>
      </trkpt>
      <trkpt lat="47.39595" lon="4.95773">
        <ele>453.4</ele>
        <time>2016-12-28T15:02:54Z</time>
      </trkpt>
      <trkpt lat="47.39584" lon="4.95791">
        <ele>450.03</ele>
        <time>2016-12-28T15:03:06Z</time>
      </trkpt>
      <trkpt lat="47.3958" lon="4.95801">
        <ele>450.03</ele>
        <time>2016-12-28T15:03:14Z</time>
      </trkpt>
      <trkpt lat="47.39579" lon="4.95819">
        <ele>452.92</ele>
        <time>2016-12-28T15:03:22Z</time>
      </trkpt>
      <trkpt lat="47.39576" lon="4.95851">
        <ele>456.28</ele>
        <time>2016-12-28T15:03:37Z</time>
      </trkpt>
      <trkpt lat="47.39582" lon="4.95876">
        <ele>461.09</ele>
        <time>2016-12-28T15:03:51Z</time>
      </trkpt>
      <trkpt lat="47.39588" lon="4.95895">
        <ele>464.93</ele>
        <time>2016-12-28T15:04:03Z</time>
      </trkpt>
      <trkpt lat="47.39598" lon="4.95922">
        <ele>465.42</ele>
        <time>2016-12-28T15:04:16Z</time>
      </trkpt>
      <trkpt lat="47.396" lon="4.95931">
        <ele>465.42</ele>
        <time>2016-12-28T15:04:20Z</time>
      </trkpt>
      <trkpt lat="47.396" lon="4.95935">
        <ele>465.9</ele>
        <time>2016-12-28T15:04:22Z</time>
      </trkpt>
      <trkpt lat="47.39602" lon="4.95944">
        <ele>466.38</ele>
        <time>2016-12-28T15:04:35Z</time>
      </trkpt>
      <trkpt lat="47.39601" lon="4.95945">
        <ele>463.97</ele>
        <time>2016-12-28T15:04:56Z</time>
      </trkpt>
      <trkpt lat="47.39601" lon="4.95946">
        <ele>462.05</ele>
        <time>2016-12-28T15:05:25Z</time>
      </trkpt>
      <trkpt lat="47.39601" lon="4.95945">
        <ele>461.09</ele>
        <time>2016-12-28T15:05:55Z</time>
      </trkpt>
      <trkpt lat="47.39601" lon="4.95946">
        <ele>461.57</ele>
        <time>2016-12-28T15:06:04Z</time>
      </trkpt>
      <trkpt lat="47.39581" lon="4.95975">
        <ele>458.21</ele>
        <time>2016-12-28T15:06:14Z</time>
      </trkpt>
      <trkpt lat="47.39561" lon="4.95994">
        <ele>453.88</ele>
        <time>2016-12-28T15:06:19Z</time>
      </trkpt>
      <trkpt lat="47.3955" lon="4.96001">
        <ele>452.44</ele>
        <time>2016-12-28T15:06:21Z</time>
      </trkpt>
      <trkpt lat="47.39537" lon="4.96012">
        <ele>450.03</ele>
        <time>2016-12-28T15:06:24Z</time>
      </trkpt>
      <trkpt lat="47.39517" lon="4.96026">
        <ele>446.67</ele>
        <time>2016-12-28T15:06:28Z</time>
      </trkpt>
      <trkpt lat="47.39495" lon="4.96025">
        <ele>443.31</ele>
        <time>2016-12-28T15:06:32Z</time>
      </trkpt>
      <trkpt lat="47.39485" lon="4.96024">
        <ele>442.34</ele>
        <time>2016-12-28T15:06:34Z</time>
      </trkpt>
      <trkpt lat="47.39463" lon="4.96031">
        <ele>438.98</ele>
        <time>2016-12-28T15:06:40Z</time>
      </trkpt>
      <trkpt lat="47.39454" lon="4.9603">
        <ele>438.02</ele>
        <time>2016-12-28T15:06:44Z</time>
      </trkpt>
      <trkpt lat="47.3943" lon="4.96037">
        <ele>434.65</ele>
        <time>2016-12-28T15:06:53Z</time>
      </trkpt>
      <trkpt lat="47.39416" lon="4.96047">
        <ele>431.29</ele>
        <time>2016-12-28T15:06:59Z</time>
      </trkpt>
      <trkpt lat="47.39404" lon="4.96049">
        <ele>428.89</ele>
        <time>2016-12-28T15:07:03Z</time>
      </trkpt>
      <trkpt lat="47.39391" lon="4.96053">
        <ele>426</ele>
        <time>2016-12-28T15:07:07Z</time>
      </trkpt>
      <trkpt lat="47.39374" lon="4.96043">
        <ele>417.83</ele>
        <time>2016-12-28T15:07:18Z</time>
      </trkpt>
      <trkpt lat="47.39369" lon="4.96042">
        <ele>415.91</ele>
        <time>2016-12-28T15:07:22Z</time>
      </trkpt>
      <trkpt lat="47.39359" lon="4.96042">
        <ele>412.06</ele>
        <time>2016-12-28T15:07:28Z</time>
      </trkpt>
      <trkpt lat="47.39353" lon="4.96027">
        <ele>407.74</ele>
        <time>2016-12-28T15:07:35Z</time>
      </trkpt>
      <trkpt lat="47.39348" lon="4.96008">
        <ele>401.49</ele>
        <time>2016-12-28T15:07:45Z</time>
      </trkpt>
      <trkpt lat="47.39347" lon="4.96005">
        <ele>400.53</ele>
        <time>2016-12-28T15:08:10Z</time>
      </trkpt>
      <trkpt lat="47.39347" lon="4.96002">
        <ele>399.57</ele>
        <time>2016-12-28T15:08:23Z</time>
      </trkpt>
      <trkpt lat="47.39347" lon="4.95995">
        <ele>399.08</ele>
        <time>2016-12-28T15:08:37Z</time>
      </trkpt>
      <trkpt lat="47.39348" lon="4.95991">
        <ele>398.12</ele>
        <time>2016-12-28T15:08:50Z</time>
      </trkpt>
      <trkpt lat="47.39348" lon="4.95988">
        <ele>397.16</ele>
        <time>2016-12-28T15:09:04Z</time>
      </trkpt>
      <trkpt lat="47.39348" lon="4.95987">
        <ele>396.68</ele>
        <time>2016-12-28T15:09:19Z</time>
      </trkpt>
      <trkpt lat="47.39348" lon="4.95987">
        <ele>395.72</ele>
        <time>2016-12-28T15:09:31Z</time>
      </trkpt>
      <trkpt lat="47.39328" lon="4.95991">
        <ele>392.36</ele>
        <time>2016-12-28T15:09:39Z</time>
      </trkpt>
      <trkpt lat="47.39325" lon="4.9599">
        <ele>388.99</ele>
        <time>2016-12-28T15:09:53Z</time>
      </trkpt>
      <trkpt lat="47.39322" lon="4.95988">
        <ele>387.55</ele>
        <time>2016-12-28T15:10:15Z</time>
      </trkpt>
      <trkpt lat="47.3932" lon="4.95988">
        <ele>387.07</ele>
        <time>2016-12-28T15:10:38Z</time>
      </trkpt>
      <trkpt lat="47.3932" lon="4.95988">
        <ele>387.55</ele>
        <time>2016-12-28T15:10:58Z</time>
      </trkpt>
      <trkpt lat="47.39318" lon="4.95987">
        <ele>386.59</ele>
        <time>2016-12-28T15:11:26Z</time>
      </trkpt>
      <trkpt lat="47.39319" lon="4.95989">
        <ele>385.63</ele>
        <time>2016-12-28T15:11:46Z</time>
      </trkpt>
      <trkpt lat="47.39319" lon="4.95988">
        <ele>386.11</ele>
        <time>2016-12-28T15:11:55Z</time>
      </trkpt>
      <trkpt lat="47.39304" lon="4.96029">
        <ele>385.63</ele>
        <time>2016-12-28T15:12:06Z</time>
      </trkpt>
      <trkpt lat="47.39297" lon="4.96075">
        <ele>384.66</ele>
        <time>2016-12-28T15:12:14Z</time>
      </trkpt>
      <trkpt lat="47.39298" lon="4.961">
        <ele>384.66</ele>
        <time>2016-12-28T15:12:18Z</time>
      </trkpt>
      <trkpt lat="47.39299" lon="4.96113">
        <ele>384.66</ele>
        <time>2016-12-28T15:12:20Z</time>
      </trkpt>
      <trkpt lat="47.39296" lon="4.96138">
        <ele>384.18</ele>
        <time>2016-12-28T15:12:23Z</time>
      </trkpt>
      <trkpt lat="47.39294" lon="4.96194">
        <ele>383.22</ele>
        <time>2016-12-28T15:12:31Z</time>
      </trkpt>
      <trkpt lat="47.39296" lon="4.96238">
        <ele>382.74</ele>
        <time>2016-12-28T15:12:36Z</time>
      </trkpt>
      <trkpt lat="47.3929" lon="4.96317">
        <ele>381.3</ele>
        <time>2016-12-28T15:12:44Z</time>
      </trkpt>
      <trkpt lat="47.39291" lon="4.96355">
        <ele>379.86</ele>
        <time>2016-12-28T15:12:48Z</time>
      </trkpt>
      <trkpt lat="47.39316" lon="4.96477">
        <ele>377.94</ele>
        <time>2016-12-28T15:13:01Z</time>
      </trkpt>
      <trkpt lat="47.39336" lon="4.96557">
        <ele>379.38</ele>
        <time>2016-12-28T15:13:11Z</time>
      </trkpt>
      <trkpt lat="47.39365" lon="4.96632">
        <ele>378.9</ele>
        <time>2016-12-28T15:13:20Z</time>
      </trkpt>
      <trkpt lat="47.39419" lon="4.96748">
        <ele>374.57</ele>
        <time>2016-12-28T15:13:34Z</time>
      </trkpt>
      <trkpt lat="47.39444" lon="4.96836">
        <ele>366.88</ele>
        <time>2016-12-28T15:13:45Z</time>
      </trkpt>
      <trkpt lat="47.39446" lon="4.96861">
        <ele>365.44</ele>
        <time>2016-12-28T15:13:49Z</time>
      </trkpt>
      <trkpt lat="47.39444" lon="4.96905">
        <ele>363.52</ele>
        <time>2016-12-28T15:13:56Z</time>
      </trkpt>
      <trkpt lat="47.39446" lon="4.96944">
        <ele>362.07</ele>
        <time>2016-12-28T15:14:02Z</time>
      </trkpt>
      <trkpt lat="47.39441" lon="4.96986">
        <ele>360.15</ele>
        <time>2016-12-28T15:14:08Z</time>
      </trkpt>
      <trkpt lat="47.39423" lon="4.9706">
        <ele>359.19</ele>
        <time>2016-12-28T15:14:18Z</time>
      </trkpt>
      <trkpt lat="47.39415" lon="4.97088">
        <ele>358.23</ele>
        <time>2016-12-28T15:14:22Z</time>
      </trkpt>
      <trkpt lat="47.39407" lon="4.97116">
        <ele>357.75</ele>
        <time>2016-12-28T15:14:26Z</time>
      </trkpt>
      <trkpt lat="47.39399" lon="4.97156">
        <ele>357.27</ele>
        <time>2016-12-28T15:14:32Z</time>
      </trkpt>
      <trkpt lat="47.39379" lon="4.97222">
        <ele>355.34</ele>
        <time>2016-12-28T15:14:44Z</time>
      </trkpt>
      <trkpt lat="47.39379" lon="4.97226">
        <ele>355.83</ele>
        <time>2016-12-28T15:14:45Z</time>
      </trkpt>
      <trkpt lat="47.39363" lon="4.97271">
        <ele>353.9</ele>
        <time>2016-12-28T15:14:53Z</time>
      </trkpt>
      <trkpt lat="47.39359" lon="4.97293">
        <ele>353.9</ele>
        <time>2016-12-28T15:14:56Z</time>
      </trkpt>
      <trkpt lat="47.3936" lon="4.97316">
        <ele>353.42</ele>
        <time>2016-12-28T15:14:59Z</time>
      </trkpt>
      <trkpt lat="47.39372" lon="4.97359">
        <ele>352.46</ele>
        <time>2016-12-28T15:15:05Z</time>
      </trkpt>
      <trkpt lat="47.39401" lon="4.97413">
        <ele>351.98</ele>
        <time>2016-12-28T15:15:15Z</time>
      </trkpt>
      <trkpt lat="47.39448" lon="4.97489">
        <ele>350.54</ele>
        <time>2016-12-28T15:15:29Z</time>
      </trkpt>
      <trkpt lat="47.39456" lon="4.97501">
        <ele>350.54</ele>
        <time>2016-12-28T15:15:31Z</time>
      </trkpt>
      <trkpt lat="47.39503" lon="4.97602">
        <ele>350.06</ele>
        <time>2016-12-28T15:15:46Z</time>
      </trkpt>
      <trkpt lat="47.39565" lon="4.97678">
        <ele>348.62</ele>
        <time>2016-12-28T15:16:00Z</time>
      </trkpt>
      <trkpt lat="47.39606" lon="4.97722">
        <ele>345.73</ele>
        <time>2016-12-28T15:16:09Z</time>
      </trkpt>
      <trkpt lat="47.39624" lon="4.97738">
        <ele>345.25</ele>
        <time>2016-12-28T15:16:13Z</time>
      </trkpt>
      <trkpt lat="47.39654" lon="4.9776">
        <ele>343.81</ele>
        <time>2016-12-28T15:16:19Z</time>
      </trkpt>
      <trkpt lat="47.39724" lon="4.97818">
        <ele>340.92</ele>
        <time>2016-12-28T15:16:33Z</time>
      </trkpt>
      <trkpt lat="47.39748" lon="4.97843">
        <ele>340.44</ele>
        <time>2016-12-28T15:16:39Z</time>
      </trkpt>
      <trkpt lat="47.39765" lon="4.97867">
        <ele>341.41</ele>
        <time>2016-12-28T15:16:44Z</time>
      </trkpt>
      <trkpt lat="47.39771" lon="4.97878">
        <ele>340.92</ele>
        <time>2016-12-28T15:16:46Z</time>
      </trkpt>
      <trkpt lat="47.39776" lon="4.97911">
        <ele>340.44</ele>
        <time>2016-12-28T15:16:51Z</time>
      </trkpt>
      <trkpt lat="47.39774" lon="4.97939">
        <ele>338.52</ele>
        <time>2016-12-28T15:16:55Z</time>
      </trkpt>
      <trkpt lat="47.39772" lon="4.97959">
        <ele>337.56</ele>
        <time>2016-12-28T15:16:58Z</time>
      </trkpt>
      <trkpt lat="47.39771" lon="4.98016">
        <ele>335.16</ele>
        <time>2016-12-28T15:17:10Z</time>
      </trkpt>
      <trkpt lat="47.39774" lon="4.98029">
        <ele>335.16</ele>
        <time>2016-12-28T15:17:14Z</time>
      </trkpt>
      <trkpt lat="47.39775" lon="4.98047">
        <ele>334.68</ele>
        <time>2016-12-28T15:17:17Z</time>
      </trkpt>
      <trkpt lat="47.39779" lon="4.98075">
        <ele>334.68</ele>
        <time>2016-12-28T15:17:21Z</time>
      </trkpt>
      <trkpt lat="47.39798" lon="4.98172">
        <ele>336.12</ele>
        <time>2016-12-28T15:17:33Z</time>
      </trkpt>
      <trkpt lat="47.3981" lon="4.98238">
        <ele>337.56</ele>
        <time>2016-12-28T15:17:41Z</time>
      </trkpt>
      <trkpt lat="47.39813" lon="4.98269">
        <ele>338.52</ele>
        <time>2016-12-28T15:17:45Z</time>
      </trkpt>
      <trkpt lat="47.3982" lon="4.9829">
        <ele>339</ele>
        <time>2016-12-28T15:17:48Z</time>
      </trkpt>
      <trkpt lat="47.39837" lon="4.9835">
        <ele>338.52</ele>
        <time>2016-12-28T15:17:55Z</time>
      </trkpt>
      <trkpt lat="47.39846" lon="4.98394">
        <ele>336.6</ele>
        <time>2016-12-28T15:18:00Z</time>
      </trkpt>
      <trkpt lat="47.39862" lon="4.98448">
        <ele>336.12</ele>
        <time>2016-12-28T15:18:07Z</time>
      </trkpt>
      <trkpt lat="47.39896" lon="4.98535">
        <ele>334.2</ele>
        <time>2016-12-28T15:18:18Z</time>
      </trkpt>
      <trkpt lat="47.39954" lon="4.98631">
        <ele>336.6</ele>
        <time>2016-12-28T15:18:32Z</time>
      </trkpt>
      <trkpt lat="47.40015" lon="4.98746">
        <ele>337.08</ele>
        <time>2016-12-28T15:18:47Z</time>
      </trkpt>
      <trkpt lat="47.40022" lon="4.98763">
        <ele>336.6</ele>
        <time>2016-12-28T15:18:49Z</time>
      </trkpt>
      <trkpt lat="47.40033" lon="4.98816">
        <ele>335.16</ele>
        <time>2016-12-28T15:18:55Z</time>
      </trkpt>
      <trkpt lat="47.40044" lon="4.98859">
        <ele>334.2</ele>
        <time>2016-12-28T15:19:00Z</time>
      </trkpt>
      <trkpt lat="47.40068" lon="4.98915">
        <ele>332.75</ele>
        <time>2016-12-28T15:19:07Z</time>
      </trkpt>
      <trkpt lat="47.40074" lon="4.98931">
        <ele>332.27</ele>
        <time>2016-12-28T15:19:09Z</time>
      </trkpt>
      <trkpt lat="47.40092" lon="4.9897">
        <ele>330.83</ele>
        <time>2016-12-28T15:19:14Z</time>
      </trkpt>
      <trkpt lat="47.40125" lon="4.99057">
        <ele>328.91</ele>
        <time>2016-12-28T15:19:25Z</time>
      </trkpt>
      <trkpt lat="47.40159" lon="4.99111">
        <ele>329.39</ele>
        <time>2016-12-28T15:19:34Z</time>
      </trkpt>
      <trkpt lat="47.40187" lon="4.99148">
        <ele>328.91</ele>
        <time>2016-12-28T15:19:42Z</time>
      </trkpt>
      <trkpt lat="47.40248" lon="4.9922">
        <ele>329.39</ele>
        <time>2016-12-28T15:19:56Z</time>
      </trkpt>
      <trkpt lat="47.40268" lon="4.99243">
        <ele>327.47</ele>
        <time>2016-12-28T15:20:00Z</time>
      </trkpt>
      <trkpt lat="47.40344" lon="4.99307">
        <ele>324.58</ele>
        <time>2016-12-28T15:20:15Z</time>
      </trkpt>
      <trkpt lat="47.40393" lon="4.9935">
        <ele>322.18</ele>
        <time>2016-12-28T15:20:28Z</time>
      </trkpt>
      <trkpt lat="47.40399" lon="4.99357">
        <ele>321.7</ele>
        <time>2016-12-28T15:20:30Z</time>
      </trkpt>
      <trkpt lat="47.40428" lon="4.99384">
        <ele>319.3</ele>
        <time>2016-12-28T15:20:38Z</time>
      </trkpt>
      <trkpt lat="47.40443" lon="4.99396">
        <ele>319.3</ele>
        <time>2016-12-28T15:20:42Z</time>
      </trkpt>
      <trkpt lat="47.40511" lon="4.99455">
        <ele>314.49</ele>
        <time>2016-12-28T15:21:00Z</time>
      </trkpt>
      <trkpt lat="47.40563" lon="4.99508">
        <ele>313.53</ele>
        <time>2016-12-28T15:21:14Z</time>
      </trkpt>
      <trkpt lat="47.40608" lon="4.99557">
        <ele>311.12</ele>
        <time>2016-12-28T15:21:27Z</time>
      </trkpt>
      <trkpt lat="47.4064" lon="4.99614">
        <ele>306.8</ele>
        <time>2016-12-28T15:21:39Z</time>
      </trkpt>
      <trkpt lat="47.40658" lon="4.99693">
        <ele>303.91</ele>
        <time>2016-12-28T15:21:53Z</time>
      </trkpt>
      <trkpt lat="47.40672" lon="4.9976">
        <ele>304.39</ele>
        <time>2016-12-28T15:22:06Z</time>
      </trkpt>
      <trkpt lat="47.4068" lon="4.99827">
        <ele>302.95</ele>
        <time>2016-12-28T15:22:19Z</time>
      </trkpt>
      <trkpt lat="47.40682" lon="4.99851">
        <ele>302.95</ele>
        <time>2016-12-28T15:22:23Z</time>
      </trkpt>
      <trkpt lat="47.40702" lon="4.99966">
        <ele>302.47</ele>
        <time>2016-12-28T15:22:41Z</time>
      </trkpt>
      <trkpt lat="47.40708" lon="5.00005">
        <ele>301.99</ele>
        <time>2016-12-28T15:22:47Z</time>
      </trkpt>
      <trkpt lat="47.40722" lon="5.00112">
        <ele>303.43</ele>
        <time>2016-12-28T15:23:03Z</time>
      </trkpt>
      <trkpt lat="47.4072" lon="5.00148">
        <ele>302.95</ele>
        <time>2016-12-28T15:23:09Z</time>
      </trkpt>
      <trkpt lat="47.40717" lon="5.00162">
        <ele>302.47</ele>
        <time>2016-12-28T15:23:11Z</time>
      </trkpt>
      <trkpt lat="47.4071" lon="5.00204">
        <ele>300.55</ele>
        <time>2016-12-28T15:23:17Z</time>
      </trkpt>
      <trkpt lat="47.40703" lon="5.00252">
        <ele>299.59</ele>
        <time>2016-12-28T15:23:25Z</time>
      </trkpt>
      <trkpt lat="47.40682" lon="5.00329">
        <ele>298.15</ele>
        <time>2016-12-28T15:23:38Z</time>
      </trkpt>
      <trkpt lat="47.4068" lon="5.00336">
        <ele>297.67</ele>
        <time>2016-12-28T15:23:39Z</time>
      </trkpt>
      <trkpt lat="47.40673" lon="5.00405">
        <ele>298.15</ele>
        <time>2016-12-28T15:23:50Z</time>
      </trkpt>
      <trkpt lat="47.40657" lon="5.00499">
        <ele>299.11</ele>
        <time>2016-12-28T15:24:05Z</time>
      </trkpt>
      <trkpt lat="47.40654" lon="5.0051">
        <ele>299.11</ele>
        <time>2016-12-28T15:24:07Z</time>
      </trkpt>
      <trkpt lat="47.40614" lon="5.00603">
        <ele>298.63</ele>
        <time>2016-12-28T15:24:23Z</time>
      </trkpt>
      <trkpt lat="47.40573" lon="5.0069">
        <ele>298.63</ele>
        <time>2016-12-28T15:24:39Z</time>
      </trkpt>
      <trkpt lat="47.40542" lon="5.0079">
        <ele>298.63</ele>
        <time>2016-12-28T15:24:55Z</time>
      </trkpt>
      <trkpt lat="47.40517" lon="5.00895">
        <ele>299.59</ele>
        <time>2016-12-28T15:25:12Z</time>
      </trkpt>
      <trkpt lat="47.40476" lon="5.01008">
        <ele>297.67</ele>
        <time>2016-12-28T15:25:31Z</time>
      </trkpt>
      <trkpt lat="47.40446" lon="5.01107">
        <ele>298.15</ele>
        <time>2016-12-28T15:25:47Z</time>
      </trkpt>
      <trkpt lat="47.4043" lon="5.01135">
        <ele>297.67</ele>
        <time>2016-12-28T15:25:52Z</time>
      </trkpt>
      <trkpt lat="47.40353" lon="5.01244">
        <ele>296.22</ele>
        <time>2016-12-28T15:26:14Z</time>
      </trkpt>
      <trkpt lat="47.40297" lon="5.01339">
        <ele>296.7</ele>
        <time>2016-12-28T15:26:33Z</time>
      </trkpt>
      <trkpt lat="47.40251" lon="5.01437">
        <ele>296.7</ele>
        <time>2016-12-28T15:26:51Z</time>
      </trkpt>
      <trkpt lat="47.40208" lon="5.0152">
        <ele>296.22</ele>
        <time>2016-12-28T15:27:07Z</time>
      </trkpt>
      <trkpt lat="47.40205" lon="5.01525">
        <ele>295.74</ele>
        <time>2016-12-28T15:27:08Z</time>
      </trkpt>
      <trkpt lat="47.40162" lon="5.01569">
        <ele>294.3</ele>
        <time>2016-12-28T15:27:22Z</time>
      </trkpt>
      <trkpt lat="47.40118" lon="5.01604">
        <ele>294.78</ele>
        <time>2016-12-28T15:27:34Z</time>
      </trkpt>
      <trkpt lat="47.40067" lon="5.01651">
        <ele>291.9</ele>
        <time>2016-12-28T15:27:47Z</time>
      </trkpt>
      <trkpt lat="47.40014" lon="5.01716">
        <ele>292.38</ele>
        <time>2016-12-28T15:28:03Z</time>
      </trkpt>
      <trkpt lat="47.39949" lon="5.01785">
        <ele>290.94</ele>
        <time>2016-12-28T15:28:20Z</time>
      </trkpt>
      <trkpt lat="47.39899" lon="5.0184">
        <ele>290.94</ele>
        <time>2016-12-28T15:28:36Z</time>
      </trkpt>
      <trkpt lat="47.39883" lon="5.01842">
        <ele>290.94</ele>
        <time>2016-12-28T15:28:46Z</time>
      </trkpt>
      <trkpt lat="47.39884" lon="5.01844">
        <ele>294.3</ele>
        <time>2016-12-28T15:29:11Z</time>
      </trkpt>
      <trkpt lat="47.39882" lon="5.01842">
        <ele>294.3</ele>
        <time>2016-12-28T15:29:47Z</time>
      </trkpt>
      <trkpt lat="47.39882" lon="5.01842">
        <ele>294.3</ele>
        <time>2016-12-28T15:29:52Z</time>
      </trkpt>
      <trkpt lat="47.39877" lon="5.01798">
        <ele>294.3</ele>
        <time>2016-12-28T15:30:04Z</time>
      </trkpt>
      <trkpt lat="47.39864" lon="5.01726">
        <ele>294.3</ele>
        <time>2016-12-28T15:30:19Z</time>
      </trkpt>
      <trkpt lat="47.39855" lon="5.01659">
        <ele>298.15</ele>
        <time>2016-12-28T15:30:34Z</time>
      </trkpt>
      <trkpt lat="47.39851" lon="5.01574">
        <ele>299.59</ele>
        <time>2016-12-28T15:30:52Z</time>
      </trkpt>
      <trkpt lat="47.39842" lon="5.01505">
        <ele>296.7</ele>
        <time>2016-12-28T15:31:07Z</time>
      </trkpt>
      <trkpt lat="47.39829" lon="5.01432">
        <ele>296.7</ele>
        <time>2016-12-28T15:31:24Z</time>
      </trkpt>
      <trkpt lat="47.39819" lon="5.01349">
        <ele>297.18</ele>
        <time>2016-12-28T15:31:43Z</time>
      </trkpt>
      <trkpt lat="47.39814" lon="5.01283">
        <ele>297.18</ele>
        <time>2016-12-28T15:31:57Z</time>
      </trkpt>
      <trkpt lat="47.3981" lon="5.01218">
        <ele>297.18</ele>
        <time>2016-12-28T15:32:11Z</time>
      </trkpt>
      <trkpt lat="47.39797" lon="5.01163">
        <ele>298.15</ele>
        <time>2016-12-28T15:32:23Z</time>
      </trkpt>
      <trkpt lat="47.39778" lon="5.01111">
        <ele>303.43</ele>
        <time>2016-12-28T15:32:35Z</time>
      </trkpt>
      <trkpt lat="47.39749" lon="5.01062">
        <ele>305.36</ele>
        <time>2016-12-28T15:32:49Z</time>
      </trkpt>
      <trkpt lat="47.39716" lon="5.01028">
        <ele>307.76</ele>
        <time>2016-12-28T15:33:01Z</time>
      </trkpt>
      <trkpt lat="47.39695" lon="5.0099">
        <ele>308.24</ele>
        <time>2016-12-28T15:33:11Z</time>
      </trkpt>
      <trkpt lat="47.39675" lon="5.00935">
        <ele>309.68</ele>
        <time>2016-12-28T15:33:24Z</time>
      </trkpt>
      <trkpt lat="47.39661" lon="5.0088">
        <ele>313.05</ele>
        <time>2016-12-28T15:33:38Z</time>
      </trkpt>
      <trkpt lat="47.39654" lon="5.00835">
        <ele>311.6</ele>
        <time>2016-12-28T15:33:49Z</time>
      </trkpt>
      <trkpt lat="47.39652" lon="5.00821">
        <ele>311.6</ele>
        <time>2016-12-28T15:33:52Z</time>
      </trkpt>
      <trkpt lat="47.39649" lon="5.00814">
        <ele>312.09</ele>
        <time>2016-12-28T15:33:54Z</time>
      </trkpt>
      <trkpt lat="47.39643" lon="5.00772">
        <ele>313.53</ele>
        <time>2016-12-28T15:34:06Z</time>
      </trkpt>
      <trkpt lat="47.39618" lon="5.00723">
        <ele>314.97</ele>
        <time>2016-12-28T15:34:17Z</time>
      </trkpt>
      <trkpt lat="47.39598" lon="5.00682">
        <ele>320.26</ele>
        <time>2016-12-28T15:34:28Z</time>
      </trkpt>
      <trkpt lat="47.39595" lon="5.00675">
        <ele>321.7</ele>
        <time>2016-12-28T15:34:32Z</time>
      </trkpt>
      <trkpt lat="47.3959" lon="5.0068">
        <ele>321.22</ele>
        <time>2016-12-28T15:34:42Z</time>
      </trkpt>
      <trkpt lat="47.39593" lon="5.00698">
        <ele>322.18</ele>
        <time>2016-12-28T15:34:50Z</time>
      </trkpt>
      <trkpt lat="47.39596" lon="5.00732">
        <ele>326.02</ele>
        <time>2016-12-28T15:35:04Z</time>
      </trkpt>
      <trkpt lat="47.39595" lon="5.00755">
        <ele>328.43</ele>
        <time>2016-12-28T15:35:12Z</time>
      </trkpt>
      <trkpt lat="47.39591" lon="5.00769">
        <ele>326.5</ele>
        <time>2016-12-28T15:35:17Z</time>
      </trkpt>
      <trkpt lat="47.3959" lon="5.00786">
        <ele>326.02</ele>
        <time>2016-12-28T15:35:22Z</time>
      </trkpt>
      <trkpt lat="47.39589" lon="5.00803">
        <ele>324.1</ele>
        <time>2016-12-28T15:35:27Z</time>
      </trkpt>
      <trkpt lat="47.39592" lon="5.00853">
        <ele>326.99</ele>
        <time>2016-12-28T15:35:41Z</time>
      </trkpt>
      <trkpt lat="47.39593" lon="5.00903">
        <ele>332.27</ele>
        <time>2016-12-28T15:35:54Z</time>
      </trkpt>
      <trkpt lat="47.39594" lon="5.00954">
        <ele>336.12</ele>
        <time>2016-12-28T15:36:07Z</time>
      </trkpt>
      <trkpt lat="47.39591" lon="5.00992">
        <ele>334.68</ele>
        <time>2016-12-28T15:36:18Z</time>
      </trkpt>
      <trkpt lat="47.39592" lon="5.01012">
        <ele>332.27</ele>
        <time>2016-12-28T15:36:25Z</time>
      </trkpt>
      <trkpt lat="47.39578" lon="5.01026">
        <ele>328.43</ele>
        <time>2016-12-28T15:36:35Z</time>
      </trkpt>
      <trkpt lat="47.39564" lon="5.0105">
        <ele>326.5</ele>
        <time>2016-12-28T15:36:50Z</time>
      </trkpt>
      <trkpt lat="47.39548" lon="5.01041">
        <ele>326.99</ele>
        <time>2016-12-28T15:37:03Z</time>
      </trkpt>
      <trkpt lat="47.39539" lon="5.01051">
        <ele>327.47</ele>
        <time>2016-12-28T15:37:11Z</time>
      </trkpt>
      <trkpt lat="47.39535" lon="5.01055">
        <ele>326.99</ele>
        <time>2016-12-28T15:37:14Z</time>
      </trkpt>
      <trkpt lat="47.3953" lon="5.01053">
        <ele>327.95</ele>
        <time>2016-12-28T15:37:18Z</time>
      </trkpt>
      <trkpt lat="47.39521" lon="5.01057">
        <ele>328.91</ele>
        <time>2016-12-28T15:37:25Z</time>
      </trkpt>
      <trkpt lat="47.39519" lon="5.01057">
        <ele>329.39</ele>
        <time>2016-12-28T15:37:27Z</time>
      </trkpt>
      <trkpt lat="47.39511" lon="5.01055">
        <ele>331.31</ele>
        <time>2016-12-28T15:37:42Z</time>
      </trkpt>
      <trkpt lat="47.3951" lon="5.01055">
        <ele>332.27</ele>
        <time>2016-12-28T15:38:10Z</time>
      </trkpt>
      <trkpt lat="47.39511" lon="5.01055">
        <ele>332.27</ele>
        <time>2016-12-28T15:38:36Z</time>
      </trkpt>
      <trkpt lat="47.39512" lon="5.01054">
        <ele>333.23</ele>
        <time>2016-12-28T15:39:01Z</time>
      </trkpt>
      <trkpt lat="47.39512" lon="5.01053">
        <ele>333.71</ele>
        <time>2016-12-28T15:39:32Z</time>
      </trkpt>
      <trkpt lat="47.39512" lon="5.01054">
        <ele>333.71</ele>
        <time>2016-12-28T15:39:47Z</time>
      </trkpt>
      <trkpt lat="47.39512" lon="5.01055">
        <ele>334.68</ele>
        <time>2016-12-28T15:40:06Z</time>
      </trkpt>
      <trkpt lat="47.39511" lon="5.01052">
        <ele>335.16</ele>
        <time>2016-12-28T15:40:19Z</time>
      </trkpt>
      <trkpt lat="47.39492" lon="5.01023">
        <ele>337.08</ele>
        <time>2016-12-28T15:40:33Z</time>
      </trkpt>
      <trkpt lat="47.39477" lon="5.00978">
        <ele>342.37</ele>
        <time>2016-12-28T15:40:45Z</time>
      </trkpt>
      <trkpt lat="47.39459" lon="5.00924">
        <ele>345.25</ele>
        <time>2016-12-28T15:41:00Z</time>
      </trkpt>
      <trkpt lat="47.39443" lon="5.0088">
        <ele>346.69</ele>
        <time>2016-12-28T15:41:14Z</time>
      </trkpt>
      <trkpt lat="47.39432" lon="5.00867">
        <ele>346.69</ele>
        <time>2016-12-28T15:41:20Z</time>
      </trkpt>
      <trkpt lat="47.39413" lon="5.00819">
        <ele>346.21</ele>
        <time>2016-12-28T15:41:32Z</time>
      </trkpt>
      <trkpt lat="47.39392" lon="5.00789">
        <ele>347.17</ele>
        <time>2016-12-28T15:41:45Z</time>
      </trkpt>
      <trkpt lat="47.39373" lon="5.0076">
        <ele>348.62</ele>
        <time>2016-12-28T15:41:59Z</time>
      </trkpt>
      <trkpt lat="47.3936" lon="5.00736">
        <ele>350.06</ele>
        <time>2016-12-28T15:42:12Z</time>
      </trkpt>
      <trkpt lat="47.3934" lon="5.00706">
        <ele>351.98</ele>
        <time>2016-12-28T15:42:29Z</time>
      </trkpt>
      <trkpt lat="47.39318" lon="5.00672">
        <ele>355.34</ele>
        <time>2016-12-28T15:42:44Z</time>
      </trkpt>
      <trkpt lat="47.39296" lon="5.00636">
        <ele>364</ele>
        <time>2016-12-28T15:43:00Z</time>
      </trkpt>
      <trkpt lat="47.3928" lon="5.0061">
        <ele>370.24</ele>
        <time>2016-12-28T15:43:12Z</time>
      </trkpt>
      <trkpt lat="47.39263" lon="5.00579">
        <ele>376.49</ele>
        <time>2016-12-28T15:43:24Z</time>
      </trkpt>
      <trkpt lat="47.39239" lon="5.00542">
        <ele>383.7</ele>
        <time>2016-12-28T15:43:38Z</time>
      </trkpt>
      <trkpt lat="47.39216" lon="5.00509">
        <ele>386.59</ele>
        <time>2016-12-28T15:43:50Z</time>
      </trkpt>
      <trkpt lat="47.392" lon="5.00479">
        <ele>389.47</ele>
        <time>2016-12-28T15:44:01Z</time>
      </trkpt>
      <trkpt lat="47.39177" lon="5.00443">
        <ele>391.39</ele>
        <time>2016-12-28T15:44:14Z</time>
      </trkpt>
      <trkpt lat="47.39154" lon="5.00406">
        <ele>392.84</ele>
        <time>2016-12-28T15:44:27Z</time>
      </trkpt>
      <trkpt lat="47.3913" lon="5.00369">
        <ele>394.76</ele>
        <time>2016-12-28T15:44:40Z</time>
      </trkpt>
      <trkpt lat="47.39111" lon="5.0034">
        <ele>395.24</ele>
        <time>2016-12-28T15:44:52Z</time>
      </trkpt>
      <trkpt lat="47.39092" lon="5.00308">
        <ele>395.72</ele>
        <time>2016-12-28T15:45:04Z</time>
      </trkpt>
      <trkpt lat="47.39072" lon="5.00276">
        <ele>397.16</ele>
        <time>2016-12-28T15:45:16Z</time>
      </trkpt>
      <trkpt lat="47.39047" lon="5.00236">
        <ele>401.49</ele>
        <time>2016-12-28T15:45:30Z</time>
      </trkpt>
      <trkpt lat="47.39016" lon="5.00188">
        <ele>400.05</ele>
        <time>2016-12-28T15:45:44Z</time>
      </trkpt>
      <trkpt lat="47.38992" lon="5.00151">
        <ele>400.05</ele>
        <time>2016-12-28T15:45:57Z</time>
      </trkpt>
      <trkpt lat="47.38961" lon="5.00103">
        <ele>401.49</ele>
        <time>2016-12-28T15:46:13Z</time>
      </trkpt>
      <trkpt lat="47.38931" lon="5.00057">
        <ele>400.53</ele>
        <time>2016-12-28T15:46:27Z</time>
      </trkpt>
      <trkpt lat="47.38894" lon="4.99999">
        <ele>401.49</ele>
        <time>2016-12-28T15:46:42Z</time>
      </trkpt>
      <trkpt lat="47.38868" lon="4.99956">
        <ele>401.97</ele>
        <time>2016-12-28T15:46:53Z</time>
      </trkpt>
      <trkpt lat="47.38859" lon="4.99945">
        <ele>401.01</ele>
        <time>2016-12-28T15:46:59Z</time>
      </trkpt>
      <trkpt lat="47.38851" lon="4.99938">
        <ele>393.32</ele>
        <time>2016-12-28T15:47:10Z</time>
      </trkpt>
      <trkpt lat="47.38848" lon="4.99936">
        <ele>385.63</ele>
        <time>2016-12-28T15:47:31Z</time>
      </trkpt>
      <trkpt lat="47.38847" lon="4.99937">
        <ele>384.66</ele>
        <time>2016-12-28T15:47:52Z</time>
      </trkpt>
      <trkpt lat="47.38847" lon="4.99937">
        <ele>384.66</ele>
        <time>2016-12-28T15:48:15Z</time>
      </trkpt>
      <trkpt lat="47.38848" lon="4.99936">
        <ele>384.66</ele>
        <time>2016-12-28T15:48:37Z</time>
      </trkpt>
      <trkpt lat="47.3884" lon="4.99944">
        <ele>382.26</ele>
        <time>2016-12-28T15:49:00Z</time>
      </trkpt>
      <trkpt lat="47.38838" lon="4.99948">
        <ele>381.3</ele>
        <time>2016-12-28T15:49:03Z</time>
      </trkpt>
      <trkpt lat="47.38819" lon="4.9997">
        <ele>377.94</ele>
        <time>2016-12-28T15:49:15Z</time>
      </trkpt>
      <trkpt lat="47.38793" lon="5.00004">
        <ele>376.49</ele>
        <time>2016-12-28T15:49:31Z</time>
      </trkpt>
      <trkpt lat="47.38777" lon="5.00026">
        <ele>379.86</ele>
        <time>2016-12-28T15:49:42Z</time>
      </trkpt>
      <trkpt lat="47.38761" lon="5.00047">
        <ele>383.22</ele>
        <time>2016-12-28T15:49:51Z</time>
      </trkpt>
      <trkpt lat="47.38745" lon="5.00073">
        <ele>384.66</ele>
        <time>2016-12-28T15:50:03Z</time>
      </trkpt>
      <trkpt lat="47.38728" lon="5.00097">
        <ele>380.82</ele>
        <time>2016-12-28T15:50:14Z</time>
      </trkpt>
      <trkpt lat="47.38725" lon="5.00102">
        <ele>380.82</ele>
        <time>2016-12-28T15:50:17Z</time>
      </trkpt>
      <trkpt lat="47.38714" lon="5.00116">
        <ele>381.3</ele>
        <time>2016-12-28T15:50:23Z</time>
      </trkpt>
      <trkpt lat="47.38689" lon="5.00152">
        <ele>386.59</ele>
        <time>2016-12-28T15:50:35Z</time>
      </trkpt>
      <trkpt lat="47.38659" lon="5.00193">
        <ele>392.36</ele>
        <time>2016-12-28T15:50:48Z</time>
      </trkpt>
      <trkpt lat="47.38638" lon="5.00224">
        <ele>393.32</ele>
        <time>2016-12-28T15:50:59Z</time>
      </trkpt>
      <trkpt lat="47.38617" lon="5.00256">
        <ele>395.24</ele>
        <time>2016-12-28T15:51:08Z</time>
      </trkpt>
      <trkpt lat="47.38584" lon="5.00299">
        <ele>394.76</ele>
        <time>2016-12-28T15:51:20Z</time>
      </trkpt>
      <trkpt lat="47.38555" lon="5.0034">
        <ele>397.16</ele>
        <time>2016-12-28T15:51:30Z</time>
      </trkpt>
      <trkpt lat="47.3854" lon="5.00362">
        <ele>397.64</ele>
        <time>2016-12-28T15:51:38Z</time>
      </trkpt>
      <trkpt lat="47.3852" lon="5.00387">
        <ele>396.2</ele>
        <time>2016-12-28T15:51:46Z</time>
      </trkpt>
      <trkpt lat="47.38511" lon="5.00395">
        <ele>394.28</ele>
        <time>2016-12-28T15:51:49Z</time>
      </trkpt>
      <trkpt lat="47.38487" lon="5.00398">
        <ele>388.99</ele>
        <time>2016-12-28T15:51:55Z</time>
      </trkpt>
      <trkpt lat="47.38468" lon="5.00371">
        <ele>389.95</ele>
        <time>2016-12-28T15:52:09Z</time>
      </trkpt>
      <trkpt lat="47.38447" lon="5.0034">
        <ele>396.2</ele>
        <time>2016-12-28T15:52:23Z</time>
      </trkpt>
      <trkpt lat="47.38425" lon="5.00304">
        <ele>400.53</ele>
        <time>2016-12-28T15:52:37Z</time>
      </trkpt>
      <trkpt lat="47.38411" lon="5.00276">
        <ele>407.26</ele>
        <time>2016-12-28T15:52:49Z</time>
      </trkpt>
      <trkpt lat="47.38393" lon="5.00243">
        <ele>414.95</ele>
        <time>2016-12-28T15:53:03Z</time>
      </trkpt>
      <trkpt lat="47.38382" lon="5.00218">
        <ele>415.91</ele>
        <time>2016-12-28T15:53:16Z</time>
      </trkpt>
      <trkpt lat="47.38361" lon="5.00187">
        <ele>419.27</ele>
        <time>2016-12-28T15:53:26Z</time>
      </trkpt>
      <trkpt lat="47.38339" lon="5.00147">
        <ele>421.68</ele>
        <time>2016-12-28T15:53:41Z</time>
      </trkpt>
      <trkpt lat="47.38337" lon="5.00144">
        <ele>422.16</ele>
        <time>2016-12-28T15:53:42Z</time>
      </trkpt>
      <trkpt lat="47.38329" lon="5.00132">
        <ele>421.19</ele>
        <time>2016-12-28T15:53:46Z</time>
      </trkpt>
      <trkpt lat="47.38313" lon="5.00112">
        <ele>421.68</ele>
        <time>2016-12-28T15:53:50Z</time>
      </trkpt>
      <trkpt lat="47.38298" lon="5.00092">
        <ele>422.16</ele>
        <time>2016-12-28T15:53:56Z</time>
      </trkpt>
      <trkpt lat="47.38291" lon="5.00081">
        <ele>422.16</ele>
        <time>2016-12-28T15:54:00Z</time>
      </trkpt>
      <trkpt lat="47.38274" lon="5.00056">
        <ele>421.19</ele>
        <time>2016-12-28T15:54:08Z</time>
      </trkpt>
      <trkpt lat="47.38261" lon="5.00038">
        <ele>421.19</ele>
        <time>2016-12-28T15:54:16Z</time>
      </trkpt>
      <trkpt lat="47.38245" lon="5.00029">
        <ele>418.31</ele>
        <time>2016-12-28T15:54:21Z</time>
      </trkpt>
      <trkpt lat="47.38205" lon="5.00035">
        <ele>411.58</ele>
        <time>2016-12-28T15:54:34Z</time>
      </trkpt>
      <trkpt lat="47.38174" lon="5.00043">
        <ele>413.5</ele>
        <time>2016-12-28T15:54:44Z</time>
      </trkpt>
      <trkpt lat="47.38166" lon="5.00052">
        <ele>412.06</ele>
        <time>2016-12-28T15:54:48Z</time>
      </trkpt>
      <trkpt lat="47.38156" lon="5.00066">
        <ele>410.14</ele>
        <time>2016-12-28T15:54:52Z</time>
      </trkpt>
      <trkpt lat="47.3815" lon="5.0009">
        <ele>407.74</ele>
        <time>2016-12-28T15:54:57Z</time>
      </trkpt>
      <trkpt lat="47.38149" lon="5.00106">
        <ele>405.81</ele>
        <time>2016-12-28T15:55:01Z</time>
      </trkpt>
      <trkpt lat="47.38151" lon="5.00125">
        <ele>401.01</ele>
        <time>2016-12-28T15:55:05Z</time>
      </trkpt>
      <trkpt lat="47.38148" lon="5.00167">
        <ele>397.16</ele>
        <time>2016-12-28T15:55:14Z</time>
      </trkpt>
      <trkpt lat="47.38151" lon="5.002">
        <ele>393.8</ele>
        <time>2016-12-28T15:55:21Z</time>
      </trkpt>
      <trkpt lat="47.38157" lon="5.00263">
        <ele>391.87</ele>
        <time>2016-12-28T15:55:32Z</time>
      </trkpt>
      <trkpt lat="47.38147" lon="5.00294">
        <ele>389.47</ele>
        <time>2016-12-28T15:55:37Z</time>
      </trkpt>
      <trkpt lat="47.38143" lon="5.00321">
        <ele>387.55</ele>
        <time>2016-12-28T15:55:41Z</time>
      </trkpt>
      <trkpt lat="47.38137" lon="5.00353">
        <ele>385.63</ele>
        <time>2016-12-28T15:55:45Z</time>
      </trkpt>
      <trkpt lat="47.38137" lon="5.00384">
        <ele>383.7</ele>
        <time>2016-12-28T15:55:49Z</time>
      </trkpt>
      <trkpt lat="47.38132" lon="5.00414">
        <ele>381.3</ele>
        <time>2016-12-28T15:55:54Z</time>
      </trkpt>
      <trkpt lat="47.38131" lon="5.00432">
        <ele>378.9</ele>
        <time>2016-12-28T15:55:57Z</time>
      </trkpt>
      <trkpt lat="47.38136" lon="5.00482">
        <ele>374.09</ele>
        <time>2016-12-28T15:56:04Z</time>
      </trkpt>
      <trkpt lat="47.38137" lon="5.00496">
        <ele>372.17</ele>
        <time>2016-12-28T15:56:06Z</time>
      </trkpt>
      <trkpt lat="47.38142" lon="5.00527">
        <ele>368.32</ele>
        <time>2016-12-28T15:56:11Z</time>
      </trkpt>
      <trkpt lat="47.38149" lon="5.00548">
        <ele>366.88</ele>
        <time>2016-12-28T15:56:15Z</time>
      </trkpt>
      <trkpt lat="47.38169" lon="5.00568">
        <ele>365.44</ele>
        <time>2016-12-28T15:56:20Z</time>
      </trkpt>
      <trkpt lat="47.38185" lon="5.00585">
        <ele>362.55</ele>
        <time>2016-12-28T15:56:24Z</time>
      </trkpt>
      <trkpt lat="47.38201" lon="5.0061">
        <ele>361.59</ele>
        <time>2016-12-28T15:56:28Z</time>
      </trkpt>
      <trkpt lat="47.38206" lon="5.00654">
        <ele>358.71</ele>
        <time>2016-12-28T15:56:35Z</time>
      </trkpt>
      <trkpt lat="47.38201" lon="5.00666">
        <ele>358.23</ele>
        <time>2016-12-28T15:56:37Z</time>
      </trkpt>
      <trkpt lat="47.38195" lon="5.00691">
        <ele>356.79</ele>
        <time>2016-12-28T15:56:40Z</time>
      </trkpt>
      <trkpt lat="47.38189" lon="5.00734">
        <ele>354.86</ele>
        <time>2016-12-28T15:56:44Z</time>
      </trkpt>
      <trkpt lat="47.38187" lon="5.0081">
        <ele>350.54</ele>
        <time>2016-12-28T15:56:52Z</time>
      </trkpt>
      <trkpt lat="47.38187" lon="5.0082">
        <ele>350.06</ele>
        <time>2016-12-28T15:56:53Z</time>
      </trkpt>
      <trkpt lat="47.38192" lon="5.00875">
        <ele>347.17</ele>
        <time>2016-12-28T15:56:58Z</time>
      </trkpt>
      <trkpt lat="47.38191" lon="5.00907">
        <ele>345.25</ele>
        <time>2016-12-28T15:57:01Z</time>
      </trkpt>
      <trkpt lat="47.38172" lon="5.00958">
        <ele>339.96</ele>
        <time>2016-12-28T15:57:07Z</time>
      </trkpt>
      <trkpt lat="47.38164" lon="5.00977">
        <ele>339.48</ele>
        <time>2016-12-28T15:57:09Z</time>
      </trkpt>
      <trkpt lat="47.38157" lon="5.0103">
        <ele>339</ele>
        <time>2016-12-28T15:57:14Z</time>
      </trkpt>
      <trkpt lat="47.38162" lon="5.01073">
        <ele>338.04</ele>
        <time>2016-12-28T15:57:18Z</time>
      </trkpt>
      <trkpt lat="47.38169" lon="5.01152">
        <ele>336.6</ele>
        <time>2016-12-28T15:57:25Z</time>
      </trkpt>
      <trkpt lat="47.38164" lon="5.01205">
        <ele>332.75</ele>
        <time>2016-12-28T15:57:33Z</time>
      </trkpt>
      <trkpt lat="47.38163" lon="5.01216">
        <ele>331.79</ele>
        <time>2016-12-28T15:57:35Z</time>
      </trkpt>
      <trkpt lat="47.38149" lon="5.01231">
        <ele>327.95</ele>
        <time>2016-12-28T15:57:40Z</time>
      </trkpt>
      <trkpt lat="47.38143" lon="5.01231">
        <ele>326.02</ele>
        <time>2016-12-28T15:57:42Z</time>
      </trkpt>
      <trkpt lat="47.38134" lon="5.01246">
        <ele>324.58</ele>
        <time>2016-12-28T15:57:51Z</time>
      </trkpt>
      <trkpt lat="47.38133" lon="5.01251">
        <ele>323.14</ele>
        <time>2016-12-28T15:58:15Z</time>
      </trkpt>
      <trkpt lat="47.3813" lon="5.01287">
        <ele>321.7</ele>
        <time>2016-12-28T15:58:27Z</time>
      </trkpt>
      <trkpt lat="47.3813" lon="5.0129">
        <ele>321.7</ele>
        <time>2016-12-28T15:58:29Z</time>
      </trkpt>
      <trkpt lat="47.38128" lon="5.01296">
        <ele>321.7</ele>
        <time>2016-12-28T15:58:32Z</time>
      </trkpt>
      <trkpt lat="47.38127" lon="5.0131">
        <ele>322.18</ele>
        <time>2016-12-28T15:58:36Z</time>
      </trkpt>
      <trkpt lat="47.38123" lon="5.01324">
        <ele>322.18</ele>
        <time>2016-12-28T15:58:39Z</time>
      </trkpt>
      <trkpt lat="47.38117" lon="5.01358">
        <ele>323.62</ele>
        <time>2016-12-28T15:58:47Z</time>
      </trkpt>
      <trkpt lat="47.38104" lon="5.01396">
        <ele>323.14</ele>
        <time>2016-12-28T15:58:54Z</time>
      </trkpt>
      <trkpt lat="47.38112" lon="5.01427">
        <ele>321.7</ele>
        <time>2016-12-28T15:59:00Z</time>
      </trkpt>
      <trkpt lat="47.38117" lon="5.0145">
        <ele>319.3</ele>
        <time>2016-12-28T15:59:04Z</time>
      </trkpt>
      <trkpt lat="47.38129" lon="5.01465">
        <ele>317.37</ele>
        <time>2016-12-28T15:59:08Z</time>
      </trkpt>
      <trkpt lat="47.38142" lon="5.01515">
        <ele>310.16</ele>
        <time>2016-12-28T15:59:18Z</time>
      </trkpt>
      <trkpt lat="47.3814" lon="5.0153">
        <ele>309.68</ele>
        <time>2016-12-28T15:59:21Z</time>
      </trkpt>
      <trkpt lat="47.3812" lon="5.01604">
        <ele>308.72</ele>
        <time>2016-12-28T15:59:40Z</time>
      </trkpt>
      <trkpt lat="47.38115" lon="5.01613">
        <ele>308.72</ele>
        <time>2016-12-28T15:59:43Z</time>
      </trkpt>
      <trkpt lat="47.38095" lon="5.01632">
        <ele>308.72</ele>
        <time>2016-12-28T15:59:54Z</time>
      </trkpt>
      <trkpt lat="47.38091" lon="5.01645">
        <ele>308.72</ele>
        <time>2016-12-28T16:00:01Z</time>
      </trkpt>
      <trkpt lat="47.38096" lon="5.01659">
        <ele>309.2</ele>
        <time>2016-12-28T16:00:06Z</time>
      </trkpt>
      <trkpt lat="47.38105" lon="5.01688">
        <ele>309.2</ele>
        <time>2016-12-28T16:00:13Z</time>
      </trkpt>
      <trkpt lat="47.38117" lon="5.017">
        <ele>309.68</ele>
        <time>2016-12-28T16:00:17Z</time>
      </trkpt>
      <trkpt lat="47.38139" lon="5.0171">
        <ele>310.16</ele>
        <time>2016-12-28T16:00:23Z</time>
      </trkpt>
      <trkpt lat="47.38165" lon="5.01761">
        <ele>309.2</ele>
        <time>2016-12-28T16:00:35Z</time>
      </trkpt>
      <trkpt lat="47.38171" lon="5.01787">
        <ele>307.28</ele>
        <time>2016-12-28T16:00:40Z</time>
      </trkpt>
      <trkpt lat="47.38159" lon="5.01803">
        <ele>305.84</ele>
        <time>2016-12-28T16:00:46Z</time>
      </trkpt>
      <trkpt lat="47.38137" lon="5.01807">
        <ele>305.36</ele>
        <time>2016-12-28T16:00:53Z</time>
      </trkpt>
      <trkpt lat="47.38123" lon="5.01828">
        <ele>304.88</ele>
        <time>2016-12-28T16:01:00Z</time>
      </trkpt>
      <trkpt lat="47.38115" lon="5.01835">
        <ele>304.88</ele>
        <time>2016-12-28T16:01:03Z</time>
      </trkpt>
      <trkpt lat="47.38112" lon="5.01845">
        <ele>304.39</ele>
        <time>2016-12-28T16:01:18Z</time>
      </trkpt>
      <trkpt lat="47.38111" lon="5.01847">
        <ele>302.95</ele>
        <time>2016-12-28T16:01:30Z</time>
      </trkpt>
      <trkpt lat="47.38103" lon="5.01846">
        <ele>302.47</ele>
        <time>2016-12-28T16:01:36Z</time>
      </trkpt>
      <trkpt lat="47.38069" lon="5.01814">
        <ele>303.43</ele>
        <time>2016-12-28T16:01:52Z</time>
      </trkpt>
      <trkpt lat="47.38049" lon="5.01782">
        <ele>306.8</ele>
        <time>2016-12-28T16:02:05Z</time>
      </trkpt>
      <trkpt lat="47.38033" lon="5.01771">
        <ele>309.68</ele>
        <time>2016-12-28T16:02:12Z</time>
      </trkpt>
      <trkpt lat="47.38025" lon="5.01777">
        <ele>310.64</ele>
        <time>2016-12-28T16:02:17Z</time>
      </trkpt>
      <trkpt lat="47.38004" lon="5.01819">
        <ele>309.68</ele>
        <time>2016-12-28T16:02:32Z</time>
      </trkpt>
      <trkpt lat="47.38007" lon="5.01888">
        <ele>305.84</ele>
        <time>2016-12-28T16:02:44Z</time>
      </trkpt>
      <trkpt lat="47.37998" lon="5.01902">
        <ele>304.88</ele>
        <time>2016-12-28T16:02:49Z</time>
      </trkpt>
      <trkpt lat="47.37951" lon="5.01904">
        <ele>306.8</ele>
        <time>2016-12-28T16:03:03Z</time>
      </trkpt>
      <trkpt lat="47.37911" lon="5.01903">
        <ele>307.76</ele>
        <time>2016-12-28T16:03:16Z</time>
      </trkpt>
      <trkpt lat="47.37853" lon="5.01907">
        <ele>307.28</ele>
        <time>2016-12-28T16:03:33Z</time>
      </trkpt>
      <trkpt lat="47.37804" lon="5.01906">
        <ele>306.32</ele>
        <time>2016-12-28T16:03:47Z</time>
      </trkpt>
      <trkpt lat="47.3778" lon="5.01894">
        <ele>306.8</ele>
        <time>2016-12-28T16:03:55Z</time>
      </trkpt>
      <trkpt lat="47.3771" lon="5.01899">
        <ele>305.84</ele>
        <time>2016-12-28T16:04:12Z</time>
      </trkpt>
      <trkpt lat="47.37676" lon="5.01903">
        <ele>304.88</ele>
        <time>2016-12-28T16:04:22Z</time>
      </trkpt>
      <trkpt lat="47.37671" lon="5.01901">
        <ele>305.36</ele>
        <time>2016-12-28T16:04:23Z</time>
      </trkpt>
      <trkpt lat="47.37634" lon="5.01892">
        <ele>306.32</ele>
        <time>2016-12-28T16:04:32Z</time>
      </trkpt>
      <trkpt lat="47.37604" lon="5.01876">
        <ele>307.76</ele>
        <time>2016-12-28T16:04:42Z</time>
      </trkpt>
      <trkpt lat="47.37596" lon="5.01852">
        <ele>309.2</ele>
        <time>2016-12-28T16:04:51Z</time>
      </trkpt>
      <trkpt lat="47.37594" lon="5.0185">
        <ele>309.2</ele>
        <time>2016-12-28T16:04:52Z</time>
      </trkpt>
      <trkpt lat="47.37554" lon="5.01824">
        <ele>306.8</ele>
        <time>2016-12-28T16:05:07Z</time>
      </trkpt>
      <trkpt lat="47.3752" lon="5.01796">
        <ele>309.2</ele>
        <time>2016-12-28T16:05:20Z</time>
      </trkpt>
      <trkpt lat="47.3748" lon="5.01782">
        <ele>311.12</ele>
        <time>2016-12-28T16:05:35Z</time>
      </trkpt>
      <trkpt lat="47.3744" lon="5.01771">
        <ele>313.53</ele>
        <time>2016-12-28T16:05:49Z</time>
      </trkpt>
      <trkpt lat="47.37399" lon="5.01758">
        <ele>315.93</ele>
        <time>2016-12-28T16:06:03Z</time>
      </trkpt>
      <trkpt lat="47.37357" lon="5.01749">
        <ele>318.81</ele>
        <time>2016-12-28T16:06:17Z</time>
      </trkpt>
      <trkpt lat="47.37323" lon="5.0173">
        <ele>320.26</ele>
        <time>2016-12-28T16:06:30Z</time>
      </trkpt>
      <trkpt lat="47.37315" lon="5.0172">
        <ele>321.22</ele>
        <time>2016-12-28T16:06:35Z</time>
      </trkpt>
      <trkpt lat="47.37311" lon="5.0172">
        <ele>321.7</ele>
        <time>2016-12-28T16:06:43Z</time>
      </trkpt>
      <trkpt lat="47.37308" lon="5.01737">
        <ele>320.26</ele>
        <time>2016-12-28T16:06:49Z</time>
      </trkpt>
      <trkpt lat="47.37304" lon="5.01746">
        <ele>319.3</ele>
        <time>2016-12-28T16:06:51Z</time>
      </trkpt>
      <trkpt lat="47.37297" lon="5.01788">
        <ele>316.89</ele>
        <time>2016-12-28T16:06:57Z</time>
      </trkpt>
      <trkpt lat="47.37295" lon="5.01811">
        <ele>315.93</ele>
        <time>2016-12-28T16:07:00Z</time>
      </trkpt>
      <trkpt lat="47.37286" lon="5.01867">
        <ele>313.53</ele>
        <time>2016-12-28T16:07:10Z</time>
      </trkpt>
      <trkpt lat="47.37277" lon="5.01873">
        <ele>312.57</ele>
        <time>2016-12-28T16:07:14Z</time>
      </trkpt>
      <trkpt lat="47.3721" lon="5.01874">
        <ele>307.76</ele>
        <time>2016-12-28T16:07:26Z</time>
      </trkpt>
      <trkpt lat="47.37203" lon="5.01875">
        <ele>307.28</ele>
        <time>2016-12-28T16:07:27Z</time>
      </trkpt>
      <trkpt lat="47.37166" lon="5.01869">
        <ele>305.84</ele>
        <time>2016-12-28T16:07:34Z</time>
      </trkpt>
      <trkpt lat="47.37159" lon="5.0183">
        <ele>303.91</ele>
        <time>2016-12-28T16:07:43Z</time>
      </trkpt>
      <trkpt lat="47.37158" lon="5.01795">
        <ele>301.99</ele>
        <time>2016-12-28T16:07:47Z</time>
      </trkpt>
      <trkpt lat="47.37143" lon="5.01773">
        <ele>300.07</ele>
        <time>2016-12-28T16:07:56Z</time>
      </trkpt>
      <trkpt lat="47.37128" lon="5.01763">
        <ele>298.63</ele>
        <time>2016-12-28T16:08:04Z</time>
      </trkpt>
      <trkpt lat="47.37123" lon="5.01757">
        <ele>298.15</ele>
        <time>2016-12-28T16:08:08Z</time>
      </trkpt>
      <trkpt lat="47.37087" lon="5.01735">
        <ele>302.47</ele>
        <time>2016-12-28T16:08:24Z</time>
      </trkpt>
      <trkpt lat="47.37066" lon="5.01723">
        <ele>307.76</ele>
        <time>2016-12-28T16:08:36Z</time>
      </trkpt>
      <trkpt lat="47.37058" lon="5.01723">
        <ele>307.28</ele>
        <time>2016-12-28T16:08:42Z</time>
      </trkpt>
      <trkpt lat="47.37054" lon="5.01733">
        <ele>306.8</ele>
        <time>2016-12-28T16:08:46Z</time>
      </trkpt>
      <trkpt lat="47.37038" lon="5.01776">
        <ele>306.32</ele>
        <time>2016-12-28T16:08:57Z</time>
      </trkpt>
      <trkpt lat="47.37036" lon="5.01791">
        <ele>306.8</ele>
        <time>2016-12-28T16:09:07Z</time>
      </trkpt>
      <trkpt lat="47.37035" lon="5.01797">
        <ele>307.28</ele>
        <time>2016-12-28T16:09:29Z</time>
      </trkpt>
      <trkpt lat="47.37033" lon="5.01801">
        <ele>307.28</ele>
        <time>2016-12-28T16:09:34Z</time>
      </trkpt>
      <trkpt lat="47.37026" lon="5.01822">
        <ele>306.8</ele>
        <time>2016-12-28T16:09:41Z</time>
      </trkpt>
      <trkpt lat="47.37024" lon="5.01851">
        <ele>305.84</ele>
        <time>2016-12-28T16:09:45Z</time>
      </trkpt>
      <trkpt lat="47.37025" lon="5.01863">
        <ele>305.36</ele>
        <time>2016-12-28T16:09:47Z</time>
      </trkpt>
      <trkpt lat="47.37018" lon="5.01877">
        <ele>305.84</ele>
        <time>2016-12-28T16:09:53Z</time>
      </trkpt>
      <trkpt lat="47.37019" lon="5.01895">
        <ele>307.28</ele>
        <time>2016-12-28T16:10:05Z</time>
      </trkpt>
      <trkpt lat="47.37019" lon="5.01904">
        <ele>308.72</ele>
        <time>2016-12-28T16:10:13Z</time>
      </trkpt>
      <trkpt lat="47.37023" lon="5.01911">
        <ele>307.28</ele>
        <time>2016-12-28T16:10:25Z</time>
      </trkpt>
      <trkpt lat="47.37023" lon="5.01918">
        <ele>307.28</ele>
        <time>2016-12-28T16:10:29Z</time>
      </trkpt>
      <trkpt lat="47.37024" lon="5.01933">
        <ele>306.8</ele>
        <time>2016-12-28T16:10:46Z</time>
      </trkpt>
      <trkpt lat="47.37023" lon="5.01948">
        <ele>306.8</ele>
        <time>2016-12-28T16:10:50Z</time>
      </trkpt>
      <trkpt lat="47.37031" lon="5.01972">
        <ele>305.84</ele>
        <time>2016-12-28T16:10:55Z</time>
      </trkpt>
      <trkpt lat="47.3703" lon="5.02007">
        <ele>304.88</ele>
        <time>2016-12-28T16:11:02Z</time>
      </trkpt>
      <trkpt lat="47.37052" lon="5.02032">
        <ele>298.15</ele>
        <time>2016-12-28T16:11:11Z</time>
      </trkpt>
      <trkpt lat="47.37042" lon="5.02041">
        <ele>297.67</ele>
        <time>2016-12-28T16:11:15Z</time>
      </trkpt>
      <trkpt lat="47.37007" lon="5.02054">
        <ele>294.3</ele>
        <time>2016-12-28T16:11:24Z</time>
      </trkpt>
      <trkpt lat="47.36958" lon="5.02071">
        <ele>291.42</ele>
        <time>2016-12-28T16:11:33Z</time>
      </trkpt>
      <trkpt lat="47.36935" lon="5.02075">
        <ele>289.01</ele>
        <time>2016-12-28T16:11:41Z</time>
      </trkpt>
      <trkpt lat="47.36925" lon="5.02102">
        <ele>287.09</ele>
        <time>2016-12-28T16:11:53Z</time>
      </trkpt>
      <trkpt lat="47.36925" lon="5.02105">
        <ele>287.09</ele>
        <time>2016-12-28T16:11:54Z</time>
      </trkpt>
      <trkpt lat="47.36922" lon="5.0211">
        <ele>286.61</ele>
        <time>2016-12-28T16:11:57Z</time>
      </trkpt>
      <trkpt lat="47.36912" lon="5.02136">
        <ele>286.13</ele>
        <time>2016-12-28T16:12:05Z</time>
      </trkpt>
      <trkpt lat="47.36911" lon="5.02181">
        <ele>283.25</ele>
        <time>2016-12-28T16:12:15Z</time>
      </trkpt>
      <trkpt lat="47.36911" lon="5.02237">
        <ele>279.4</ele>
        <time>2016-12-28T16:12:26Z</time>
      </trkpt>
      <trkpt lat="47.36906" lon="5.0227">
        <ele>277</ele>
        <time>2016-12-28T16:12:33Z</time>
      </trkpt>
      <trkpt lat="47.369" lon="5.02292">
        <ele>276.04</ele>
        <time>2016-12-28T16:12:37Z</time>
      </trkpt>
      <trkpt lat="47.36893" lon="5.02318">
        <ele>275.07</ele>
        <time>2016-12-28T16:12:42Z</time>
      </trkpt>
      <trkpt lat="47.36895" lon="5.02392">
        <ele>274.11</ele>
        <time>2016-12-28T16:12:56Z</time>
      </trkpt>
      <trkpt lat="47.36903" lon="5.02433">
        <ele>273.63</ele>
        <time>2016-12-28T16:13:04Z</time>
      </trkpt>
      <trkpt lat="47.36952" lon="5.02477">
        <ele>271.71</ele>
        <time>2016-12-28T16:13:18Z</time>
      </trkpt>
      <trkpt lat="47.36974" lon="5.02501">
        <ele>273.63</ele>
        <time>2016-12-28T16:13:26Z</time>
      </trkpt>
      <trkpt lat="47.36968" lon="5.02523">
        <ele>273.15</ele>
        <time>2016-12-28T16:13:31Z</time>
      </trkpt>
      <trkpt lat="47.36924" lon="5.02557">
        <ele>273.63</ele>
        <time>2016-12-28T16:13:45Z</time>
      </trkpt>
      <trkpt lat="47.36911" lon="5.02566">
        <ele>273.15</ele>
        <time>2016-12-28T16:13:54Z</time>
      </trkpt>
      <trkpt lat="47.36907" lon="5.02561">
        <ele>273.15</ele>
        <time>2016-12-28T16:14:02Z</time>
      </trkpt>
      <trkpt lat="47.36907" lon="5.02558">
        <ele>273.63</ele>
        <time>2016-12-28T16:14:13Z</time>
      </trkpt>
      <trkpt lat="47.36907" lon="5.02556">
        <ele>272.19</ele>
        <time>2016-12-28T16:14:57Z</time>
      </trkpt>
      <trkpt lat="47.36907" lon="5.0256">
        <ele>272.67</ele>
        <time>2016-12-28T16:15:33Z</time>
      </trkpt>
      <trkpt lat="47.36908" lon="5.02559">
        <ele>273.15</ele>
        <time>2016-12-28T16:16:12Z</time>
      </trkpt>
      <trkpt lat="47.36906" lon="5.02558">
        <ele>272.19</ele>
        <time>2016-12-28T16:16:47Z</time>
      </trkpt>
      <trkpt lat="47.36908" lon="5.02557">
        <ele>273.63</ele>
        <time>2016-12-28T16:17:18Z</time>
      </trkpt>
    </trkseg>
  </trk>
</gpx>